<?xml version='1.0' encoding='UTF-8'?><gpx version="1.1" creator="JPX - https://github.com/jenetics/jpx" xmlns="http://www.topografix.com/GPX/1/1"><trk><trkseg><trkpt lat="51.042152304003096" lon="2.3783901982371924"><ele>5.0</ele><time>2026-03-27T15:28:57Z</time></trkpt><trkpt lat="51.042214324411525" lon="2.378458028559217"><ele>5.0</ele><time>2026-03-27T15:29:00Z</time></trkpt><trkpt lat="51.042360373406005" lon="2.3785074345199093"><ele>5.0</ele><time>2026-03-27T15:29:04.999Z</time></trkpt><trkpt lat="51.04240936271662" lon="2.3786276308458394"><ele>5.0</ele><time>2026-03-27T15:29:06.999Z</time></trkpt><trkpt lat="51.04245159501864" lon="2.3787547602263572"><ele>5.0</ele><time>2026-03-27T15:29:08.999Z</time></trkpt><trkpt lat="51.0424878682805" lon="2.3788556684763456"><ele>5.5</ele><time>2026-03-27T15:29:10.999Z</time></trkpt><trkpt lat="51.04253600129842" lon="2.378935871263159"><ele>6.0</ele><time>2026-03-27T15:29:12.999Z</time></trkpt><trkpt lat="51.04259461940752" lon="2.3790134851812876"><ele>6.5</ele><time>2026-03-27T15:29:16.999Z</time></trkpt><trkpt lat="51.042659651650986" lon="2.3791059952976026"><ele>7.0</ele><time>2026-03-27T15:29:19.999Z</time></trkpt><trkpt lat="51.042733727930994" lon="2.379166351658111"><ele>7.499999999999999</ele><time>2026-03-27T15:29:22.999Z</time></trkpt><trkpt lat="51.042787668512325" lon="2.379258342010887"><ele>8.0</ele><time>2026-03-27T15:29:24.999Z</time></trkpt><trkpt lat="51.04283348549743" lon="2.379356622247181"><ele>7.999999999999999</ele><time>2026-03-27T15:29:26.999Z</time></trkpt><trkpt lat="51.04287740581858" lon="2.379446205896111"><ele>8.0</ele><time>2026-03-27T15:29:29.999Z</time></trkpt><trkpt lat="51.04293761238235" lon="2.379565739556584"><ele>8.0</ele><time>2026-03-27T15:29:32.999Z</time></trkpt><trkpt lat="51.042977898166015" lon="2.3796976948994506"><ele>8.0</ele><time>2026-03-27T15:29:34.999Z</time></trkpt><trkpt lat="51.043002896811444" lon="2.379810243372742"><ele>7.999999999999999</ele><time>2026-03-27T15:29:36.999Z</time></trkpt><trkpt lat="51.043025883343354" lon="2.3799200224405235"><ele>8.0</ele><time>2026-03-27T15:29:38.999Z</time></trkpt><trkpt lat="51.04306680725049" lon="2.3800081949156833"><ele>7.833333333333333</ele><time>2026-03-27T15:29:40.999Z</time></trkpt><trkpt lat="51.043126406902644" lon="2.3801088878837104"><ele>7.666666666666666</ele><time>2026-03-27T15:29:43.999Z</time></trkpt><trkpt lat="51.04317463776122" lon="2.380190951118163"><ele>7.5</ele><time>2026-03-27T15:29:46.999Z</time></trkpt><trkpt lat="51.04322545368514" lon="2.3802941505089237"><ele>7.333333333333334</ele><time>2026-03-27T15:29:49.999Z</time></trkpt><trkpt lat="51.043260681751065" lon="2.380383537172403"><ele>7.166666666666667</ele><time>2026-03-27T15:29:51.999Z</time></trkpt><trkpt lat="51.04330432466897" lon="2.3804870610522793"><ele>7.0</ele><time>2026-03-27T15:29:54.999Z</time></trkpt><trkpt lat="51.04335373929742" lon="2.380563186327283"><ele>6.833333333333334</ele><time>2026-03-27T15:29:56.999Z</time></trkpt><trkpt lat="51.04342001187595" lon="2.380670760837175"><ele>6.666666666666667</ele><time>2026-03-27T15:29:59.999Z</time></trkpt><trkpt lat="51.04345809879607" lon="2.3807851256675994"><ele>6.5</ele><time>2026-03-27T15:30:01.999Z</time></trkpt><trkpt lat="51.043493214366954" lon="2.380880160827008"><ele>6.333333333333334</ele><time>2026-03-27T15:30:03.999Z</time></trkpt><trkpt lat="51.0435468116976" lon="2.38098941927736"><ele>6.166666666666667</ele><time>2026-03-27T15:30:06.999Z</time></trkpt><trkpt lat="51.043596628406405" lon="2.3810768478956392"><ele>6.0</ele><time>2026-03-27T15:30:09.999Z</time></trkpt><trkpt lat="51.043630901968534" lon="2.3811694828102596"><ele>6.0</ele><time>2026-03-27T15:30:11.999Z</time></trkpt><trkpt lat="51.04367882694975" lon="2.3812419395968365"><ele>6.0</ele><time>2026-03-27T15:30:13.999Z</time></trkpt><trkpt lat="51.043722602161445" lon="2.3813215719033534"><ele>6.0</ele><time>2026-03-27T15:30:16.999Z</time></trkpt><trkpt lat="51.043777463051896" lon="2.3814366100031275"><ele>6.0</ele><time>2026-03-27T15:30:19.999Z</time></trkpt><trkpt lat="51.04382148249446" lon="2.3815110412827725"><ele>6.0</ele><time>2026-03-27T15:30:24Z</time></trkpt><trkpt lat="51.04389023756266" lon="2.3816364584273617"><ele>6.0</ele><time>2026-03-27T15:30:27Z</time></trkpt><trkpt lat="51.04393209016899" lon="2.38173278612174"><ele>6.0</ele><time>2026-03-27T15:30:30Z</time></trkpt><trkpt lat="51.043967159764286" lon="2.381969867989167"><ele>6.0</ele><time>2026-03-27T15:30:42Z</time></trkpt><trkpt lat="51.04389727615527" lon="2.3819831235956768"><ele>6.0</ele><time>2026-03-27T15:30:47Z</time></trkpt><trkpt lat="51.04392493949767" lon="2.381887289746231"><ele>6.0</ele><time>2026-03-27T15:30:50Z</time></trkpt><trkpt lat="51.04396889997855" lon="2.3817664514605217"><ele>6.0</ele><time>2026-03-27T15:30:52Z</time></trkpt><trkpt lat="51.044004459251646" lon="2.3816666609181003"><ele>6.0</ele><time>2026-03-27T15:30:54Z</time></trkpt><trkpt lat="51.04406117161043" lon="2.3816005087707945"><ele>6.0</ele><time>2026-03-27T15:30:56Z</time></trkpt><trkpt lat="51.044148433372484" lon="2.381609063001324"><ele>6.0</ele><time>2026-03-27T15:30:59Z</time></trkpt><trkpt lat="51.0442145949802" lon="2.3816798954179115"><ele>6.0</ele><time>2026-03-27T15:31:02Z</time></trkpt><trkpt lat="51.0442976897793" lon="2.381675444554232"><ele>6.0</ele><time>2026-03-27T15:31:05Z</time></trkpt><trkpt lat="51.04436692639661" lon="2.3816334475899708"><ele>6.0</ele><time>2026-03-27T15:31:08Z</time></trkpt><trkpt lat="51.04444422398435" lon="2.381580114454959"><ele>5.833333333333333</ele><time>2026-03-27T15:31:11Z</time></trkpt><trkpt lat="51.0445084193598" lon="2.3815538758044705"><ele>5.666666666666667</ele><time>2026-03-27T15:31:12.999Z</time></trkpt><trkpt lat="51.044593083035004" lon="2.3815154298501935"><ele>5.5</ele><time>2026-03-27T15:31:15.999Z</time></trkpt><trkpt lat="51.04465506230049" lon="2.3814943589639155"><ele>5.333333333333334</ele><time>2026-03-27T15:31:18.999Z</time></trkpt><trkpt lat="51.04464712911222" lon="2.381615757586216"><ele>5.166666666666667</ele><time>2026-03-27T15:31:23.999Z</time></trkpt><trkpt lat="51.04473675105161" lon="2.381632396467749"><ele>5.0</ele><time>2026-03-27T15:31:27.999Z</time></trkpt><trkpt lat="51.044823893368864" lon="2.381573931537935"><ele>5.0</ele><time>2026-03-27T15:31:29.999Z</time></trkpt><trkpt lat="51.044908845100835" lon="2.3815472391828223"><ele>5.0</ele><time>2026-03-27T15:31:31.999Z</time></trkpt><trkpt lat="51.044980774753974" lon="2.381510345229158"><ele>5.0</ele><time>2026-03-27T15:31:33.999Z</time></trkpt><trkpt lat="51.04504879958492" lon="2.381490840380003"><ele>5.0</ele><time>2026-03-27T15:31:35.999Z</time></trkpt><trkpt lat="51.04513896081248" lon="2.3814457951665755"><ele>5.0</ele><time>2026-03-27T15:31:38.999Z</time></trkpt><trkpt lat="51.04521350416945" lon="2.3814024400742966"><ele>5.0</ele><time>2026-03-27T15:31:41.999Z</time></trkpt><trkpt lat="51.045277246357" lon="2.381373699780617"><ele>5.285714285714286</ele><time>2026-03-27T15:31:44.999Z</time></trkpt><trkpt lat="51.04535704105584" lon="2.381357680207721"><ele>5.571428571428571</ele><time>2026-03-27T15:31:47.999Z</time></trkpt><trkpt lat="51.04542882714956" lon="2.3813464973562875"><ele>5.857142857142858</ele><time>2026-03-27T15:31:49.999Z</time></trkpt><trkpt lat="51.045498889381975" lon="2.3813270986853206"><ele>6.142857142857142</ele><time>2026-03-27T15:31:51.999Z</time></trkpt><trkpt lat="51.045566124451526" lon="2.381301148626585"><ele>6.428571428571429</ele><time>2026-03-27T15:31:53.999Z</time></trkpt><trkpt lat="51.04563146755847" lon="2.38128297107216"><ele>6.714285714285714</ele><time>2026-03-27T15:31:55.999Z</time></trkpt><trkpt lat="51.045705127491196" lon="2.3812523258212335"><ele>7.0</ele><time>2026-03-27T15:31:57.999Z</time></trkpt><trkpt lat="51.04580284074544" lon="2.381222561485808"><ele>7.000000000000001</ele><time>2026-03-27T15:31:59.999Z</time></trkpt><trkpt lat="51.045880614268484" lon="2.3812005340547624"><ele>7.0</ele><time>2026-03-27T15:32:01.999Z</time></trkpt><trkpt lat="51.04595105796756" lon="2.3811721201329936"><ele>7.0</ele><time>2026-03-27T15:32:03.999Z</time></trkpt><trkpt lat="51.0460342201983" lon="2.3811578326367684"><ele>7.0</ele><time>2026-03-27T15:32:06.999Z</time></trkpt><trkpt lat="51.046109825378515" lon="2.381136763693337"><ele>7.000000000000001</ele><time>2026-03-27T15:32:09.999Z</time></trkpt><trkpt lat="51.046180403381925" lon="2.3810939212382194"><ele>7.0</ele><time>2026-03-27T15:32:12.999Z</time></trkpt><trkpt lat="51.04626473218526" lon="2.3810391266637296"><ele>7.0</ele><time>2026-03-27T15:32:16.999Z</time></trkpt><trkpt lat="51.046332491420124" lon="2.380981332987486"><ele>7.0</ele><time>2026-03-27T15:32:19.999Z</time></trkpt><trkpt lat="51.046392936957346" lon="2.3809262558977013"><ele>7.0</ele><time>2026-03-27T15:32:24.999Z</time></trkpt><trkpt lat="51.04644261462468" lon="2.3810090269394513"><ele>7.0</ele><time>2026-03-27T15:32:29Z</time></trkpt><trkpt lat="51.046500371791595" lon="2.381075895334277"><ele>7.0</ele><time>2026-03-27T15:32:32Z</time></trkpt><trkpt lat="51.04656915984483" lon="2.381130577726169"><ele>7.0</ele><time>2026-03-27T15:32:34Z</time></trkpt><trkpt lat="51.04662196890636" lon="2.3811915874682485"><ele>7.0</ele><time>2026-03-27T15:32:36Z</time></trkpt><trkpt lat="51.04668905125556" lon="2.3812678626083206"><ele>6.714285714285714</ele><time>2026-03-27T15:32:39Z</time></trkpt><trkpt lat="51.04674635708351" lon="2.3813442894211967"><ele>6.428571428571429</ele><time>2026-03-27T15:32:42Z</time></trkpt><trkpt lat="51.04680302905747" lon="2.3813955804232614"><ele>6.142857142857142</ele><time>2026-03-27T15:32:45Z</time></trkpt><trkpt lat="51.04686799526296" lon="2.3814119356130705"><ele>5.857142857142858</ele><time>2026-03-27T15:32:48Z</time></trkpt><trkpt lat="51.0469191852463" lon="2.381480370140902"><ele>5.571428571428571</ele><time>2026-03-27T15:32:52Z</time></trkpt><trkpt lat="51.04694449040147" lon="2.3815775518547366"><ele>5.285714285714286</ele><time>2026-03-27T15:32:58Z</time></trkpt><trkpt lat="51.046937884769605" lon="2.381677709449676"><ele>5.0</ele><time>2026-03-27T15:33:01Z</time></trkpt><trkpt lat="51.04688920569598" lon="2.3818095931713086"><ele>5.0</ele><time>2026-03-27T15:33:04Z</time></trkpt><trkpt lat="51.04684693022239" lon="2.381905350842522"><ele>5.0</ele><time>2026-03-27T15:33:06Z</time></trkpt><trkpt lat="51.0468130363523" lon="2.382010047487677"><ele>5.0</ele><time>2026-03-27T15:33:08Z</time></trkpt><trkpt lat="51.04676678837532" lon="2.3821406364173527"><ele>5.0</ele><time>2026-03-27T15:33:11Z</time></trkpt><trkpt lat="51.04677950518573" lon="2.3822713104465167"><ele>5.0</ele><time>2026-03-27T15:33:15Z</time></trkpt><trkpt lat="51.04683668855118" lon="2.3823398318698006"><ele>5.0</ele><time>2026-03-27T15:33:18Z</time></trkpt><trkpt lat="51.046886907554665" lon="2.3824053531630627"><ele>4.833333333333334</ele><time>2026-03-27T15:33:21Z</time></trkpt><trkpt lat="51.046955367874745" lon="2.3824586760584263"><ele>4.666666666666667</ele><time>2026-03-27T15:33:22.999Z</time></trkpt><trkpt lat="51.047015840650836" lon="2.3825556523377522"><ele>4.5</ele><time>2026-03-27T15:33:25.999Z</time></trkpt><trkpt lat="51.04708848270055" lon="2.38264414831142"><ele>4.333333333333333</ele><time>2026-03-27T15:33:28.999Z</time></trkpt><trkpt lat="51.04716230760027" lon="2.382724313631418"><ele>4.166666666666666</ele><time>2026-03-27T15:33:31.999Z</time></trkpt><trkpt lat="51.04723566155226" lon="2.3827934027438733"><ele>4.0</ele><time>2026-03-27T15:33:34.999Z</time></trkpt><trkpt lat="51.047301405513835" lon="2.3828596687768013"><ele>4.0</ele><time>2026-03-27T15:33:37.999Z</time></trkpt><trkpt lat="51.047355196722386" lon="2.382916323079191"><ele>3.9999999999999996</ele><time>2026-03-27T15:33:39.999Z</time></trkpt><trkpt lat="51.047411269520616" lon="2.3829831288780303"><ele>4.0</ele><time>2026-03-27T15:33:41.999Z</time></trkpt><trkpt lat="51.04743114442896" lon="2.383107041696379"><ele>4.0</ele><time>2026-03-27T15:33:44.999Z</time></trkpt><trkpt lat="51.04738769183749" lon="2.3832084006472916"><ele>3.9999999999999996</ele><time>2026-03-27T15:33:47.999Z</time></trkpt><trkpt lat="51.04733134993959" lon="2.383259595206368"><ele>4.0</ele><time>2026-03-27T15:33:50.999Z</time></trkpt><trkpt lat="51.04727489287084" lon="2.3833223504910848"><ele>4.0</ele><time>2026-03-27T15:33:53.999Z</time></trkpt><trkpt lat="51.04724099150583" lon="2.3834499810951777"><ele>4.166666666666666</ele><time>2026-03-27T15:33:56.999Z</time></trkpt><trkpt lat="51.04720570109442" lon="2.3835498239285604"><ele>4.333333333333333</ele><time>2026-03-27T15:33:59.999Z</time></trkpt><trkpt lat="51.04716387038429" lon="2.383654226566778"><ele>4.5</ele><time>2026-03-27T15:34:03.999Z</time></trkpt><trkpt lat="51.04712075774807" lon="2.3837459947277133"><ele>4.666666666666667</ele><time>2026-03-27T15:34:05.999Z</time></trkpt><trkpt lat="51.047076640338766" lon="2.3838283014695647"><ele>4.833333333333334</ele><time>2026-03-27T15:34:07.999Z</time></trkpt><trkpt lat="51.047008331645905" lon="2.3839248398564736"><ele>5.0</ele><time>2026-03-27T15:34:10.999Z</time></trkpt><trkpt lat="51.04694742582814" lon="2.3840178858945618"><ele>5.0</ele><time>2026-03-27T15:34:13.999Z</time></trkpt><trkpt lat="51.04687870628913" lon="2.3841000550215203"><ele>5.0</ele><time>2026-03-27T15:34:16.999Z</time></trkpt><trkpt lat="51.0468153389635" lon="2.3841868914646334"><ele>5.0</ele><time>2026-03-27T15:34:19.999Z</time></trkpt><trkpt lat="51.04675968150992" lon="2.384239021625671"><ele>5.0</ele><time>2026-03-27T15:34:21.999Z</time></trkpt><trkpt lat="51.046700018105334" lon="2.384291558089944"><ele>5.0</ele><time>2026-03-27T15:34:23.999Z</time></trkpt><trkpt lat="51.04664696147461" lon="2.3843539618665965"><ele>5.0</ele><time>2026-03-27T15:34:25.999Z</time></trkpt><trkpt lat="51.04656549303198" lon="2.384422200110758"><ele>5.166666666666667</ele><time>2026-03-27T15:34:28.999Z</time></trkpt><trkpt lat="51.04650279751622" lon="2.3845174604122765"><ele>5.333333333333334</ele><time>2026-03-27T15:34:31.999Z</time></trkpt><trkpt lat="51.046428292880094" lon="2.3845644403528667"><ele>5.5</ele><time>2026-03-27T15:34:35Z</time></trkpt><trkpt lat="51.04635472642519" lon="2.384633472487255"><ele>5.666666666666667</ele><time>2026-03-27T15:34:38Z</time></trkpt><trkpt lat="51.046293971932926" lon="2.384706831962035"><ele>5.833333333333333</ele><time>2026-03-27T15:34:41Z</time></trkpt><trkpt lat="51.046223386133036" lon="2.3847580069092453"><ele>6.0</ele><time>2026-03-27T15:34:44Z</time></trkpt><trkpt lat="51.046153352357095" lon="2.3848226921033135"><ele>6.142857142857142</ele><time>2026-03-27T15:34:47Z</time></trkpt><trkpt lat="51.04609349674221" lon="2.384865098152603"><ele>6.285714285714286</ele><time>2026-03-27T15:34:50Z</time></trkpt><trkpt lat="51.04603011068699" lon="2.384920460605418"><ele>6.428571428571429</ele><time>2026-03-27T15:34:53Z</time></trkpt><trkpt lat="51.045961152870554" lon="2.3849742168802353"><ele>6.571428571428571</ele><time>2026-03-27T15:34:56Z</time></trkpt><trkpt lat="51.04589367488168" lon="2.385026438676946"><ele>6.714285714285714</ele><time>2026-03-27T15:34:59Z</time></trkpt><trkpt lat="51.04581476735135" lon="2.3850856054337135"><ele>6.857142857142857</ele><time>2026-03-27T15:35:02Z</time></trkpt><trkpt lat="51.04575485541681" lon="2.385135431522343"><ele>7.0</ele><time>2026-03-27T15:35:04Z</time></trkpt><trkpt lat="51.045673955791564" lon="2.385194407892004"><ele>6.500000000000001</ele><time>2026-03-27T15:35:07Z</time></trkpt><trkpt lat="51.045604107801516" lon="2.385259477745431"><ele>6.0</ele><time>2026-03-27T15:35:10Z</time></trkpt><trkpt lat="51.045543903180516" lon="2.3853040661355944"><ele>5.5</ele><time>2026-03-27T15:35:12Z</time></trkpt><trkpt lat="51.04547998045844" lon="2.3853573571669844"><ele>5.0</ele><time>2026-03-27T15:35:14Z</time></trkpt><trkpt lat="51.04541772693723" lon="2.3854244965028433"><ele>4.5</ele><time>2026-03-27T15:35:17Z</time></trkpt><trkpt lat="51.045335851363234" lon="2.3854763101984404"><ele>4.0</ele><time>2026-03-27T15:35:21Z</time></trkpt><trkpt lat="51.045267626655814" lon="2.3854957682128015"><ele>3.9999999999999996</ele><time>2026-03-27T15:35:24.999Z</time></trkpt><trkpt lat="51.0452682502634" lon="2.3855997520438383"><ele>4.0</ele><time>2026-03-27T15:35:32.999Z</time></trkpt><trkpt lat="51.04526095715572" lon="2.385493821051622"><ele>4.0</ele><time>2026-03-27T15:35:37.999Z</time></trkpt><trkpt lat="51.04519288892443" lon="2.385540616135878"><ele>4.0</ele><time>2026-03-27T15:35:46.999Z</time></trkpt><trkpt lat="51.04515629370924" lon="2.385641998459816"><ele>3.9999999999999996</ele><time>2026-03-27T15:35:50.999Z</time></trkpt><trkpt lat="51.045103210968485" lon="2.385764999528538"><ele>4.0</ele><time>2026-03-27T15:35:54.999Z</time></trkpt><trkpt lat="51.04500752521915" lon="2.3858281228072946"><ele>4.2</ele><time>2026-03-27T15:35:56.999Z</time></trkpt><trkpt lat="51.04488607489379" lon="2.3859165041685815"><ele>4.4</ele><time>2026-03-27T15:35:58.999Z</time></trkpt><trkpt lat="51.04482334490655" lon="2.385954432267286"><ele>4.6</ele><time>2026-03-27T15:35:59.999Z</time></trkpt><trkpt lat="51.04475859337576" lon="2.3859957749646057"><ele>4.8</ele><time>2026-03-27T15:36:00.999Z</time></trkpt><trkpt lat="51.04464057976648" lon="2.3860319675547923"><ele>5.0</ele><time>2026-03-27T15:36:02.999Z</time></trkpt><trkpt lat="51.04457160505254" lon="2.3862199187180266"><ele>5.0</ele><time>2026-03-27T15:36:04.999Z</time></trkpt><trkpt lat="51.04448279307305" lon="2.386272355251061"><ele>5.0</ele><time>2026-03-27T15:36:06.999Z</time></trkpt><trkpt lat="51.044407814851326" lon="2.3863166240314424"><ele>5.0</ele><time>2026-03-27T15:36:08.999Z</time></trkpt><trkpt lat="51.04434116496572" lon="2.3863561711163035"><ele>5.0</ele><time>2026-03-27T15:36:10.999Z</time></trkpt><trkpt lat="51.04424702377026" lon="2.386412334419943"><ele>5.0</ele><time>2026-03-27T15:36:13.999Z</time></trkpt><trkpt lat="51.044179675530906" lon="2.3862797197358914"><ele>5.0</ele><time>2026-03-27T15:36:14.999Z</time></trkpt><trkpt lat="51.04411798161855" lon="2.3863361533182217"><ele>5.0</ele><time>2026-03-27T15:36:16.999Z</time></trkpt><trkpt lat="51.044050478485225" lon="2.3863779451786464"><ele>5.0</ele><time>2026-03-27T15:36:18.999Z</time></trkpt><trkpt lat="51.04398837737035" lon="2.3864349651719428"><ele>5.0</ele><time>2026-03-27T15:36:20.999Z</time></trkpt><trkpt lat="51.04391744972166" lon="2.3864832809730636"><ele>5.0</ele><time>2026-03-27T15:36:22.999Z</time></trkpt><trkpt lat="51.04384767147409" lon="2.3865168139192217"><ele>5.0</ele><time>2026-03-27T15:36:24.999Z</time></trkpt><trkpt lat="51.043779876213826" lon="2.3865586751282266"><ele>5.0</ele><time>2026-03-27T15:36:26.999Z</time></trkpt><trkpt lat="51.043716974288934" lon="2.3865905620998"><ele>5.0</ele><time>2026-03-27T15:36:28.999Z</time></trkpt><trkpt lat="51.04365455657927" lon="2.386629117957717"><ele>5.0</ele><time>2026-03-27T15:36:30.999Z</time></trkpt><trkpt lat="51.04357588664509" lon="2.3866772626566934"><ele>5.0</ele><time>2026-03-27T15:36:33.999Z</time></trkpt><trkpt lat="51.043501016502205" lon="2.386685264905885"><ele>5.0</ele><time>2026-03-27T15:36:36.999Z</time></trkpt><trkpt lat="51.04343539874646" lon="2.3866754745354584"><ele>5.0</ele><time>2026-03-27T15:36:40Z</time></trkpt><trkpt lat="51.04336444913274" lon="2.386720737052999"><ele>5.0</ele><time>2026-03-27T15:36:44Z</time></trkpt><trkpt lat="51.043304833978176" lon="2.386655924758914"><ele>5.0</ele><time>2026-03-27T15:36:49Z</time></trkpt><trkpt lat="51.04329906019759" lon="2.3867756147241277"><ele>5.0</ele><time>2026-03-27T15:36:55Z</time></trkpt><trkpt lat="51.04336868106135" lon="2.3867791430694743"><ele>5.0</ele><time>2026-03-27T15:37:00Z</time></trkpt><trkpt lat="51.043448148126444" lon="2.3867673910700384"><ele>5.0</ele><time>2026-03-27T15:37:02Z</time></trkpt><trkpt lat="51.04355925570653" lon="2.3867220642122313"><ele>5.0</ele><time>2026-03-27T15:37:04Z</time></trkpt><trkpt lat="51.04363139971601" lon="2.386701381091889"><ele>5.0</ele><time>2026-03-27T15:37:05Z</time></trkpt><trkpt lat="51.04369958776726" lon="2.3866748949283636"><ele>5.0</ele><time>2026-03-27T15:37:06Z</time></trkpt><trkpt lat="51.043771019969334" lon="2.386634261580107"><ele>5.0</ele><time>2026-03-27T15:37:07Z</time></trkpt><trkpt lat="51.04384467852643" lon="2.3865895277209757"><ele>5.0</ele><time>2026-03-27T15:37:08Z</time></trkpt><trkpt lat="51.043908410845155" lon="2.3865531507806512"><ele>5.0</ele><time>2026-03-27T15:37:09Z</time></trkpt><trkpt lat="51.04397173787047" lon="2.386512540796913"><ele>5.0</ele><time>2026-03-27T15:37:10Z</time></trkpt><trkpt lat="51.044035425847625" lon="2.3864788316797525"><ele>5.0</ele><time>2026-03-27T15:37:11Z</time></trkpt><trkpt lat="51.044097661926216" lon="2.3864399698902163"><ele>5.0</ele><time>2026-03-27T15:37:12Z</time></trkpt><trkpt lat="51.04420860876553" lon="2.38634950068636"><ele>5.0</ele><time>2026-03-27T15:37:14Z</time></trkpt><trkpt lat="51.044312911942974" lon="2.386279260857902"><ele>5.0</ele><time>2026-03-27T15:37:16Z</time></trkpt><trkpt lat="51.04441249560225" lon="2.3862147497115505"><ele>5.0</ele><time>2026-03-27T15:37:18Z</time></trkpt><trkpt lat="51.04450713322847" lon="2.386160776776827"><ele>5.0</ele><time>2026-03-27T15:37:20Z</time></trkpt><trkpt lat="51.04459903880223" lon="2.386135042019736"><ele>5.0</ele><time>2026-03-27T15:37:22Z</time></trkpt><trkpt lat="51.04467963299619" lon="2.386090156686606"><ele>5.0</ele><time>2026-03-27T15:37:24Z</time></trkpt><trkpt lat="51.0447619023194" lon="2.386063720522003"><ele>5.0</ele><time>2026-03-27T15:37:26Z</time></trkpt><trkpt lat="51.044839472039385" lon="2.386045372267185"><ele>5.0</ele><time>2026-03-27T15:37:28Z</time></trkpt><trkpt lat="51.0449080492394" lon="2.3860216740950486"><ele>5.0</ele><time>2026-03-27T15:37:30Z</time></trkpt><trkpt lat="51.04496856638351" lon="2.385993105291493"><ele>5.0</ele><time>2026-03-27T15:37:31.999Z</time></trkpt><trkpt lat="51.045045291246645" lon="2.3859461448376464"><ele>5.0</ele><time>2026-03-27T15:37:34.999Z</time></trkpt><trkpt lat="51.04510083300323" lon="2.3858807303302156"><ele>5.0</ele><time>2026-03-27T15:37:37.999Z</time></trkpt><trkpt lat="51.04516066941088" lon="2.3858051874680832"><ele>5.166666666666667</ele><time>2026-03-27T15:37:40.999Z</time></trkpt><trkpt lat="51.045225239020276" lon="2.3858418216335"><ele>5.333333333333334</ele><time>2026-03-27T15:37:43.999Z</time></trkpt><trkpt lat="51.045272209938595" lon="2.3859222738691086"><ele>5.5</ele><time>2026-03-27T15:37:46.999Z</time></trkpt><trkpt lat="51.04531834169321" lon="2.386029514785704"><ele>5.666666666666667</ele><time>2026-03-27T15:37:50.999Z</time></trkpt><trkpt lat="51.045352914393256" lon="2.386151385722158"><ele>5.833333333333333</ele><time>2026-03-27T15:37:53.999Z</time></trkpt><trkpt lat="51.045369307554736" lon="2.386289280911667"><ele>6.0</ele><time>2026-03-27T15:37:56.999Z</time></trkpt><trkpt lat="51.045391157257455" lon="2.3864059893030434"><ele>6.333333333333333</ele><time>2026-03-27T15:37:59.999Z</time></trkpt><trkpt lat="51.045419986265514" lon="2.386542124390197"><ele>6.666666666666666</ele><time>2026-03-27T15:38:02.999Z</time></trkpt><trkpt lat="51.04544588158863" lon="2.3866784739109232"><ele>7.0</ele><time>2026-03-27T15:38:05.999Z</time></trkpt><trkpt lat="51.04546403205884" lon="2.3867805040331285"><ele>7.333333333333333</ele><time>2026-03-27T15:38:07.999Z</time></trkpt><trkpt lat="51.04549231645157" lon="2.386922433426249"><ele>7.666666666666666</ele><time>2026-03-27T15:38:10.999Z</time></trkpt><trkpt lat="51.045530012841866" lon="2.3870445537950062"><ele>8.0</ele><time>2026-03-27T15:38:13.999Z</time></trkpt><trkpt lat="51.04556302595037" lon="2.3871829578806008"><ele>8.0</ele><time>2026-03-27T15:38:16.999Z</time></trkpt><trkpt lat="51.04557270400446" lon="2.3872859567980624"><ele>7.999999999999999</ele><time>2026-03-27T15:38:18.999Z</time></trkpt><trkpt lat="51.04558296630233" lon="2.38739867803453"><ele>8.0</ele><time>2026-03-27T15:38:20.999Z</time></trkpt><trkpt lat="51.0456223037118" lon="2.3874968747325767"><ele>8.0</ele><time>2026-03-27T15:38:22.999Z</time></trkpt><trkpt lat="51.04562605610636" lon="2.387598588586089"><ele>7.999999999999999</ele><time>2026-03-27T15:38:24.999Z</time></trkpt><trkpt lat="51.04562155085513" lon="2.3877043599701535"><ele>8.0</ele><time>2026-03-27T15:38:27.999Z</time></trkpt><trkpt lat="51.045658001342716" lon="2.3878170028184953"><ele>8.0</ele><time>2026-03-27T15:38:30.999Z</time></trkpt><trkpt lat="51.045688139534555" lon="2.3879352273742125"><ele>8.166666666666666</ele><time>2026-03-27T15:38:33.999Z</time></trkpt><trkpt lat="51.04570466654526" lon="2.3880489463906347"><ele>8.333333333333332</ele><time>2026-03-27T15:38:37.999Z</time></trkpt><trkpt lat="51.04563414647567" lon="2.3880943940096233"><ele>8.5</ele><time>2026-03-27T15:38:41.999Z</time></trkpt><trkpt lat="51.04556179171391" lon="2.3881262092585627"><ele>8.666666666666666</ele><time>2026-03-27T15:38:45Z</time></trkpt><trkpt lat="51.0454949573378" lon="2.3881671937962206"><ele>8.833333333333334</ele><time>2026-03-27T15:38:48Z</time></trkpt><trkpt lat="51.04541121631843" lon="2.3881940055666924"><ele>9.0</ele><time>2026-03-27T15:38:51Z</time></trkpt><trkpt lat="51.04534652582528" lon="2.3882359361940315"><ele>9.0</ele><time>2026-03-27T15:38:54Z</time></trkpt><trkpt lat="51.04526403569867" lon="2.3882519941875358"><ele>9.0</ele><time>2026-03-27T15:38:57Z</time></trkpt><trkpt lat="51.045186978065374" lon="2.3882565562612443"><ele>9.0</ele><time>2026-03-27T15:38:59Z</time></trkpt><trkpt lat="51.045108561506545" lon="2.3882767872250317"><ele>9.0</ele><time>2026-03-27T15:39:01Z</time></trkpt><trkpt lat="51.04503322230561" lon="2.388286139168377"><ele>9.0</ele><time>2026-03-27T15:39:03Z</time></trkpt><trkpt lat="51.04495816301538" lon="2.3883139857899995"><ele>9.0</ele><time>2026-03-27T15:39:05Z</time></trkpt><trkpt lat="51.04488416354743" lon="2.3883564459236997"><ele>8.8</ele><time>2026-03-27T15:39:07Z</time></trkpt><trkpt lat="51.04480595303958" lon="2.3883870516313417"><ele>8.600000000000001</ele><time>2026-03-27T15:39:09Z</time></trkpt><trkpt lat="51.04471943263125" lon="2.388416256825453"><ele>8.4</ele><time>2026-03-27T15:39:11Z</time></trkpt><trkpt lat="51.04463260989602" lon="2.3884407467763333"><ele>8.200000000000001</ele><time>2026-03-27T15:39:13Z</time></trkpt><trkpt lat="51.04453451355402" lon="2.3884532149956588"><ele>8.0</ele><time>2026-03-27T15:39:15Z</time></trkpt><trkpt lat="51.04443745295947" lon="2.3884592911927838"><ele>7.999999999999999</ele><time>2026-03-27T15:39:17Z</time></trkpt><trkpt lat="51.04435735436327" lon="2.388476058609015"><ele>8.0</ele><time>2026-03-27T15:39:19Z</time></trkpt><trkpt lat="51.044250642766286" lon="2.388482329341084"><ele>8.0</ele><time>2026-03-27T15:39:21Z</time></trkpt><trkpt lat="51.04415141013618" lon="2.3884754723177504"><ele>8.0</ele><time>2026-03-27T15:39:23Z</time></trkpt><trkpt lat="51.044086788691075" lon="2.388441852033989"><ele>7.999999999999999</ele><time>2026-03-27T15:39:26Z</time></trkpt><trkpt lat="51.04402076614526" lon="2.3884473739852043"><ele>8.0</ele><time>2026-03-27T15:39:29Z</time></trkpt><trkpt lat="51.04393186666106" lon="2.3884830425408716"><ele>7.7142857142857135</ele><time>2026-03-27T15:39:33Z</time></trkpt><trkpt lat="51.04386873711415" lon="2.3884958254732775"><ele>7.428571428571428</ele><time>2026-03-27T15:39:35Z</time></trkpt><trkpt lat="51.04378617974816" lon="2.388540717120547"><ele>7.142857142857142</ele><time>2026-03-27T15:39:37Z</time></trkpt><trkpt lat="51.04372115317636" lon="2.3886116095929837"><ele>6.857142857142857</ele><time>2026-03-27T15:39:38.999Z</time></trkpt><trkpt lat="51.04365512717951" lon="2.3886083118978325"><ele>6.571428571428571</ele><time>2026-03-27T15:39:40.999Z</time></trkpt><trkpt lat="51.04358145639844" lon="2.3886393185127193"><ele>6.285714285714285</ele><time>2026-03-27T15:39:43.999Z</time></trkpt><trkpt lat="51.04351579815795" lon="2.3886820153484614"><ele>6.0</ele><time>2026-03-27T15:39:46.999Z</time></trkpt><trkpt lat="51.04344186730689" lon="2.3886788223840005"><ele>6.0</ele><time>2026-03-27T15:39:51.999Z</time></trkpt><trkpt lat="51.04336934250038" lon="2.388666596176565"><ele>6.0</ele><time>2026-03-27T15:39:55.999Z</time></trkpt><trkpt lat="51.04329842485425" lon="2.3886660008081044"><ele>6.0</ele><time>2026-03-27T15:39:58.999Z</time></trkpt><trkpt lat="51.04321653638613" lon="2.3886831981514596"><ele>6.0</ele><time>2026-03-27T15:40:01.999Z</time></trkpt><trkpt lat="51.04312642501553" lon="2.388660322772877"><ele>6.0</ele><time>2026-03-27T15:40:06.999Z</time></trkpt><trkpt lat="51.043044666351875" lon="2.3886715450770604"><ele>6.0</ele><time>2026-03-27T15:40:10.999Z</time></trkpt><trkpt lat="51.04296185655451" lon="2.3886602636761505"><ele>6.142857142857142</ele><time>2026-03-27T15:40:13.999Z</time></trkpt><trkpt lat="51.04289340701661" lon="2.388701776236893"><ele>6.285714285714286</ele><time>2026-03-27T15:40:15.999Z</time></trkpt><trkpt lat="51.04283008900764" lon="2.388688677871562"><ele>6.428571428571429</ele><time>2026-03-27T15:40:17.999Z</time></trkpt><trkpt lat="51.042761525545075" lon="2.3887057052425087"><ele>6.571428571428571</ele><time>2026-03-27T15:40:20.999Z</time></trkpt><trkpt lat="51.04268736852534" lon="2.3887153948622597"><ele>6.714285714285714</ele><time>2026-03-27T15:40:23.999Z</time></trkpt><trkpt lat="51.042618067412725" lon="2.3887133870653368"><ele>6.857142857142857</ele><time>2026-03-27T15:40:25.999Z</time></trkpt><trkpt lat="51.04255136873224" lon="2.388702328334476"><ele>7.0</ele><time>2026-03-27T15:40:28.999Z</time></trkpt><trkpt lat="51.04246723720034" lon="2.3886772399644216"><ele>7.142857142857142</ele><time>2026-03-27T15:40:31.999Z</time></trkpt><trkpt lat="51.04240354130707" lon="2.3886728211991595"><ele>7.285714285714286</ele><time>2026-03-27T15:40:33.999Z</time></trkpt><trkpt lat="51.04233115865577" lon="2.3886695926844395"><ele>7.428571428571429</ele><time>2026-03-27T15:40:35.999Z</time></trkpt><trkpt lat="51.04226550199749" lon="2.388685585888399"><ele>7.571428571428571</ele><time>2026-03-27T15:40:38.999Z</time></trkpt><trkpt lat="51.042223352676736" lon="2.3887786433838265"><ele>7.7142857142857135</ele><time>2026-03-27T15:40:47.998Z</time></trkpt><trkpt lat="51.04217986476851" lon="2.3888593831807525"><ele>7.857142857142857</ele><time>2026-03-27T15:40:52Z</time></trkpt><trkpt lat="51.042239007894956" lon="2.3889968695822965"><ele>8.0</ele><time>2026-03-27T15:40:54Z</time></trkpt><trkpt lat="51.04229868014883" lon="2.389040737967093"><ele>8.0</ele><time>2026-03-27T15:40:56Z</time></trkpt><trkpt lat="51.04237082594271" lon="2.3890989879522224"><ele>8.0</ele><time>2026-03-27T15:40:59Z</time></trkpt><trkpt lat="51.04245794421667" lon="2.389139902376312"><ele>8.0</ele><time>2026-03-27T15:41:02Z</time></trkpt><trkpt lat="51.04251322751528" lon="2.3891973564323172"><ele>8.0</ele><time>2026-03-27T15:41:04Z</time></trkpt><trkpt lat="51.04258254965928" lon="2.389231707032798"><ele>8.0</ele><time>2026-03-27T15:41:07Z</time></trkpt><trkpt lat="51.04280474987596" lon="2.389236497151781"><ele>7.999999999999999</ele><time>2026-03-27T15:41:15Z</time></trkpt><trkpt lat="51.04286759260334" lon="2.3892277260022565"><ele>8.0</ele><time>2026-03-27T15:41:17Z</time></trkpt><trkpt lat="51.04296829149478" lon="2.3892032844073503"><ele>8.0</ele><time>2026-03-27T15:41:20Z</time></trkpt><trkpt lat="51.043056758418714" lon="2.3892115484284893"><ele>8.0</ele><time>2026-03-27T15:41:23Z</time></trkpt><trkpt lat="51.04312167017987" lon="2.3892136316244326"><ele>7.999999999999999</ele><time>2026-03-27T15:41:25Z</time></trkpt><trkpt lat="51.0431882249232" lon="2.389217229492818"><ele>8.0</ele><time>2026-03-27T15:41:27Z</time></trkpt><trkpt lat="51.043401697656655" lon="2.389216859113136"><ele>7.800000000000001</ele><time>2026-03-27T15:41:35Z</time></trkpt><trkpt lat="51.04352901318438" lon="2.389179927255365"><ele>7.6000000000000005</ele><time>2026-03-27T15:41:40Z</time></trkpt><trkpt lat="51.04360943652811" lon="2.389120384354646"><ele>7.3999999999999995</ele><time>2026-03-27T15:41:40.999Z</time></trkpt><trkpt lat="51.04365956999598" lon="2.3890493456134787"><ele>7.199999999999999</ele><time>2026-03-27T15:41:46.999Z</time></trkpt><trkpt lat="51.04376357776443" lon="2.3890342690009585"><ele>7.0</ele><time>2026-03-27T15:41:50.999Z</time></trkpt><trkpt lat="51.043860684112" lon="2.389002628763318"><ele>7.0</ele><time>2026-03-27T15:41:54.999Z</time></trkpt><trkpt lat="51.043939211386046" lon="2.3889900014656296"><ele>6.999999999999999</ele><time>2026-03-27T15:41:57.999Z</time></trkpt><trkpt lat="51.044002728948676" lon="2.388950632796266"><ele>6.999999999999999</ele><time>2026-03-27T15:42:00.999Z</time></trkpt><trkpt lat="51.044073950577555" lon="2.3889559142544137"><ele>7.0</ele><time>2026-03-27T15:42:03.999Z</time></trkpt><trkpt lat="51.044174390940455" lon="2.3889745941645932"><ele>7.0</ele><time>2026-03-27T15:42:07.999Z</time></trkpt><trkpt lat="51.04436996646801" lon="2.388967246001629"><ele>7.142857142857142</ele><time>2026-03-27T15:42:17.999Z</time></trkpt><trkpt lat="51.044436331154515" lon="2.3889518930410194"><ele>7.285714285714286</ele><time>2026-03-27T15:42:20.999Z</time></trkpt><trkpt lat="51.04451888291439" lon="2.388914050580777"><ele>7.428571428571429</ele><time>2026-03-27T15:42:24.999Z</time></trkpt><trkpt lat="51.0445949981847" lon="2.388842964115535"><ele>7.571428571428571</ele><time>2026-03-27T15:42:27.999Z</time></trkpt><trkpt lat="51.04465503382219" lon="2.3888120956931536"><ele>7.7142857142857135</ele><time>2026-03-27T15:42:29.999Z</time></trkpt><trkpt lat="51.04472165785293" lon="2.3887922755464728"><ele>7.857142857142857</ele><time>2026-03-27T15:42:32.999Z</time></trkpt><trkpt lat="51.04478964328919" lon="2.38879070538126"><ele>8.0</ele><time>2026-03-27T15:42:35.999Z</time></trkpt><trkpt lat="51.04486116578019" lon="2.3888176937474617"><ele>7.999999999999999</ele><time>2026-03-27T15:42:37.999Z</time></trkpt><trkpt lat="51.0449405560045" lon="2.3888021676601814"><ele>8.0</ele><time>2026-03-27T15:42:42.999Z</time></trkpt><trkpt lat="51.04501903593041" lon="2.3887829449702807"><ele>8.0</ele><time>2026-03-27T15:42:46.999Z</time></trkpt><trkpt lat="51.04508187359082" lon="2.3887401117255966"><ele>8.0</ele><time>2026-03-27T15:42:49.998Z</time></trkpt><trkpt lat="51.045132541672274" lon="2.3886698807773965"><ele>7.999999999999999</ele><time>2026-03-27T15:42:52.998Z</time></trkpt><trkpt lat="51.045210023520795" lon="2.388639189002279"><ele>8.0</ele><time>2026-03-27T15:42:55.998Z</time></trkpt><trkpt lat="51.04528264686507" lon="2.388604415541005"><ele>8.166666666666666</ele><time>2026-03-27T15:42:59Z</time></trkpt><trkpt lat="51.04535667495006" lon="2.3885847142991756"><ele>8.333333333333332</ele><time>2026-03-27T15:43:02Z</time></trkpt><trkpt lat="51.045444711439615" lon="2.3885593354510317"><ele>8.5</ele><time>2026-03-27T15:43:05Z</time></trkpt><trkpt lat="51.04551267308876" lon="2.3885436845107995"><ele>8.666666666666666</ele><time>2026-03-27T15:43:08Z</time></trkpt><trkpt lat="51.045600927251115" lon="2.388504307352525"><ele>8.833333333333334</ele><time>2026-03-27T15:43:11Z</time></trkpt><trkpt lat="51.04567483613943" lon="2.388478578517049"><ele>9.0</ele><time>2026-03-27T15:43:14Z</time></trkpt><trkpt lat="51.04574491077731" lon="2.3884201799147236"><ele>9.000000000000002</ele><time>2026-03-27T15:43:17Z</time></trkpt><trkpt lat="51.04579575800718" lon="2.3883585097499296"><ele>9.0</ele><time>2026-03-27T15:43:22Z</time></trkpt><trkpt lat="51.04582202220415" lon="2.3884506261265797"><ele>9.0</ele><time>2026-03-27T15:43:25Z</time></trkpt><trkpt lat="51.04584199981266" lon="2.388579023813514"><ele>9.0</ele><time>2026-03-27T15:43:28Z</time></trkpt><trkpt lat="51.045869878745954" lon="2.388672669788288"><ele>9.0</ele><time>2026-03-27T15:43:30Z</time></trkpt><trkpt lat="51.045893215468396" lon="2.388769526033834"><ele>9.000000000000002</ele><time>2026-03-27T15:43:32Z</time></trkpt><trkpt lat="51.045962945184435" lon="2.38886307383086"><ele>9.0</ele><time>2026-03-27T15:43:35Z</time></trkpt><trkpt lat="51.04601536384134" lon="2.3889761282035877"><ele>8.857142857142858</ele><time>2026-03-27T15:43:38Z</time></trkpt><trkpt lat="51.04603631794948" lon="2.389085951619218"><ele>8.714285714285715</ele><time>2026-03-27T15:43:41Z</time></trkpt><trkpt lat="51.04607609810597" lon="2.3891809077687993"><ele>8.571428571428571</ele><time>2026-03-27T15:43:44Z</time></trkpt><trkpt lat="51.04614895454096" lon="2.3892769998396903"><ele>8.428571428571429</ele><time>2026-03-27T15:43:47.999Z</time></trkpt><trkpt lat="51.04619784703405" lon="2.3893481100287084"><ele>8.285714285714285</ele><time>2026-03-27T15:43:50.999Z</time></trkpt><trkpt lat="51.04621645928669" lon="2.3894501974325117"><ele>8.142857142857142</ele><time>2026-03-27T15:43:54.999Z</time></trkpt><trkpt lat="51.04621465586764" lon="2.3895594072095703"><ele>8.0</ele><time>2026-03-27T15:43:58.999Z</time></trkpt><trkpt lat="51.04623158441386" lon="2.3896593598195017"><ele>8.0</ele><time>2026-03-27T15:44:01.999Z</time></trkpt><trkpt lat="51.04627649897065" lon="2.389762491582449"><ele>7.999999999999999</ele><time>2026-03-27T15:44:06.999Z</time></trkpt><trkpt lat="51.04631708591926" lon="2.3898517473223433"><ele>8.0</ele><time>2026-03-27T15:44:10.999Z</time></trkpt><trkpt lat="51.046349822704315" lon="2.389940344662877"><ele>8.0</ele><time>2026-03-27T15:44:14.999Z</time></trkpt><trkpt lat="51.04637195606696" lon="2.3900598659545857"><ele>7.999999999999999</ele><time>2026-03-27T15:44:19.999Z</time></trkpt><trkpt lat="51.04639882695221" lon="2.3901796761010816"><ele>8.0</ele><time>2026-03-27T15:44:23.999Z</time></trkpt><trkpt lat="51.04640185628251" lon="2.390283460046188"><ele>8.0</ele><time>2026-03-27T15:44:27.999Z</time></trkpt><trkpt lat="51.04640030628507" lon="2.390425656828575"><ele>7.857142857142857</ele><time>2026-03-27T15:44:31.999Z</time></trkpt><trkpt lat="51.04641734776369" lon="2.390551909200233"><ele>7.7142857142857135</ele><time>2026-03-27T15:44:34.999Z</time></trkpt><trkpt lat="51.0464374146974" lon="2.3906569319893074"><ele>7.571428571428571</ele><time>2026-03-27T15:44:38.999Z</time></trkpt><trkpt lat="51.046450143920964" lon="2.390756597443537"><ele>7.428571428571429</ele><time>2026-03-27T15:44:42.999Z</time></trkpt><trkpt lat="51.04646322081567" lon="2.390856484502557"><ele>7.285714285714286</ele><time>2026-03-27T15:44:45.999Z</time></trkpt><trkpt lat="51.046480398541846" lon="2.3909692960000144"><ele>7.142857142857142</ele><time>2026-03-27T15:44:50.999Z</time></trkpt><trkpt lat="51.046515949028446" lon="2.39106665764066"><ele>7.0</ele><time>2026-03-27T15:44:53.998Z</time></trkpt><trkpt lat="51.04656929298059" lon="2.3911547789133536"><ele>7.000000000000001</ele><time>2026-03-27T15:44:58.998Z</time></trkpt><trkpt lat="51.04659128703805" lon="2.3912915842005087"><ele>7.0</ele><time>2026-03-27T15:45:01.998Z</time></trkpt><trkpt lat="51.046624440076094" lon="2.3914294264861513"><ele>7.0</ele><time>2026-03-27T15:45:05Z</time></trkpt><trkpt lat="51.046667051294534" lon="2.3915597133012123"><ele>7.0</ele><time>2026-03-27T15:45:08Z</time></trkpt><trkpt lat="51.04669310468256" lon="2.391670685814556"><ele>7.000000000000001</ele><time>2026-03-27T15:45:10Z</time></trkpt><trkpt lat="51.0467068342163" lon="2.3918034554754324"><ele>7.0</ele><time>2026-03-27T15:45:13Z</time></trkpt><trkpt lat="51.04668449002714" lon="2.391902723852684"><ele>7.142857142857142</ele><time>2026-03-27T15:45:16Z</time></trkpt><trkpt lat="51.046744145768166" lon="2.3919643038904583"><ele>7.285714285714286</ele><time>2026-03-27T15:45:18Z</time></trkpt><trkpt lat="51.04676898940036" lon="2.3920767958869633"><ele>7.428571428571429</ele><time>2026-03-27T15:45:22Z</time></trkpt><trkpt lat="51.04682046812886" lon="2.3921573272185683"><ele>7.571428571428571</ele><time>2026-03-27T15:45:25Z</time></trkpt><trkpt lat="51.0468177842803" lon="2.3922762395482944"><ele>7.7142857142857135</ele><time>2026-03-27T15:45:28Z</time></trkpt><trkpt lat="51.0467900802658" lon="2.392378570533445"><ele>7.857142857142857</ele><time>2026-03-27T15:45:32Z</time></trkpt><trkpt lat="51.0468356657144" lon="2.392486286047782"><ele>8.0</ele><time>2026-03-27T15:45:37Z</time></trkpt><trkpt lat="51.04687104802874" lon="2.3925982587203976"><ele>7.999999999999999</ele><time>2026-03-27T15:45:40Z</time></trkpt><trkpt lat="51.046900728799486" lon="2.3926917580723814"><ele>8.0</ele><time>2026-03-27T15:45:42Z</time></trkpt><trkpt lat="51.046947188884126" lon="2.3927997732689743"><ele>8.0</ele><time>2026-03-27T15:45:46Z</time></trkpt><trkpt lat="51.04703773245926" lon="2.3928629719968195"><ele>8.0</ele><time>2026-03-27T15:45:48.999Z</time></trkpt><trkpt lat="51.04704813945312" lon="2.392989339409128"><ele>7.999999999999999</ele><time>2026-03-27T15:45:52.999Z</time></trkpt><trkpt lat="51.04703334107625" lon="2.393087658063281"><ele>8.0</ele><time>2026-03-27T15:45:55.999Z</time></trkpt><trkpt lat="51.04701267455853" lon="2.393209104485922"><ele>8.0</ele><time>2026-03-27T15:45:58.999Z</time></trkpt><trkpt lat="51.04705848551339" lon="2.393314757721601"><ele>7.999999999999999</ele><time>2026-03-27T15:46:02.999Z</time></trkpt><trkpt lat="51.046999490396246" lon="2.393371756081884"><ele>8.0</ele><time>2026-03-27T15:46:12.999Z</time></trkpt><trkpt lat="51.04694291080568" lon="2.393423934395147"><ele>8.0</ele><time>2026-03-27T15:46:15.999Z</time></trkpt><trkpt lat="51.046865487138575" lon="2.3934802935020127"><ele>7.999999999999999</ele><time>2026-03-27T15:46:18.999Z</time></trkpt><trkpt lat="51.046797664111544" lon="2.3934906877629554"><ele>8.0</ele><time>2026-03-27T15:46:21.999Z</time></trkpt><trkpt lat="51.04672772517626" lon="2.393544270892583"><ele>8.0</ele><time>2026-03-27T15:46:24.999Z</time></trkpt><trkpt lat="51.04667082336558" lon="2.3936022780828305"><ele>8.0</ele><time>2026-03-27T15:46:26.999Z</time></trkpt><trkpt lat="51.04659878413778" lon="2.3936586941543734"><ele>7.999999999999999</ele><time>2026-03-27T15:46:29.999Z</time></trkpt><trkpt lat="51.046534104246625" lon="2.3936825447495065"><ele>8.0</ele><time>2026-03-27T15:46:32.999Z</time></trkpt><trkpt lat="51.04647623011424" lon="2.3936376170306763"><ele>8.0</ele><time>2026-03-27T15:46:37.999Z</time></trkpt><trkpt lat="51.046403079592906" lon="2.3936947761708205"><ele>7.999999999999999</ele><time>2026-03-27T15:46:47.999Z</time></trkpt><trkpt lat="51.0463347610818" lon="2.3937343890879568"><ele>8.0</ele><time>2026-03-27T15:46:50.999Z</time></trkpt><trkpt lat="51.04626316294656" lon="2.393801577103444"><ele>8.0</ele><time>2026-03-27T15:46:53.999Z</time></trkpt><trkpt lat="51.04617573100852" lon="2.3938807185664532"><ele>8.0</ele><time>2026-03-27T15:46:56.998Z</time></trkpt><trkpt lat="51.04610863983829" lon="2.393917478276979"><ele>7.999999999999999</ele><time>2026-03-27T15:46:58.998Z</time></trkpt><trkpt lat="51.046038628696394" lon="2.393938661846057"><ele>8.0</ele><time>2026-03-27T15:47:00.998Z</time></trkpt><trkpt lat="51.04595827668117" lon="2.393985736568407"><ele>8.0</ele><time>2026-03-27T15:47:02.998Z</time></trkpt><trkpt lat="51.045892732507006" lon="2.394017459129469"><ele>7.999999999999999</ele><time>2026-03-27T15:47:04.998Z</time></trkpt><trkpt lat="51.04582691584648" lon="2.3940394428542495"><ele>8.0</ele><time>2026-03-27T15:47:07.998Z</time></trkpt><trkpt lat="51.04577358164555" lon="2.3941151151926086"><ele>8.0</ele><time>2026-03-27T15:47:11Z</time></trkpt><trkpt lat="51.045696905044124" lon="2.3941585653590023"><ele>8.0</ele><time>2026-03-27T15:47:14Z</time></trkpt><trkpt lat="51.04563177640282" lon="2.3941970855276096"><ele>7.999999999999999</ele><time>2026-03-27T15:47:18Z</time></trkpt><trkpt lat="51.04558217255105" lon="2.3942615405981686"><ele>8.0</ele><time>2026-03-27T15:47:21Z</time></trkpt><trkpt lat="51.04552777477774" lon="2.394321234966173"><ele>8.0</ele><time>2026-03-27T15:47:25Z</time></trkpt><trkpt lat="51.045458133535945" lon="2.3943604389815114"><ele>7.999999999999999</ele><time>2026-03-27T15:47:30Z</time></trkpt><trkpt lat="51.04545743919494" lon="2.394255702650723"><ele>8.0</ele><time>2026-03-27T15:47:33Z</time></trkpt><trkpt lat="51.04542740480186" lon="2.3941436634099973"><ele>8.0</ele><time>2026-03-27T15:47:36Z</time></trkpt><trkpt lat="51.04549796023168" lon="2.3941441599871918"><ele>8.0</ele><time>2026-03-27T15:48:08.999Z</time></trkpt><trkpt lat="51.04550760632383" lon="2.3942681337853178"><ele>7.999999999999999</ele><time>2026-03-27T15:48:12.999Z</time></trkpt><trkpt lat="51.0455145959793" lon="2.394372230902564"><ele>8.0</ele><time>2026-03-27T15:48:15.999Z</time></trkpt><trkpt lat="51.0455694789076" lon="2.394453431013761"><ele>8.0</ele><time>2026-03-27T15:48:18.999Z</time></trkpt><trkpt lat="51.04562616003168" lon="2.3943992528659193"><ele>7.999999999999999</ele><time>2026-03-27T15:48:21.999Z</time></trkpt><trkpt lat="51.04567909561431" lon="2.394329117359578"><ele>8.0</ele><time>2026-03-27T15:48:24.999Z</time></trkpt><trkpt lat="51.04575515026352" lon="2.394296740434914"><ele>8.0</ele><time>2026-03-27T15:48:26.999Z</time></trkpt><trkpt lat="51.0458374625859" lon="2.39419963361575"><ele>8.0</ele><time>2026-03-27T15:48:29.999Z</time></trkpt><trkpt lat="51.0459288465175" lon="2.3941626974407915"><ele>8.0</ele><time>2026-03-27T15:48:31.999Z</time></trkpt><trkpt lat="51.04608091558862" lon="2.3940441228212674"><ele>8.0</ele><time>2026-03-27T15:48:35.999Z</time></trkpt><trkpt lat="51.04615355875863" lon="2.3939919666722886"><ele>8.0</ele><time>2026-03-27T15:48:37.999Z</time></trkpt><trkpt lat="51.046273475380374" lon="2.3939694110156466"><ele>8.0</ele><time>2026-03-27T15:48:40.999Z</time></trkpt><trkpt lat="51.04636933140897" lon="2.393907580711906"><ele>8.0</ele><time>2026-03-27T15:48:43.999Z</time></trkpt><trkpt lat="51.04641302458872" lon="2.393807067631199"><ele>8.0</ele><time>2026-03-27T15:48:45.999Z</time></trkpt><trkpt lat="51.046503669444384" lon="2.393777847605227"><ele>8.0</ele><time>2026-03-27T15:48:47.999Z</time></trkpt><trkpt lat="51.04660980115375" lon="2.3937580498842603"><ele>8.0</ele><time>2026-03-27T15:48:50.999Z</time></trkpt><trkpt lat="51.046680210007146" lon="2.3937433785651216"><ele>7.999999999999999</ele><time>2026-03-27T15:48:52.999Z</time></trkpt><trkpt lat="51.0467456261928" lon="2.3936276582027873"><ele>8.0</ele><time>2026-03-27T15:48:55.999Z</time></trkpt><trkpt lat="51.04682043508242" lon="2.393571169099735"><ele>8.0</ele><time>2026-03-27T15:48:58.999Z</time></trkpt><trkpt lat="51.046894814645036" lon="2.3935190482433297"><ele>8.0</ele><time>2026-03-27T15:49:01.999Z</time></trkpt><trkpt lat="51.04695908420971" lon="2.3934885974953377"><ele>7.999999999999999</ele><time>2026-03-27T15:49:04.999Z</time></trkpt><trkpt lat="51.04703539904753" lon="2.3935123212140526"><ele>8.0</ele><time>2026-03-27T15:49:06.998Z</time></trkpt><trkpt lat="51.047114101629056" lon="2.3934858794957554"><ele>8.0</ele><time>2026-03-27T15:49:11.998Z</time></trkpt><trkpt lat="51.04716427676596" lon="2.3935748410541686"><ele>7.999999999999999</ele><time>2026-03-27T15:49:17Z</time></trkpt><trkpt lat="51.0472074780579" lon="2.393669576792379"><ele>8.0</ele><time>2026-03-27T15:49:19Z</time></trkpt><trkpt lat="51.04721773972505" lon="2.3937783657015475"><ele>8.0</ele><time>2026-03-27T15:49:22Z</time></trkpt><trkpt lat="51.04722316443274" lon="2.393892382949215"><ele>7.999999999999999</ele><time>2026-03-27T15:49:27Z</time></trkpt><trkpt lat="51.047258597695645" lon="2.3939776223782676"><ele>8.0</ele><time>2026-03-27T15:49:30Z</time></trkpt><trkpt lat="51.04727396049056" lon="2.3940834074952804"><ele>8.0</ele><time>2026-03-27T15:49:33Z</time></trkpt><trkpt lat="51.0472652749436" lon="2.3941865475438733"><ele>8.333333333333332</ele><time>2026-03-27T15:49:38Z</time></trkpt><trkpt lat="51.04721747632112" lon="2.3942677602862754"><ele>8.666666666666666</ele><time>2026-03-27T15:49:43Z</time></trkpt><trkpt lat="51.04713514390901" lon="2.3943224555785125"><ele>9.0</ele><time>2026-03-27T15:49:47Z</time></trkpt><trkpt lat="51.047061654547036" lon="2.3943819281566405"><ele>9.333333333333334</ele><time>2026-03-27T15:49:51Z</time></trkpt><trkpt lat="51.04699690841534" lon="2.39441942416699"><ele>9.666666666666668</ele><time>2026-03-27T15:49:55Z</time></trkpt><trkpt lat="51.047038631186865" lon="2.394505425189368"><ele>10.0</ele><time>2026-03-27T15:49:58Z</time></trkpt><trkpt lat="51.047041548920596" lon="2.394622357640038"><ele>9.857142857142858</ele><time>2026-03-27T15:50:00Z</time></trkpt><trkpt lat="51.047056757520245" lon="2.3947289457637044"><ele>9.714285714285715</ele><time>2026-03-27T15:50:02Z</time></trkpt><trkpt lat="51.04709983026915" lon="2.3948325750572583"><ele>9.571428571428573</ele><time>2026-03-27T15:50:04.999Z</time></trkpt><trkpt lat="51.047138498289826" lon="2.394914900277208"><ele>9.428571428571429</ele><time>2026-03-27T15:50:07.999Z</time></trkpt><trkpt lat="51.04714698981252" lon="2.395029916305123"><ele>9.285714285714286</ele><time>2026-03-27T15:50:12.999Z</time></trkpt><trkpt lat="51.04708227647337" lon="2.3950797402897512"><ele>9.142857142857144</ele><time>2026-03-27T15:50:17.999Z</time></trkpt><trkpt lat="51.04702496912073" lon="2.3951250341347494"><ele>9.0</ele><time>2026-03-27T15:50:20.999Z</time></trkpt><trkpt lat="51.04694561717295" lon="2.3951721286061303"><ele>9.000000000000002</ele><time>2026-03-27T15:50:23.999Z</time></trkpt><trkpt lat="51.04688049321544" lon="2.3952113380122766"><ele>9.0</ele><time>2026-03-27T15:50:26.999Z</time></trkpt><trkpt lat="51.04682003562713" lon="2.395263506518621"><ele>9.0</ele><time>2026-03-27T15:50:29.999Z</time></trkpt><trkpt lat="51.0467632630845" lon="2.395317750122905"><ele>9.0</ele><time>2026-03-27T15:50:32.999Z</time></trkpt><trkpt lat="51.046695587288866" lon="2.3953540794894024"><ele>9.0</ele><time>2026-03-27T15:50:36.999Z</time></trkpt><trkpt lat="51.04662451870688" lon="2.3953836728617435"><ele>9.000000000000002</ele><time>2026-03-27T15:50:40.999Z</time></trkpt><trkpt lat="51.046561860425484" lon="2.395430356378694"><ele>9.0</ele><time>2026-03-27T15:50:44.999Z</time></trkpt><trkpt lat="51.04649492173121" lon="2.395478546928943"><ele>9.0</ele><time>2026-03-27T15:50:48.999Z</time></trkpt><trkpt lat="51.04642653165295" lon="2.3955522016107733"><ele>9.0</ele><time>2026-03-27T15:50:52.999Z</time></trkpt><trkpt lat="51.04635241072735" lon="2.3955963063593226"><ele>9.0</ele><time>2026-03-27T15:50:55.999Z</time></trkpt><trkpt lat="51.04627990749011" lon="2.395655170224231"><ele>9.0</ele><time>2026-03-27T15:50:59.999Z</time></trkpt><trkpt lat="51.04620262865539" lon="2.395653225149609"><ele>9.0</ele><time>2026-03-27T15:51:03.999Z</time></trkpt><trkpt lat="51.046133486705216" lon="2.395682648040295"><ele>9.0</ele><time>2026-03-27T15:51:07.999Z</time></trkpt><trkpt lat="51.0460727819732" lon="2.395716073238675"><ele>9.000000000000002</ele><time>2026-03-27T15:51:11.998Z</time></trkpt><trkpt lat="51.04600914797812" lon="2.3957427269122307"><ele>9.0</ele><time>2026-03-27T15:51:15.998Z</time></trkpt><trkpt lat="51.04594977473402" lon="2.3958205784787667"><ele>9.0</ele><time>2026-03-27T15:51:19.998Z</time></trkpt><trkpt lat="51.045882703833314" lon="2.395793007207193"><ele>9.0</ele><time>2026-03-27T15:51:26Z</time></trkpt><trkpt lat="51.04586956929337" lon="2.3956908611652725"><ele>9.0</ele><time>2026-03-27T15:51:29Z</time></trkpt><trkpt lat="51.04583725185667" lon="2.3955986337180817"><ele>9.000000000000002</ele><time>2026-03-27T15:51:33Z</time></trkpt><trkpt lat="51.0458466178945" lon="2.3954921957218787"><ele>9.0</ele><time>2026-03-27T15:51:38Z</time></trkpt><trkpt lat="51.04589703240134" lon="2.395393558468554"><ele>9.000000000000002</ele><time>2026-03-27T15:51:43Z</time></trkpt><trkpt lat="51.04594762449455" lon="2.3953118492214527"><ele>9.0</ele><time>2026-03-27T15:51:48Z</time></trkpt><trkpt lat="51.04598753111992" lon="2.395200243809405"><ele>9.0</ele><time>2026-03-27T15:51:54Z</time></trkpt><trkpt lat="51.046037474989525" lon="2.395104366551639"><ele>9.0</ele><time>2026-03-27T15:51:59Z</time></trkpt><trkpt lat="51.04606754020016" lon="2.3950127599024515"><ele>9.0</ele><time>2026-03-27T15:52:05Z</time></trkpt><trkpt lat="51.046078559255726" lon="2.3949074550212175"><ele>9.000000000000002</ele><time>2026-03-27T15:52:12.999Z</time></trkpt><trkpt lat="51.046107554969566" lon="2.3948121599718557"><ele>9.0</ele><time>2026-03-27T15:52:16.999Z</time></trkpt><trkpt lat="51.04614993555325" lon="2.394678505974074"><ele>8.833333333333334</ele><time>2026-03-27T15:52:20.999Z</time></trkpt><trkpt lat="51.046199191543565" lon="2.3945664379176694"><ele>8.666666666666666</ele><time>2026-03-27T15:52:23.999Z</time></trkpt><trkpt lat="51.04623002782302" lon="2.3944556991476595"><ele>8.5</ele><time>2026-03-27T15:52:26.999Z</time></trkpt><trkpt lat="51.046277510574555" lon="2.3943298768006076"><ele>8.333333333333332</ele><time>2026-03-27T15:52:29.999Z</time></trkpt><trkpt lat="51.04630783834864" lon="2.3942350363417857"><ele>8.166666666666666</ele><time>2026-03-27T15:52:32.999Z</time></trkpt><trkpt lat="51.04635227640477" lon="2.3941483635225573"><ele>8.0</ele><time>2026-03-27T15:52:36.999Z</time></trkpt><trkpt lat="51.04639120566085" lon="2.394037067134228"><ele>7.999999999999999</ele><time>2026-03-27T15:52:39.999Z</time></trkpt><trkpt lat="51.04639682720848" lon="2.393928535540273"><ele>8.0</ele><time>2026-03-27T15:52:42.999Z</time></trkpt><trkpt lat="51.046457247499966" lon="2.3938436389548086"><ele>8.0</ele><time>2026-03-27T15:52:47.999Z</time></trkpt><trkpt lat="51.04651990789588" lon="2.3938029375143"><ele>8.0</ele><time>2026-03-27T15:52:49.999Z</time></trkpt><trkpt lat="51.0465506366903" lon="2.3936827213464578"><ele>7.999999999999999</ele><time>2026-03-27T15:52:52.999Z</time></trkpt><trkpt lat="51.046563834071954" lon="2.3935486726920208"><ele>8.0</ele><time>2026-03-27T15:52:56.999Z</time></trkpt><trkpt lat="51.04660807423732" lon="2.3934359440568485"><ele>8.0</ele><time>2026-03-27T15:52:59.999Z</time></trkpt><trkpt lat="51.046638914537766" lon="2.3933363471568736"><ele>7.999999999999999</ele><time>2026-03-27T15:53:02.999Z</time></trkpt><trkpt lat="51.046677674414106" lon="2.3932445188839098"><ele>8.0</ele><time>2026-03-27T15:53:05.999Z</time></trkpt><trkpt lat="51.046713800614086" lon="2.393119585975956"><ele>8.0</ele><time>2026-03-27T15:53:08.999Z</time></trkpt><trkpt lat="51.0467419466023" lon="2.3929929447489315"><ele>7.999999999999999</ele><time>2026-03-27T15:53:11.999Z</time></trkpt><trkpt lat="51.04676624824813" lon="2.39289227069425"><ele>8.0</ele><time>2026-03-27T15:53:14.999Z</time></trkpt><trkpt lat="51.046782237281185" lon="2.392782242409344"><ele>8.0</ele><time>2026-03-27T15:53:18.998Z</time></trkpt><trkpt lat="51.04682941738301" lon="2.392713501740015"><ele>8.0</ele><time>2026-03-27T15:53:21.998Z</time></trkpt><trkpt lat="51.046844678924884" lon="2.3926141142606556"><ele>7.999999999999999</ele><time>2026-03-27T15:53:24.998Z</time></trkpt><trkpt lat="51.04686101061274" lon="2.392506868866359"><ele>8.0</ele><time>2026-03-27T15:53:29Z</time></trkpt><trkpt lat="51.04691218146794" lon="2.3924233424559196"><ele>8.0</ele><time>2026-03-27T15:53:47Z</time></trkpt><trkpt lat="51.04693575388428" lon="2.392323315116068"><ele>7.999999999999999</ele><time>2026-03-27T15:53:49Z</time></trkpt><trkpt lat="51.04695574903807" lon="2.3922171357739344"><ele>8.0</ele><time>2026-03-27T15:53:51Z</time></trkpt><trkpt lat="51.046991324098045" lon="2.3921297971635145"><ele>8.0</ele><time>2026-03-27T15:53:53Z</time></trkpt><trkpt lat="51.04701542285932" lon="2.3920367642825724"><ele>8.0</ele><time>2026-03-27T15:53:55Z</time></trkpt><trkpt lat="51.04704372080676" lon="2.3919392395022383"><ele>7.999999999999999</ele><time>2026-03-27T15:53:57Z</time></trkpt><trkpt lat="51.04708251312063" lon="2.3918523168020154"><ele>8.0</ele><time>2026-03-27T15:53:59Z</time></trkpt><trkpt lat="51.0471244592678" lon="2.3917286588201483"><ele>8.0</ele><time>2026-03-27T15:54:02Z</time></trkpt><trkpt lat="51.047160509625904" lon="2.391631086899729"><ele>7.999999999999999</ele><time>2026-03-27T15:54:04Z</time></trkpt><trkpt lat="51.04720130635002" lon="2.391537118588451"><ele>8.0</ele><time>2026-03-27T15:54:06Z</time></trkpt><trkpt lat="51.04722370718929" lon="2.391441590217666"><ele>8.0</ele><time>2026-03-27T15:54:08Z</time></trkpt><trkpt lat="51.04726211691079" lon="2.391353619270239"><ele>8.166666666666666</ele><time>2026-03-27T15:54:11Z</time></trkpt><trkpt lat="51.04728111509312" lon="2.3912411800799185"><ele>8.333333333333332</ele><time>2026-03-27T15:54:13Z</time></trkpt><trkpt lat="51.047324081316084" lon="2.3910956954916633"><ele>8.5</ele><time>2026-03-27T15:54:15.999Z</time></trkpt><trkpt lat="51.047357307638684" lon="2.391001801066652"><ele>8.666666666666666</ele><time>2026-03-27T15:54:17.999Z</time></trkpt><trkpt lat="51.047408254449756" lon="2.390924444132211"><ele>8.833333333333334</ele><time>2026-03-27T15:54:19.999Z</time></trkpt><trkpt lat="51.04739950328869" lon="2.3907997195504773"><ele>9.0</ele><time>2026-03-27T15:54:22.999Z</time></trkpt><trkpt lat="51.0474367019688" lon="2.390679870093174"><ele>8.833333333333334</ele><time>2026-03-27T15:54:25.999Z</time></trkpt><trkpt lat="51.04747487992697" lon="2.390561926372828"><ele>8.666666666666666</ele><time>2026-03-27T15:54:28.999Z</time></trkpt><trkpt lat="51.04750082883975" lon="2.3904178631160296"><ele>8.5</ele><time>2026-03-27T15:54:31.999Z</time></trkpt><trkpt lat="51.047529479766276" lon="2.39029521624888"><ele>8.333333333333332</ele><time>2026-03-27T15:54:34.999Z</time></trkpt><trkpt lat="51.047557798390486" lon="2.3901894269164012"><ele>8.166666666666666</ele><time>2026-03-27T15:54:37.999Z</time></trkpt><trkpt lat="51.0475865565625" lon="2.3900606488003193"><ele>8.0</ele><time>2026-03-27T15:54:41.999Z</time></trkpt><trkpt lat="51.04759991636425" lon="2.3899345735984356"><ele>7.999999999999999</ele><time>2026-03-27T15:54:44.999Z</time></trkpt><trkpt lat="51.04759774542616" lon="2.389795950707245"><ele>8.0</ele><time>2026-03-27T15:54:47.999Z</time></trkpt><trkpt lat="51.04767718122762" lon="2.389723122691742"><ele>8.0</ele><time>2026-03-27T15:54:50.999Z</time></trkpt><trkpt lat="51.047744319279595" lon="2.3897255567111397"><ele>8.0</ele><time>2026-03-27T15:54:53.999Z</time></trkpt><trkpt lat="51.04775061622935" lon="2.389827566094018"><ele>7.999999999999999</ele><time>2026-03-27T15:54:59.999Z</time></trkpt><trkpt lat="51.047817830470045" lon="2.389904737449408"><ele>8.0</ele><time>2026-03-27T15:55:02.999Z</time></trkpt><trkpt lat="51.04787003059307" lon="2.390000303040859"><ele>8.0</ele><time>2026-03-27T15:55:05.999Z</time></trkpt><trkpt lat="51.04788853045083" lon="2.390105818099325"><ele>7.999999999999999</ele><time>2026-03-27T15:55:08.999Z</time></trkpt><trkpt lat="51.04789823593053" lon="2.390216240955912"><ele>8.0</ele><time>2026-03-27T15:55:11.999Z</time></trkpt><trkpt lat="51.047900843302166" lon="2.3903246479734594"><ele>8.0</ele><time>2026-03-27T15:55:14.999Z</time></trkpt><trkpt lat="51.04789683406456" lon="2.390439426095721"><ele>7.999999999999999</ele><time>2026-03-27T15:55:17.999Z</time></trkpt><trkpt lat="51.04788784166507" lon="2.3905605764801896"><ele>8.0</ele><time>2026-03-27T15:55:22.998Z</time></trkpt><trkpt lat="51.047886870040735" lon="2.3906741502687607"><ele>8.0</ele><time>2026-03-27T15:55:27.998Z</time></trkpt><trkpt lat="51.04789803863842" lon="2.390777462612641"><ele>8.0</ele><time>2026-03-27T15:55:30.998Z</time></trkpt><trkpt lat="51.04790879784622" lon="2.390885502300943"><ele>7.999999999999999</ele><time>2026-03-27T15:55:33Z</time></trkpt><trkpt lat="51.04792906635768" lon="2.391003403699525"><ele>8.0</ele><time>2026-03-27T15:55:35Z</time></trkpt><trkpt lat="51.04796939451098" lon="2.391091265965356"><ele>8.0</ele><time>2026-03-27T15:55:38Z</time></trkpt><trkpt lat="51.0479087164637" lon="2.3911219412947626"><ele>7.999999999999999</ele><time>2026-03-27T15:56:24.999Z</time></trkpt><trkpt lat="51.04797504075542" lon="2.391077392707813"><ele>8.0</ele><time>2026-03-27T15:56:27.999Z</time></trkpt><trkpt lat="51.04804726425295" lon="2.3910430103532354"><ele>8.0</ele><time>2026-03-27T15:56:32.999Z</time></trkpt><trkpt lat="51.04811938891367" lon="2.3910171348600646"><ele>8.0</ele><time>2026-03-27T15:56:36.999Z</time></trkpt><trkpt lat="51.04819270863648" lon="2.390989662191717"><ele>7.999999999999999</ele><time>2026-03-27T15:56:40.999Z</time></trkpt><trkpt lat="51.04826583168477" lon="2.390942669493966"><ele>8.0</ele><time>2026-03-27T15:56:44.999Z</time></trkpt><trkpt lat="51.04833278115213" lon="2.3909268800183394"><ele>8.0</ele><time>2026-03-27T15:56:48.999Z</time></trkpt><trkpt lat="51.048403248495006" lon="2.3909118210991775"><ele>7.999999999999999</ele><time>2026-03-27T15:56:53.999Z</time></trkpt><trkpt lat="51.04834037091873" lon="2.3908818626125785"><ele>8.0</ele><time>2026-03-27T15:57:01.999Z</time></trkpt><trkpt lat="51.04827311217326" lon="2.3908714793717913"><ele>8.0</ele><time>2026-03-27T15:57:06.999Z</time></trkpt><trkpt lat="51.048203790512694" lon="2.3909032154082577"><ele>8.0</ele><time>2026-03-27T15:57:11.999Z</time></trkpt><trkpt lat="51.04813693479684" lon="2.39094349656732"><ele>7.999999999999999</ele><time>2026-03-27T15:57:19.999Z</time></trkpt><trkpt lat="51.048069146500445" lon="2.3909615311288737"><ele>8.0</ele><time>2026-03-27T15:57:26.999Z</time></trkpt><trkpt lat="51.04800358176244" lon="2.390990663470895"><ele>8.0</ele><time>2026-03-27T15:57:31.998Z</time></trkpt><trkpt lat="51.04796292554873" lon="2.391088407302508"><ele>7.999999999999999</ele><time>2026-03-27T15:57:35.998Z</time></trkpt><trkpt lat="51.04795602430012" lon="2.391193792357762"><ele>8.0</ele><time>2026-03-27T15:57:39Z</time></trkpt><trkpt lat="51.04797364847795" lon="2.3913136559813264"><ele>8.0</ele><time>2026-03-27T15:57:42Z</time></trkpt><trkpt lat="51.048003173531136" lon="2.3914309945053187"><ele>7.999999999999999</ele><time>2026-03-27T15:57:45Z</time></trkpt><trkpt lat="51.04804035270646" lon="2.3915435942107113"><ele>8.0</ele><time>2026-03-27T15:57:49Z</time></trkpt><trkpt lat="51.04804837433522" lon="2.3916566397538994"><ele>8.0</ele><time>2026-03-27T15:57:52Z</time></trkpt><trkpt lat="51.0480397823905" lon="2.3917991565916488"><ele>8.0</ele><time>2026-03-27T15:57:56Z</time></trkpt><trkpt lat="51.048058205177746" lon="2.391901392495438"><ele>7.999999999999999</ele><time>2026-03-27T15:57:59Z</time></trkpt><trkpt lat="51.04808342189291" lon="2.3920197867214132"><ele>8.0</ele><time>2026-03-27T15:58:03Z</time></trkpt><trkpt lat="51.048099247474816" lon="2.39213034908051"><ele>7.833333333333333</ele><time>2026-03-27T15:58:07Z</time></trkpt><trkpt lat="51.04812906491703" lon="2.392236794099153"><ele>7.666666666666666</ele><time>2026-03-27T15:58:10Z</time></trkpt><trkpt lat="51.04815936219621" lon="2.39235318794619"><ele>7.5</ele><time>2026-03-27T15:58:13Z</time></trkpt><trkpt lat="51.04817126421075" lon="2.39246541049905"><ele>7.333333333333334</ele><time>2026-03-27T15:58:16Z</time></trkpt><trkpt lat="51.04817778636073" lon="2.392596554368615"><ele>7.166666666666667</ele><time>2026-03-27T15:58:20Z</time></trkpt><trkpt lat="51.048228306028804" lon="2.3926967372750307"><ele>7.0</ele><time>2026-03-27T15:58:24Z</time></trkpt><trkpt lat="51.04830202014031" lon="2.392663634608358"><ele>7.571428571428571</ele><time>2026-03-27T15:58:27.999Z</time></trkpt><trkpt lat="51.04836477573181" lon="2.3926217034183677"><ele>8.142857142857142</ele><time>2026-03-27T15:58:30.999Z</time></trkpt><trkpt lat="51.04842631300019" lon="2.3925281831841096"><ele>8.714285714285715</ele><time>2026-03-27T15:58:33.999Z</time></trkpt><trkpt lat="51.04848125139986" lon="2.392453093161799"><ele>9.285714285714285</ele><time>2026-03-27T15:58:36.999Z</time></trkpt><trkpt lat="51.04854352854373" lon="2.3924834259316214"><ele>9.857142857142858</ele><time>2026-03-27T15:58:40.999Z</time></trkpt><trkpt lat="51.04856980109054" lon="2.3925867694339993"><ele>10.428571428571429</ele><time>2026-03-27T15:58:44.999Z</time></trkpt><trkpt lat="51.048574468794236" lon="2.3926903923237246"><ele>11.0</ele><time>2026-03-27T15:58:47.999Z</time></trkpt><trkpt lat="51.04857198331754" lon="2.3928174685701125"><ele>11.0</ele><time>2026-03-27T15:58:50.999Z</time></trkpt><trkpt lat="51.048577238088576" lon="2.3929367748441535"><ele>11.0</ele><time>2026-03-27T15:58:55.999Z</time></trkpt><trkpt lat="51.04864703754078" lon="2.393046670754388"><ele>11.0</ele><time>2026-03-27T15:58:59.999Z</time></trkpt><trkpt lat="51.04867104088948" lon="2.393159091935749"><ele>11.0</ele><time>2026-03-27T15:59:02.999Z</time></trkpt><trkpt lat="51.04869482678338" lon="2.393272278202747"><ele>11.0</ele><time>2026-03-27T15:59:04.999Z</time></trkpt><trkpt lat="51.048707258210555" lon="2.393427429416691"><ele>11.0</ele><time>2026-03-27T15:59:07.999Z</time></trkpt><trkpt lat="51.04872067215099" lon="2.3935282279250294"><ele>10.833333333333332</ele><time>2026-03-27T15:59:09.999Z</time></trkpt><trkpt lat="51.04873464623588" lon="2.393667028966998"><ele>10.666666666666666</ele><time>2026-03-27T15:59:12.999Z</time></trkpt><trkpt lat="51.04875773107458" lon="2.3937715290960537"><ele>10.5</ele><time>2026-03-27T15:59:14.999Z</time></trkpt><trkpt lat="51.048752493876414" lon="2.393908876271576"><ele>10.333333333333334</ele><time>2026-03-27T15:59:17.999Z</time></trkpt><trkpt lat="51.048769392588504" lon="2.394008575635036"><ele>10.166666666666668</ele><time>2026-03-27T15:59:19.999Z</time></trkpt><trkpt lat="51.048787984428905" lon="2.3941081283735968"><ele>10.0</ele><time>2026-03-27T15:59:21.999Z</time></trkpt><trkpt lat="51.048811939378844" lon="2.3942563160967745"><ele>10.0</ele><time>2026-03-27T15:59:24.999Z</time></trkpt><trkpt lat="51.04881860737172" lon="2.394393655767541"><ele>10.0</ele><time>2026-03-27T15:59:27.999Z</time></trkpt><trkpt lat="51.04879677167658" lon="2.394489955061508"><ele>10.0</ele><time>2026-03-27T15:59:30.999Z</time></trkpt><trkpt lat="51.0488215434735" lon="2.3946129615887153"><ele>10.0</ele><time>2026-03-27T15:59:33.999Z</time></trkpt><trkpt lat="51.048864180120454" lon="2.394718798941436"><ele>10.0</ele><time>2026-03-27T15:59:35.998Z</time></trkpt><trkpt lat="51.048889549429546" lon="2.3948504113598847"><ele>10.0</ele><time>2026-03-27T15:59:38.998Z</time></trkpt><trkpt lat="51.04891024025782" lon="2.3949521865749452"><ele>10.0</ele><time>2026-03-27T15:59:40.998Z</time></trkpt><trkpt lat="51.04895752515105" lon="2.3950203252815285"><ele>10.0</ele><time>2026-03-27T15:59:45Z</time></trkpt><trkpt lat="51.04897234067893" lon="2.395139002893784"><ele>10.0</ele><time>2026-03-27T15:59:52Z</time></trkpt><trkpt lat="51.04896178542434" lon="2.395262932422972"><ele>10.0</ele><time>2026-03-27T15:59:54Z</time></trkpt><trkpt lat="51.04896174160315" lon="2.3953714997744227"><ele>10.0</ele><time>2026-03-27T15:59:56Z</time></trkpt><trkpt lat="51.048967168442196" lon="2.3955000691669515"><ele>10.0</ele><time>2026-03-27T15:59:58Z</time></trkpt><trkpt lat="51.04896369088833" lon="2.3956231293001258"><ele>10.0</ele><time>2026-03-27T16:00:01Z</time></trkpt><trkpt lat="51.04896379165946" lon="2.3957375439522637"><ele>10.0</ele><time>2026-03-27T16:00:05Z</time></trkpt><trkpt lat="51.048996704015885" lon="2.39585062885283"><ele>10.0</ele><time>2026-03-27T16:00:08Z</time></trkpt><trkpt lat="51.04900849203816" lon="2.3959522725188753"><ele>10.0</ele><time>2026-03-27T16:00:11Z</time></trkpt><trkpt lat="51.04900080091351" lon="2.3960672830968015"><ele>10.0</ele><time>2026-03-27T16:00:15Z</time></trkpt><trkpt lat="51.04903305733125" lon="2.396175750578755"><ele>10.0</ele><time>2026-03-27T16:00:18Z</time></trkpt><trkpt lat="51.04912066384753" lon="2.3961811730750795"><ele>10.0</ele><time>2026-03-27T16:00:22Z</time></trkpt><trkpt lat="51.049180880999586" lon="2.3962143811900174"><ele>10.0</ele><time>2026-03-27T16:00:25Z</time></trkpt><trkpt lat="51.04925274294526" lon="2.39625066517703"><ele>10.166666666666668</ele><time>2026-03-27T16:00:28Z</time></trkpt><trkpt lat="51.04934022191433" lon="2.3962948390344248"><ele>10.333333333333334</ele><time>2026-03-27T16:00:31Z</time></trkpt><trkpt lat="51.04942905041053" lon="2.396338854287155"><ele>10.5</ele><time>2026-03-27T16:00:33.999Z</time></trkpt><trkpt lat="51.04949115586398" lon="2.3963577229770614"><ele>10.666666666666666</ele><time>2026-03-27T16:00:35.999Z</time></trkpt><trkpt lat="51.049570479829896" lon="2.396386002363332"><ele>10.833333333333332</ele><time>2026-03-27T16:00:38.999Z</time></trkpt><trkpt lat="51.0496422089385" lon="2.3963894030640147"><ele>11.0</ele><time>2026-03-27T16:00:41.999Z</time></trkpt><trkpt lat="51.04971406388376" lon="2.3964278398358063"><ele>11.0</ele><time>2026-03-27T16:00:44.999Z</time></trkpt><trkpt lat="51.049801048712126" lon="2.396466345133471"><ele>11.0</ele><time>2026-03-27T16:00:46.999Z</time></trkpt><trkpt lat="51.04986952464946" lon="2.396494092674928"><ele>11.0</ele><time>2026-03-27T16:00:48.999Z</time></trkpt><trkpt lat="51.049938610582025" lon="2.396505159455407"><ele>11.0</ele><time>2026-03-27T16:00:50.999Z</time></trkpt><trkpt lat="51.050008112961336" lon="2.3965393172204026"><ele>11.0</ele><time>2026-03-27T16:00:52.999Z</time></trkpt><trkpt lat="51.050102359961485" lon="2.3965422738778637"><ele>11.0</ele><time>2026-03-27T16:00:55.999Z</time></trkpt><trkpt lat="51.05017196269972" lon="2.396520919018579"><ele>11.0</ele><time>2026-03-27T16:00:57.999Z</time></trkpt><trkpt lat="51.050256142401956" lon="2.3965155838676666"><ele>11.0</ele><time>2026-03-27T16:01:00.999Z</time></trkpt><trkpt lat="51.0503487331864" lon="2.396516824784138"><ele>11.0</ele><time>2026-03-27T16:01:03.999Z</time></trkpt><trkpt lat="51.050421646826194" lon="2.3965325773705635"><ele>11.0</ele><time>2026-03-27T16:01:05.999Z</time></trkpt><trkpt lat="51.05065114800841" lon="2.396531028824815"><ele>11.0</ele><time>2026-03-27T16:01:12.999Z</time></trkpt><trkpt lat="51.05072820275043" lon="2.3965038299454653"><ele>11.0</ele><time>2026-03-27T16:01:15.999Z</time></trkpt><trkpt lat="51.05078906737056" lon="2.396419885556716"><ele>11.0</ele><time>2026-03-27T16:01:29.999Z</time></trkpt><trkpt lat="51.05081461255894" lon="2.396328133071968"><ele>11.0</ele><time>2026-03-27T16:02:27Z</time></trkpt><trkpt lat="51.050743433172656" lon="2.396292454279696"><ele>11.0</ele><time>2026-03-27T16:02:30Z</time></trkpt><trkpt lat="51.05067299018086" lon="2.396328363598335"><ele>11.0</ele><time>2026-03-27T16:02:35Z</time></trkpt><trkpt lat="51.05063128453467" lon="2.3964242244480336"><ele>11.0</ele><time>2026-03-27T16:02:38Z</time></trkpt><trkpt lat="51.050620833871754" lon="2.39653438692454"><ele>11.0</ele><time>2026-03-27T16:02:40.999Z</time></trkpt><trkpt lat="51.05064761409087" lon="2.3966411452628904"><ele>11.0</ele><time>2026-03-27T16:02:42.999Z</time></trkpt><trkpt lat="51.0506688311003" lon="2.396771102856379"><ele>11.0</ele><time>2026-03-27T16:02:44.999Z</time></trkpt><trkpt lat="51.05068062420065" lon="2.3969332204253613"><ele>11.0</ele><time>2026-03-27T16:02:46.999Z</time></trkpt><trkpt lat="51.05071044249398" lon="2.3970788708966815"><ele>11.0</ele><time>2026-03-27T16:02:48.999Z</time></trkpt><trkpt lat="51.050707304141504" lon="2.397205556678088"><ele>11.0</ele><time>2026-03-27T16:02:50.999Z</time></trkpt><trkpt lat="51.050711476121734" lon="2.397319300203775"><ele>10.833333333333332</ele><time>2026-03-27T16:02:52.999Z</time></trkpt><trkpt lat="51.050718962224046" lon="2.3974312218691174"><ele>10.666666666666666</ele><time>2026-03-27T16:02:54.999Z</time></trkpt><trkpt lat="51.05071316651042" lon="2.39755047878496"><ele>10.5</ele><time>2026-03-27T16:02:56.999Z</time></trkpt><trkpt lat="51.05074084530231" lon="2.3977031881918345"><ele>10.333333333333334</ele><time>2026-03-27T16:02:59.999Z</time></trkpt><trkpt lat="51.050744505799344" lon="2.397809748979957"><ele>10.166666666666668</ele><time>2026-03-27T16:03:01.999Z</time></trkpt><trkpt lat="51.05074295125253" lon="2.3979444091813122"><ele>10.0</ele><time>2026-03-27T16:03:03.999Z</time></trkpt><trkpt lat="51.05076136181573" lon="2.398078027477817"><ele>10.0</ele><time>2026-03-27T16:03:05.999Z</time></trkpt><trkpt lat="51.05078316466484" lon="2.3982020381298477"><ele>10.0</ele><time>2026-03-27T16:03:07.999Z</time></trkpt><trkpt lat="51.05079364211282" lon="2.3983159974461596"><ele>10.0</ele><time>2026-03-27T16:03:09.999Z</time></trkpt><trkpt lat="51.05081411622848" lon="2.3984657392058164"><ele>10.0</ele><time>2026-03-27T16:03:11.999Z</time></trkpt><trkpt lat="51.05081127822208" lon="2.3985788711690943"><ele>10.0</ele><time>2026-03-27T16:03:13.999Z</time></trkpt><trkpt lat="51.050819532547095" lon="2.398729159845066"><ele>10.0</ele><time>2026-03-27T16:03:15.999Z</time></trkpt><trkpt lat="51.05082954346535" lon="2.3988643075946343"><ele>10.2</ele><time>2026-03-27T16:03:17.999Z</time></trkpt><trkpt lat="51.050846976901255" lon="2.399004967364442"><ele>10.4</ele><time>2026-03-27T16:03:19.999Z</time></trkpt><trkpt lat="51.050862765459875" lon="2.399146060843824"><ele>10.600000000000001</ele><time>2026-03-27T16:03:21.999Z</time></trkpt><trkpt lat="51.05087362548643" lon="2.3992864630510047"><ele>10.8</ele><time>2026-03-27T16:03:23.999Z</time></trkpt><trkpt lat="51.050890654356934" lon="2.3994281110744065"><ele>11.0</ele><time>2026-03-27T16:03:25.999Z</time></trkpt><trkpt lat="51.05091321664456" lon="2.399600627424131"><ele>11.200000000000001</ele><time>2026-03-27T16:03:27.999Z</time></trkpt><trkpt lat="51.05092528572192" lon="2.3997098079465986"><ele>11.4</ele><time>2026-03-27T16:03:28.999Z</time></trkpt><trkpt lat="51.05095664198153" lon="2.399801025629094"><ele>11.6</ele><time>2026-03-27T16:03:29.999Z</time></trkpt><trkpt lat="51.05105344428969" lon="2.39988209154886"><ele>11.8</ele><time>2026-03-27T16:03:30.999Z</time></trkpt><trkpt lat="51.05107770185647" lon="2.400062165775933"><ele>12.0</ele><time>2026-03-27T16:03:32.999Z</time></trkpt><trkpt lat="51.051098938299255" lon="2.400211948447033"><ele>12.0</ele><time>2026-03-27T16:03:34.999Z</time></trkpt><trkpt lat="51.051096370301785" lon="2.4003734780836488"><ele>12.0</ele><time>2026-03-27T16:03:38.999Z</time></trkpt><trkpt lat="51.051060764490465" lon="2.4005144847215893"><ele>12.0</ele><time>2026-03-27T16:03:40.999Z</time></trkpt><trkpt lat="51.05097018181797" lon="2.4006043406911055"><ele>12.0</ele><time>2026-03-27T16:03:42.999Z</time></trkpt><trkpt lat="51.050896809733665" lon="2.400616145885444"><ele>12.0</ele><time>2026-03-27T16:03:44.999Z</time></trkpt><trkpt lat="51.05081126673528" lon="2.400670358672306"><ele>11.666666666666666</ele><time>2026-03-27T16:03:47.998Z</time></trkpt><trkpt lat="51.050743298215956" lon="2.4007154369880874"><ele>11.333333333333334</ele><time>2026-03-27T16:03:49.998Z</time></trkpt><trkpt lat="51.05068122940318" lon="2.400753951089392"><ele>11.0</ele><time>2026-03-27T16:03:51.998Z</time></trkpt><trkpt lat="51.05061823845422" lon="2.4008076153066606"><ele>10.666666666666668</ele><time>2026-03-27T16:03:55.998Z</time></trkpt><trkpt lat="51.050524149659985" lon="2.4007786731220824"><ele>10.333333333333334</ele><time>2026-03-27T16:03:58Z</time></trkpt><trkpt lat="51.05057670404902" lon="2.4008519556841335"><ele>10.0</ele><time>2026-03-27T16:04:02Z</time></trkpt><trkpt lat="51.05062728748125" lon="2.4009460794196666"><ele>10.0</ele><time>2026-03-27T16:04:04Z</time></trkpt><trkpt lat="51.05066175985932" lon="2.40109371710234"><ele>10.0</ele><time>2026-03-27T16:04:05Z</time></trkpt><trkpt lat="51.05070348986353" lon="2.401223379651053"><ele>10.0</ele><time>2026-03-27T16:04:07Z</time></trkpt><trkpt lat="51.05071839451574" lon="2.4013645578636336"><ele>10.0</ele><time>2026-03-27T16:04:09Z</time></trkpt><trkpt lat="51.050733605713134" lon="2.4015075690951453"><ele>10.0</ele><time>2026-03-27T16:04:11Z</time></trkpt><trkpt lat="51.05076737386815" lon="2.4016456520463834"><ele>10.142857142857142</ele><time>2026-03-27T16:04:13Z</time></trkpt><trkpt lat="51.050806922629" lon="2.4017698387921578"><ele>10.285714285714286</ele><time>2026-03-27T16:04:15Z</time></trkpt><trkpt lat="51.05082350246598" lon="2.4018802778994224"><ele>10.428571428571429</ele><time>2026-03-27T16:04:17Z</time></trkpt><trkpt lat="51.0508429525412" lon="2.4019759806978485"><ele>10.571428571428571</ele><time>2026-03-27T16:04:19Z</time></trkpt><trkpt lat="51.05085541217833" lon="2.402086208008866"><ele>10.714285714285714</ele><time>2026-03-27T16:04:21Z</time></trkpt><trkpt lat="51.050880628064235" lon="2.402197596470999"><ele>10.857142857142858</ele><time>2026-03-27T16:04:23Z</time></trkpt><trkpt lat="51.050894789640616" lon="2.40231661669238"><ele>11.0</ele><time>2026-03-27T16:04:26Z</time></trkpt><trkpt lat="51.05092297589288" lon="2.4024609058972115"><ele>11.0</ele><time>2026-03-27T16:04:29Z</time></trkpt><trkpt lat="51.05096557381675" lon="2.402597276977372"><ele>11.0</ele><time>2026-03-27T16:04:32Z</time></trkpt><trkpt lat="51.05098461999184" lon="2.4027220897241706"><ele>11.0</ele><time>2026-03-27T16:04:35Z</time></trkpt><trkpt lat="51.050973925405145" lon="2.402832512956874"><ele>11.0</ele><time>2026-03-27T16:04:38Z</time></trkpt><trkpt lat="51.05095851752782" lon="2.4029407444835122"><ele>11.0</ele><time>2026-03-27T16:04:41Z</time></trkpt><trkpt lat="51.05099523872367" lon="2.4030271383266806"><ele>11.0</ele><time>2026-03-27T16:04:44Z</time></trkpt><trkpt lat="51.05099716731235" lon="2.403142408806459"><ele>10.666666666666666</ele><time>2026-03-27T16:04:47.999Z</time></trkpt><trkpt lat="51.051013691344075" lon="2.4032546341752"><ele>10.333333333333332</ele><time>2026-03-27T16:04:50.999Z</time></trkpt><trkpt lat="51.05102580397097" lon="2.4033603605528353"><ele>10.0</ele><time>2026-03-27T16:04:53.999Z</time></trkpt><trkpt lat="51.05104152521207" lon="2.403479243896089"><ele>9.666666666666666</ele><time>2026-03-27T16:04:57.999Z</time></trkpt><trkpt lat="51.05106271325989" lon="2.4035998282040287"><ele>9.333333333333334</ele><time>2026-03-27T16:05:01.999Z</time></trkpt><trkpt lat="51.051096431434175" lon="2.4037205881100516"><ele>9.0</ele><time>2026-03-27T16:05:05.999Z</time></trkpt><trkpt lat="51.051107014096914" lon="2.403833308484251"><ele>9.000000000000002</ele><time>2026-03-27T16:05:08.999Z</time></trkpt><trkpt lat="51.05112428432189" lon="2.4039386330110877"><ele>9.0</ele><time>2026-03-27T16:05:11.999Z</time></trkpt><trkpt lat="51.05114734288157" lon="2.404037868344443"><ele>9.0</ele><time>2026-03-27T16:05:14.999Z</time></trkpt><trkpt lat="51.05116136340893" lon="2.404148349218092"><ele>9.0</ele><time>2026-03-27T16:05:17.999Z</time></trkpt><trkpt lat="51.051190989320894" lon="2.404252710547746"><ele>9.0</ele><time>2026-03-27T16:05:20.999Z</time></trkpt><trkpt lat="51.05118770947083" lon="2.4043813949784885"><ele>9.000000000000002</ele><time>2026-03-27T16:05:23.999Z</time></trkpt><trkpt lat="51.05122283242114" lon="2.4044876809088973"><ele>9.0</ele><time>2026-03-27T16:05:26.999Z</time></trkpt><trkpt lat="51.051248120807124" lon="2.404579862779128"><ele>8.833333333333334</ele><time>2026-03-27T16:05:28.999Z</time></trkpt><trkpt lat="51.05127838857704" lon="2.4046944926908065"><ele>8.666666666666666</ele><time>2026-03-27T16:05:31.999Z</time></trkpt><trkpt lat="51.051298260377536" lon="2.404832521392099"><ele>8.5</ele><time>2026-03-27T16:05:34.999Z</time></trkpt><trkpt lat="51.05131598961799" lon="2.404964099747162"><ele>8.333333333333332</ele><time>2026-03-27T16:05:37.999Z</time></trkpt><trkpt lat="51.05132330726203" lon="2.4050664413710083"><ele>8.166666666666666</ele><time>2026-03-27T16:05:39.999Z</time></trkpt><trkpt lat="51.05131826872713" lon="2.405218259625935"><ele>8.0</ele><time>2026-03-27T16:05:42.999Z</time></trkpt><trkpt lat="51.05133243712211" lon="2.4053209610947195"><ele>7.999999999999999</ele><time>2026-03-27T16:05:44.999Z</time></trkpt><trkpt lat="51.0514092325292" lon="2.405449627287907"><ele>8.0</ele><time>2026-03-27T16:05:47.999Z</time></trkpt><trkpt lat="51.051435968389406" lon="2.405568205612562"><ele>8.0</ele><time>2026-03-27T16:05:50.999Z</time></trkpt><trkpt lat="51.05145330542043" lon="2.4056844969468436"><ele>8.0</ele><time>2026-03-27T16:05:53.998Z</time></trkpt><trkpt lat="51.051448964676375" lon="2.4058285262608954"><ele>7.999999999999999</ele><time>2026-03-27T16:05:56.998Z</time></trkpt><trkpt lat="51.051486306913894" lon="2.405934425541978"><ele>8.0</ele><time>2026-03-27T16:05:58.998Z</time></trkpt><trkpt lat="51.051509689467224" lon="2.4060314139639454"><ele>7.999999999999999</ele><time>2026-03-27T16:06:00.998Z</time></trkpt><trkpt lat="51.0515122077764" lon="2.40614305149859"><ele>8.0</ele><time>2026-03-27T16:06:03Z</time></trkpt><trkpt lat="51.051494450949214" lon="2.406273374494159"><ele>8.0</ele><time>2026-03-27T16:06:06Z</time></trkpt><trkpt lat="51.05156451881843" lon="2.406364331186822"><ele>8.0</ele><time>2026-03-27T16:06:08Z</time></trkpt><trkpt lat="51.05156770886239" lon="2.406484221053009"><ele>7.999999999999999</ele><time>2026-03-27T16:06:11Z</time></trkpt><trkpt lat="51.05160638509504" lon="2.406598350306534"><ele>8.0</ele><time>2026-03-27T16:06:15Z</time></trkpt><trkpt lat="51.05163494557272" lon="2.4067120611639123"><ele>8.428571428571429</ele><time>2026-03-27T16:06:19Z</time></trkpt><trkpt lat="51.05166758143932" lon="2.4068255432841004"><ele>8.857142857142856</ele><time>2026-03-27T16:06:23Z</time></trkpt><trkpt lat="51.05169865465128" lon="2.4069137806946572"><ele>9.285714285714285</ele><time>2026-03-27T16:06:26Z</time></trkpt><trkpt lat="51.05171210334525" lon="2.407017369228025"><ele>9.714285714285714</ele><time>2026-03-27T16:06:29Z</time></trkpt><trkpt lat="51.05173800011667" lon="2.4071395559994295"><ele>10.142857142857142</ele><time>2026-03-27T16:06:32Z</time></trkpt><trkpt lat="51.051744259216065" lon="2.407239401198792"><ele>10.571428571428571</ele><time>2026-03-27T16:06:35Z</time></trkpt><trkpt lat="51.05177334001025" lon="2.407355555937377"><ele>11.0</ele><time>2026-03-27T16:06:39Z</time></trkpt><trkpt lat="51.0517961824129" lon="2.407469275961445"><ele>11.0</ele><time>2026-03-27T16:06:42Z</time></trkpt><trkpt lat="51.051826032430625" lon="2.4075943936583273"><ele>11.0</ele><time>2026-03-27T16:06:45Z</time></trkpt><trkpt lat="51.0518364032047" lon="2.4077144108068604"><ele>11.0</ele><time>2026-03-27T16:06:48Z</time></trkpt><trkpt lat="51.05185461709667" lon="2.407834196571487"><ele>11.0</ele><time>2026-03-27T16:06:50.999Z</time></trkpt><trkpt lat="51.05188120278215" lon="2.4079635968702324"><ele>11.0</ele><time>2026-03-27T16:06:53.999Z</time></trkpt><trkpt lat="51.05189801951173" lon="2.408061303172898"><ele>11.0</ele><time>2026-03-27T16:06:56.999Z</time></trkpt><trkpt lat="51.05191072495723" lon="2.4081919157065945"><ele>10.833333333333332</ele><time>2026-03-27T16:07:00.999Z</time></trkpt><trkpt lat="51.05190868638894" lon="2.408295939863082"><ele>10.666666666666666</ele><time>2026-03-27T16:07:03.999Z</time></trkpt><trkpt lat="51.05193093806973" lon="2.408421234498814"><ele>10.5</ele><time>2026-03-27T16:07:06.999Z</time></trkpt><trkpt lat="51.05200688173604" lon="2.408507509368714"><ele>10.333333333333334</ele><time>2026-03-27T16:07:08.999Z</time></trkpt><trkpt lat="51.0520555159559" lon="2.4085919968718152"><ele>10.166666666666668</ele><time>2026-03-27T16:07:12.999Z</time></trkpt><trkpt lat="51.05202410298042" lon="2.4087363667517607"><ele>10.0</ele><time>2026-03-27T16:07:16.999Z</time></trkpt><trkpt lat="51.05196605027998" lon="2.4087975565050876"><ele>10.333333333333334</ele><time>2026-03-27T16:07:18.999Z</time></trkpt><trkpt lat="51.05195370901673" lon="2.408925887122658"><ele>10.666666666666668</ele><time>2026-03-27T16:07:21.999Z</time></trkpt><trkpt lat="51.051992169357746" lon="2.4090444408926817"><ele>11.0</ele><time>2026-03-27T16:07:24.999Z</time></trkpt><trkpt lat="51.05204502462758" lon="2.4091275467040605"><ele>11.333333333333334</ele><time>2026-03-27T16:07:26.999Z</time></trkpt><trkpt lat="51.052103918664315" lon="2.409194811679353"><ele>11.666666666666666</ele><time>2026-03-27T16:07:29.999Z</time></trkpt><trkpt lat="51.052157656137375" lon="2.409269766445391"><ele>12.0</ele><time>2026-03-27T16:07:32.999Z</time></trkpt><trkpt lat="51.05218050881373" lon="2.4093737748381923"><ele>12.0</ele><time>2026-03-27T16:07:35.999Z</time></trkpt><trkpt lat="51.05221680152936" lon="2.409505564294323"><ele>12.0</ele><time>2026-03-27T16:07:38.999Z</time></trkpt><trkpt lat="51.05222555750072" lon="2.409608087184324"><ele>12.0</ele><time>2026-03-27T16:07:40.999Z</time></trkpt><trkpt lat="51.05225563043401" lon="2.409702716413725"><ele>12.0</ele><time>2026-03-27T16:07:42.999Z</time></trkpt><trkpt lat="51.0522641607967" lon="2.4098203279379815"><ele>12.0</ele><time>2026-03-27T16:07:45.999Z</time></trkpt><trkpt lat="51.05227393844626" lon="2.409955846113102"><ele>12.0</ele><time>2026-03-27T16:07:47.999Z</time></trkpt><trkpt lat="51.05227320042725" lon="2.4101070489129164"><ele>12.166666666666666</ele><time>2026-03-27T16:07:51.999Z</time></trkpt><trkpt lat="51.05230716562283" lon="2.4102485555034385"><ele>12.333333333333332</ele><time>2026-03-27T16:07:54.999Z</time></trkpt><trkpt lat="51.05225630325586" lon="2.4103446003464484"><ele>12.5</ele><time>2026-03-27T16:07:57.998Z</time></trkpt><trkpt lat="51.052175818748005" lon="2.4103985012003353"><ele>12.666666666666666</ele><time>2026-03-27T16:08:01.998Z</time></trkpt><trkpt lat="51.05211286766901" lon="2.4103837002546604"><ele>12.833333333333332</ele><time>2026-03-27T16:08:04.998Z</time></trkpt><trkpt lat="51.052045597453876" lon="2.4103935104376264"><ele>13.0</ele><time>2026-03-27T16:08:07.998Z</time></trkpt><trkpt lat="51.051965904957804" lon="2.4103530399106856"><ele>12.999999999999998</ele><time>2026-03-27T16:08:11Z</time></trkpt><trkpt lat="51.05189451343269" lon="2.410433242456836"><ele>13.0</ele><time>2026-03-27T16:08:15Z</time></trkpt><trkpt lat="51.05185920982056" lon="2.410531248612318"><ele>13.0</ele><time>2026-03-27T16:08:17Z</time></trkpt><trkpt lat="51.05184068098122" lon="2.4106476875823244"><ele>13.0</ele><time>2026-03-27T16:08:19Z</time></trkpt><trkpt lat="51.051840558194684" lon="2.4107745852040194"><ele>12.999999999999998</ele><time>2026-03-27T16:08:21Z</time></trkpt><trkpt lat="51.05186173951036" lon="2.4108782976437326"><ele>13.0</ele><time>2026-03-27T16:08:24Z</time></trkpt><trkpt lat="51.05185976503802" lon="2.4110023992957763"><ele>12.999999999999998</ele><time>2026-03-27T16:08:28Z</time></trkpt><trkpt lat="51.051862882802126" lon="2.41115750979758"><ele>13.0</ele><time>2026-03-27T16:08:31Z</time></trkpt><trkpt lat="51.05180108363291" lon="2.4112527983794387"><ele>13.0</ele><time>2026-03-27T16:08:34Z</time></trkpt><trkpt lat="51.05172234332404" lon="2.411250179839179"><ele>13.0</ele><time>2026-03-27T16:08:37Z</time></trkpt><trkpt lat="51.05163984495716" lon="2.4112927275135307"><ele>12.999999999999998</ele><time>2026-03-27T16:08:41Z</time></trkpt><trkpt lat="51.051600022189334" lon="2.411193331500184"><ele>13.0</ele><time>2026-03-27T16:08:48Z</time></trkpt><trkpt lat="51.051543574410864" lon="2.4111394726297655"><ele>12.999999999999998</ele><time>2026-03-27T16:08:52Z</time></trkpt><trkpt lat="51.051478840471475" lon="2.411144296151446"><ele>13.0</ele><time>2026-03-27T16:09:06.999Z</time></trkpt><trkpt lat="51.05140357181343" lon="2.411168892722554"><ele>13.0</ele><time>2026-03-27T16:09:09.999Z</time></trkpt><trkpt lat="51.05132266107556" lon="2.411253619255618"><ele>13.0</ele><time>2026-03-27T16:09:12.999Z</time></trkpt><trkpt lat="51.0512792215314" lon="2.4114141336279036"><ele>12.999999999999998</ele><time>2026-03-27T16:09:15.999Z</time></trkpt><trkpt lat="51.051299575803014" lon="2.4115420912167074"><ele>13.0</ele><time>2026-03-27T16:09:17.999Z</time></trkpt><trkpt lat="51.05126474430723" lon="2.411635294304998"><ele>12.999999999999998</ele><time>2026-03-27T16:09:19.999Z</time></trkpt><trkpt lat="51.051218546017374" lon="2.4117176224869747"><ele>13.0</ele><time>2026-03-27T16:09:22.999Z</time></trkpt><trkpt lat="51.05118652875129" lon="2.4118290589218243"><ele>13.0</ele><time>2026-03-27T16:09:26.999Z</time></trkpt><trkpt lat="51.051126280014884" lon="2.411902652237759"><ele>13.0</ele><time>2026-03-27T16:09:28.999Z</time></trkpt><trkpt lat="51.0510449606926" lon="2.4119477493044967"><ele>12.999999999999998</ele><time>2026-03-27T16:09:30.999Z</time></trkpt><trkpt lat="51.05092898411782" lon="2.411931663491377"><ele>13.0</ele><time>2026-03-27T16:09:32.999Z</time></trkpt><trkpt lat="51.05085786191379" lon="2.4119517173980527"><ele>13.0</ele><time>2026-03-27T16:09:34.999Z</time></trkpt><trkpt lat="51.050802889343245" lon="2.411895867931297"><ele>13.0</ele><time>2026-03-27T16:09:44.999Z</time></trkpt><trkpt lat="51.05078633308139" lon="2.4117757159538042"><ele>13.0</ele><time>2026-03-27T16:09:47.999Z</time></trkpt><trkpt lat="51.05079143894779" lon="2.41166694448465"><ele>13.0</ele><time>2026-03-27T16:09:49.999Z</time></trkpt><trkpt lat="51.050790701801496" lon="2.411544913557772"><ele>13.0</ele><time>2026-03-27T16:09:51.999Z</time></trkpt><trkpt lat="51.05076706701758" lon="2.4114251125159747"><ele>13.0</ele><time>2026-03-27T16:09:55.999Z</time></trkpt><trkpt lat="51.05072324401621" lon="2.4113291641050063"><ele>13.0</ele><time>2026-03-27T16:09:58.999Z</time></trkpt><trkpt lat="51.05066414244301" lon="2.4112490323485902"><ele>12.571428571428571</ele><time>2026-03-27T16:10:01.999Z</time></trkpt><trkpt lat="51.0506234984218" lon="2.4111494646975804"><ele>12.142857142857144</ele><time>2026-03-27T16:10:04.998Z</time></trkpt><trkpt lat="51.05056505048303" lon="2.4110827865699345"><ele>11.714285714285715</ele><time>2026-03-27T16:10:07.998Z</time></trkpt><trkpt lat="51.05051640614192" lon="2.4110101267916297"><ele>11.285714285714285</ele><time>2026-03-27T16:10:10.998Z</time></trkpt><trkpt lat="51.050483172955566" lon="2.4108777850342182"><ele>10.857142857142858</ele><time>2026-03-27T16:10:16Z</time></trkpt><trkpt lat="51.05045545440113" lon="2.410777640875972"><ele>10.428571428571429</ele><time>2026-03-27T16:10:19Z</time></trkpt><trkpt lat="51.050378724517266" lon="2.4107776563407772"><ele>10.0</ele><time>2026-03-27T16:10:23Z</time></trkpt><trkpt lat="51.05034774317629" lon="2.410868852366693"><ele>10.0</ele><time>2026-03-27T16:10:25Z</time></trkpt><trkpt lat="51.05029097566138" lon="2.410929134069591"><ele>10.0</ele><time>2026-03-27T16:10:28Z</time></trkpt><trkpt lat="51.05022532175621" lon="2.41097581335023"><ele>10.0</ele><time>2026-03-27T16:10:31Z</time></trkpt><trkpt lat="51.050159490154265" lon="2.411046516433767"><ele>10.0</ele><time>2026-03-27T16:10:34Z</time></trkpt><trkpt lat="51.05011639946526" lon="2.411160390563327"><ele>10.0</ele><time>2026-03-27T16:10:37Z</time></trkpt><trkpt lat="51.05005521040249" lon="2.41123966101296"><ele>10.0</ele><time>2026-03-27T16:10:39Z</time></trkpt><trkpt lat="51.04999285934409" lon="2.4113314866931836"><ele>10.0</ele><time>2026-03-27T16:10:42Z</time></trkpt><trkpt lat="51.04993163156441" lon="2.411382533322402"><ele>10.0</ele><time>2026-03-27T16:10:46Z</time></trkpt><trkpt lat="51.049892582329186" lon="2.41148977770583"><ele>10.0</ele><time>2026-03-27T16:10:49Z</time></trkpt><trkpt lat="51.049871881386096" lon="2.411590108805185"><ele>10.0</ele><time>2026-03-27T16:10:51Z</time></trkpt><trkpt lat="51.049862185131886" lon="2.4117034326349627"><ele>10.0</ele><time>2026-03-27T16:10:53Z</time></trkpt><trkpt lat="51.049875100897" lon="2.411803978404174"><ele>10.0</ele><time>2026-03-27T16:10:55Z</time></trkpt><trkpt lat="51.04985547179084" lon="2.411914482013064"><ele>10.0</ele><time>2026-03-27T16:10:58Z</time></trkpt><trkpt lat="51.04982722735924" lon="2.412024770987734"><ele>10.0</ele><time>2026-03-27T16:11:02Z</time></trkpt><trkpt lat="51.049829691835235" lon="2.4121509584119423"><ele>10.0</ele><time>2026-03-27T16:11:05.999Z</time></trkpt><trkpt lat="51.049857152381236" lon="2.4122574489916273"><ele>10.0</ele><time>2026-03-27T16:11:08.999Z</time></trkpt><trkpt lat="51.0498611529883" lon="2.4123579949231284"><ele>10.0</ele><time>2026-03-27T16:11:11.999Z</time></trkpt><trkpt lat="51.04987699284152" lon="2.41248820781859"><ele>10.0</ele><time>2026-03-27T16:11:15.999Z</time></trkpt><trkpt lat="51.049878402478285" lon="2.412589834284089"><ele>10.0</ele><time>2026-03-27T16:11:18.999Z</time></trkpt><trkpt lat="51.04984906004887" lon="2.4126893261565647"><ele>10.0</ele><time>2026-03-27T16:11:21.999Z</time></trkpt><trkpt lat="51.04985168680502" lon="2.4127941272814364"><ele>10.0</ele><time>2026-03-27T16:11:24.999Z</time></trkpt><trkpt lat="51.04985074113544" lon="2.412898613024579"><ele>10.0</ele><time>2026-03-27T16:11:27.999Z</time></trkpt><trkpt lat="51.04985993036821" lon="2.4130121470565813"><ele>10.0</ele><time>2026-03-27T16:11:31.999Z</time></trkpt><trkpt lat="51.04987296729123" lon="2.413166788956676"><ele>10.0</ele><time>2026-03-27T16:11:34.999Z</time></trkpt><trkpt lat="51.04985475332757" lon="2.413271961672226"><ele>10.0</ele><time>2026-03-27T16:11:36.999Z</time></trkpt><trkpt lat="51.049818726799465" lon="2.4133897902426122"><ele>10.0</ele><time>2026-03-27T16:11:55.999Z</time></trkpt><trkpt lat="51.04975732191358" lon="2.413456534242944"><ele>9.833333333333334</ele><time>2026-03-27T16:11:57.999Z</time></trkpt><trkpt lat="51.0497259248339" lon="2.413551909956719"><ele>9.666666666666668</ele><time>2026-03-27T16:11:59.999Z</time></trkpt><trkpt lat="51.049737166883105" lon="2.4136580126373883"><ele>9.5</ele><time>2026-03-27T16:12:01.999Z</time></trkpt><trkpt lat="51.04976426861569" lon="2.4137796915071936"><ele>9.333333333333334</ele><time>2026-03-27T16:12:04.999Z</time></trkpt><trkpt lat="51.04977057631866" lon="2.4138800035360197"><ele>9.166666666666666</ele><time>2026-03-27T16:12:06.999Z</time></trkpt><trkpt lat="51.049807587255984" lon="2.41400164579478"><ele>9.0</ele><time>2026-03-27T16:12:09.999Z</time></trkpt><trkpt lat="51.04983375936031" lon="2.4141320539199054"><ele>9.000000000000002</ele><time>2026-03-27T16:12:12.998Z</time></trkpt><trkpt lat="51.04985767125496" lon="2.414237867524489"><ele>9.0</ele><time>2026-03-27T16:12:15.998Z</time></trkpt><trkpt lat="51.04988605872518" lon="2.4143483277336846"><ele>9.0</ele><time>2026-03-27T16:12:18.998Z</time></trkpt><trkpt lat="51.04990073110832" lon="2.4144548316897323"><ele>9.0</ele><time>2026-03-27T16:12:22Z</time></trkpt><trkpt lat="51.04992253908314" lon="2.4145666425504686"><ele>9.0</ele><time>2026-03-27T16:12:25Z</time></trkpt><trkpt lat="51.049948999117625" lon="2.4146790622318246"><ele>9.000000000000002</ele><time>2026-03-27T16:12:28Z</time></trkpt><trkpt lat="51.049978864658385" lon="2.414799103443801"><ele>9.0</ele><time>2026-03-27T16:12:31Z</time></trkpt><trkpt lat="51.0500124693689" lon="2.4149126285424147"><ele>9.0</ele><time>2026-03-27T16:12:34Z</time></trkpt><trkpt lat="51.05001715424448" lon="2.415030095978014"><ele>9.0</ele><time>2026-03-27T16:12:38Z</time></trkpt><trkpt lat="51.05005529528962" lon="2.415115409543429"><ele>9.0</ele><time>2026-03-27T16:12:40Z</time></trkpt><trkpt lat="51.05011215180315" lon="2.4151922425852494"><ele>9.0</ele><time>2026-03-27T16:12:43Z</time></trkpt><trkpt lat="51.05013901580732" lon="2.4153354187643905"><ele>9.0</ele><time>2026-03-27T16:12:47Z</time></trkpt><trkpt lat="51.05016376405399" lon="2.4154490236883857"><ele>9.0</ele><time>2026-03-27T16:12:50Z</time></trkpt><trkpt lat="51.05019981857999" lon="2.415562020383736"><ele>9.0</ele><time>2026-03-27T16:12:53Z</time></trkpt><trkpt lat="51.05022337110354" lon="2.4156729759022393"><ele>9.0</ele><time>2026-03-27T16:12:56Z</time></trkpt><trkpt lat="51.05026573382097" lon="2.415802250603025"><ele>9.0</ele><time>2026-03-27T16:12:59Z</time></trkpt><trkpt lat="51.050292077560755" lon="2.4159076443730223"><ele>9.0</ele><time>2026-03-27T16:13:02Z</time></trkpt><trkpt lat="51.05033188344921" lon="2.4160555720240455"><ele>9.0</ele><time>2026-03-27T16:13:05Z</time></trkpt><trkpt lat="51.050363275918656" lon="2.416157791035383"><ele>9.0</ele><time>2026-03-27T16:13:07Z</time></trkpt><trkpt lat="51.050392148065335" lon="2.4162615806987793"><ele>9.0</ele><time>2026-03-27T16:13:08.999Z</time></trkpt><trkpt lat="51.0504294805278" lon="2.4163613618305155"><ele>9.0</ele><time>2026-03-27T16:13:10.999Z</time></trkpt><trkpt lat="51.05045622653083" lon="2.4164944549483973"><ele>9.0</ele><time>2026-03-27T16:13:13.999Z</time></trkpt><trkpt lat="51.05048237201188" lon="2.4166109910476536"><ele>9.0</ele><time>2026-03-27T16:13:16.999Z</time></trkpt><trkpt lat="51.05050603324928" lon="2.4167097088642686"><ele>9.0</ele><time>2026-03-27T16:13:19.999Z</time></trkpt><trkpt lat="51.05053023917369" lon="2.416852344601066"><ele>9.0</ele><time>2026-03-27T16:13:22.999Z</time></trkpt><trkpt lat="51.05053863252636" lon="2.417007939694296"><ele>9.0</ele><time>2026-03-27T16:13:25.999Z</time></trkpt><trkpt lat="51.05054734506457" lon="2.417115238776485"><ele>9.0</ele><time>2026-03-27T16:13:27.999Z</time></trkpt><trkpt lat="51.05056630354462" lon="2.4172537885465206"><ele>9.0</ele><time>2026-03-27T16:13:30.999Z</time></trkpt><trkpt lat="51.05058567651549" lon="2.4173887613143994"><ele>9.0</ele><time>2026-03-27T16:13:33.999Z</time></trkpt><trkpt lat="51.05060604400773" lon="2.4175060052414024"><ele>9.0</ele><time>2026-03-27T16:13:36.999Z</time></trkpt><trkpt lat="51.05063700112292" lon="2.417612221656185"><ele>9.0</ele><time>2026-03-27T16:13:39.999Z</time></trkpt><trkpt lat="51.05067440542338" lon="2.4177105783300905"><ele>8.5</ele><time>2026-03-27T16:13:42.999Z</time></trkpt><trkpt lat="51.05072457872294" lon="2.417810871197071"><ele>8.0</ele><time>2026-03-27T16:13:45.999Z</time></trkpt><trkpt lat="51.05056631776166" lon="2.417825805911965"><ele>7.5</ele><time>2026-03-27T16:14:03.999Z</time></trkpt><trkpt lat="51.050467715444796" lon="2.417846865959116"><ele>7.0</ele><time>2026-03-27T16:14:05.999Z</time></trkpt><trkpt lat="51.05035315718762" lon="2.417846750548271"><ele>7.0</ele><time>2026-03-27T16:14:07.999Z</time></trkpt><trkpt lat="51.05026264463625" lon="2.417813392086755"><ele>6.999999999999999</ele><time>2026-03-27T16:14:09.999Z</time></trkpt><trkpt lat="51.050157325762186" lon="2.4178010768333644"><ele>6.999999999999999</ele><time>2026-03-27T16:14:11.999Z</time></trkpt><trkpt lat="51.05006973112775" lon="2.4178294728977785"><ele>7.0</ele><time>2026-03-27T16:14:13.999Z</time></trkpt><trkpt lat="51.05000030570041" lon="2.4178159296002475"><ele>7.0</ele><time>2026-03-27T16:14:15.998Z</time></trkpt><trkpt lat="51.049903942184265" lon="2.4177985922305103"><ele>7.333333333333334</ele><time>2026-03-27T16:14:17.998Z</time></trkpt><trkpt lat="51.04983107459589" lon="2.4178127084354033"><ele>7.666666666666667</ele><time>2026-03-27T16:14:19.998Z</time></trkpt><trkpt lat="51.04975488454499" lon="2.4178217110824356"><ele>8.0</ele><time>2026-03-27T16:14:21.998Z</time></trkpt><trkpt lat="51.04966659656314" lon="2.417838738302543"><ele>8.333333333333334</ele><time>2026-03-27T16:14:23.998Z</time></trkpt><trkpt lat="51.049584679578345" lon="2.417823333520316"><ele>8.666666666666666</ele><time>2026-03-27T16:14:27Z</time></trkpt><trkpt lat="51.049510746065835" lon="2.417833080862518"><ele>9.0</ele><time>2026-03-27T16:14:30Z</time></trkpt><trkpt lat="51.049450746958755" lon="2.4178654140164078"><ele>9.0</ele><time>2026-03-27T16:14:36Z</time></trkpt><trkpt lat="51.04944207189711" lon="2.417993965766048"><ele>9.0</ele><time>2026-03-27T16:14:42Z</time></trkpt><trkpt lat="51.04947975080485" lon="2.418084700940981"><ele>9.0</ele><time>2026-03-27T16:14:45Z</time></trkpt><trkpt lat="51.049501269604555" lon="2.41821122941572"><ele>9.0</ele><time>2026-03-27T16:14:49Z</time></trkpt><trkpt lat="51.049523323399974" lon="2.418331621318271"><ele>9.0</ele><time>2026-03-27T16:14:53Z</time></trkpt><trkpt lat="51.04954087204014" lon="2.4184321629656504"><ele>9.0</ele><time>2026-03-27T16:14:57Z</time></trkpt><trkpt lat="51.049569152533905" lon="2.418545533887404"><ele>9.0</ele><time>2026-03-27T16:15:00Z</time></trkpt><trkpt lat="51.049615914941214" lon="2.418676822587596"><ele>9.0</ele><time>2026-03-27T16:15:03Z</time></trkpt><trkpt lat="51.04964558191203" lon="2.418807593781775"><ele>9.0</ele><time>2026-03-27T16:15:06Z</time></trkpt><trkpt lat="51.049679880232915" lon="2.4189415385010724"><ele>9.0</ele><time>2026-03-27T16:15:09Z</time></trkpt><trkpt lat="51.04971404723462" lon="2.41902609004098"><ele>9.0</ele><time>2026-03-27T16:15:11Z</time></trkpt><trkpt lat="51.049751465751704" lon="2.4191123467635673"><ele>9.0</ele><time>2026-03-27T16:15:13Z</time></trkpt><trkpt lat="51.04979643707281" lon="2.419185166135983"><ele>9.000000000000002</ele><time>2026-03-27T16:15:14.999Z</time></trkpt><trkpt lat="51.04982819379711" lon="2.4192800136701433"><ele>9.0</ele><time>2026-03-27T16:15:16.999Z</time></trkpt><trkpt lat="51.049869793679655" lon="2.4193631437045506"><ele>9.0</ele><time>2026-03-27T16:15:18.999Z</time></trkpt><trkpt lat="51.04991948169995" lon="2.4194523364527867"><ele>9.0</ele><time>2026-03-27T16:15:20.999Z</time></trkpt><trkpt lat="51.04997983052177" lon="2.4195448362341785"><ele>9.0</ele><time>2026-03-27T16:15:22.999Z</time></trkpt><trkpt lat="51.05001826848733" lon="2.4196247649067035"><ele>9.000000000000002</ele><time>2026-03-27T16:15:24.999Z</time></trkpt><trkpt lat="51.049983371902655" lon="2.4197576677493804"><ele>9.0</ele><time>2026-03-27T16:15:27.999Z</time></trkpt><trkpt lat="51.05000994842931" lon="2.4198657259214467"><ele>9.0</ele><time>2026-03-27T16:15:29.999Z</time></trkpt><trkpt lat="51.05005503464544" lon="2.419966819245257"><ele>9.0</ele><time>2026-03-27T16:15:31.999Z</time></trkpt><trkpt lat="51.05013822187989" lon="2.4200244523966994"><ele>9.0</ele><time>2026-03-27T16:15:33.999Z</time></trkpt><trkpt lat="51.05020505446486" lon="2.4200571553352708"><ele>9.0</ele><time>2026-03-27T16:15:35.999Z</time></trkpt><trkpt lat="51.05024053221243" lon="2.420163451775307"><ele>9.0</ele><time>2026-03-27T16:15:37.999Z</time></trkpt><trkpt lat="51.050266883640035" lon="2.4202789075358435"><ele>9.0</ele><time>2026-03-27T16:15:39.999Z</time></trkpt><trkpt lat="51.05029350556362" lon="2.420386416911423"><ele>9.0</ele><time>2026-03-27T16:15:42.999Z</time></trkpt><trkpt lat="51.05032977949608" lon="2.4204790223323576"><ele>9.0</ele><time>2026-03-27T16:15:45.999Z</time></trkpt><trkpt lat="51.0503730416663" lon="2.4206116452858994"><ele>9.0</ele><time>2026-03-27T16:15:48.999Z</time></trkpt><trkpt lat="51.050399997679555" lon="2.42070623277109"><ele>9.0</ele><time>2026-03-27T16:15:50.999Z</time></trkpt><trkpt lat="51.05044333529862" lon="2.420818596608694"><ele>9.0</ele><time>2026-03-27T16:15:53.999Z</time></trkpt><trkpt lat="51.050476418487364" lon="2.420948638536548"><ele>9.0</ele><time>2026-03-27T16:15:56.999Z</time></trkpt><trkpt lat="51.05049627248355" lon="2.421045168689837"><ele>9.000000000000002</ele><time>2026-03-27T16:15:58.999Z</time></trkpt><trkpt lat="51.05052943449058" lon="2.4211651787439847"><ele>9.0</ele><time>2026-03-27T16:16:01.999Z</time></trkpt><trkpt lat="51.05057561862767" lon="2.4212615458214604"><ele>9.0</ele><time>2026-03-27T16:16:04.999Z</time></trkpt><trkpt lat="51.0506167627074" lon="2.4213483869750765"><ele>9.0</ele><time>2026-03-27T16:16:07.999Z</time></trkpt><trkpt lat="51.05064898359384" lon="2.421454077296787"><ele>9.0</ele><time>2026-03-27T16:16:11.999Z</time></trkpt><trkpt lat="51.05069701361401" lon="2.4215341405910804"><ele>9.000000000000002</ele><time>2026-03-27T16:16:14.999Z</time></trkpt><trkpt lat="51.05065695469635" lon="2.421619263017632"><ele>9.0</ele><time>2026-03-27T16:16:29.998Z</time></trkpt><trkpt lat="51.05058873763028" lon="2.421639277299564"><ele>9.166666666666666</ele><time>2026-03-27T16:16:33Z</time></trkpt><trkpt lat="51.050514380564145" lon="2.421705010298646"><ele>9.333333333333334</ele><time>2026-03-27T16:16:36Z</time></trkpt><trkpt lat="51.05044865440828" lon="2.42174357563386"><ele>9.5</ele><time>2026-03-27T16:16:38Z</time></trkpt><trkpt lat="51.05038291409067" lon="2.4218059260616105"><ele>9.666666666666668</ele><time>2026-03-27T16:16:41Z</time></trkpt><trkpt lat="51.0503067976404" lon="2.421824582103444"><ele>9.833333333333334</ele><time>2026-03-27T16:16:44Z</time></trkpt><trkpt lat="51.05022609008115" lon="2.4218878397920727"><ele>10.0</ele><time>2026-03-27T16:16:47Z</time></trkpt><trkpt lat="51.050184991084286" lon="2.4219827199517607"><ele>10.0</ele><time>2026-03-27T16:16:50Z</time></trkpt><trkpt lat="51.05011718552894" lon="2.4220228806683832"><ele>10.0</ele><time>2026-03-27T16:16:52Z</time></trkpt><trkpt lat="51.05004755915924" lon="2.4220511259533084"><ele>10.0</ele><time>2026-03-27T16:16:56Z</time></trkpt><trkpt lat="51.04998552748055" lon="2.4220802186552537"><ele>10.0</ele><time>2026-03-27T16:16:59Z</time></trkpt><trkpt lat="51.04982037567631" lon="2.422155607493987"><ele>10.0</ele><time>2026-03-27T16:17:05.397Z</time></trkpt><trkpt lat="51.049756002659954" lon="2.4221039749704505"><ele>9.833333333333334</ele><time>2026-03-27T16:17:10Z</time></trkpt><trkpt lat="51.049754284369804" lon="2.4219702836148644"><ele>9.666666666666668</ele><time>2026-03-27T16:17:13Z</time></trkpt><trkpt lat="51.049736975739755" lon="2.421831730755439"><ele>9.5</ele><time>2026-03-27T16:17:16Z</time></trkpt><trkpt lat="51.049705502668054" lon="2.4217006910774836"><ele>9.333333333333334</ele><time>2026-03-27T16:17:19Z</time></trkpt><trkpt lat="51.04972664373294" lon="2.421582538298061"><ele>9.166666666666666</ele><time>2026-03-27T16:17:22Z</time></trkpt><trkpt lat="51.049808146904674" lon="2.421537908670265"><ele>9.0</ele><time>2026-03-27T16:17:25Z</time></trkpt><trkpt lat="51.04988192710152" lon="2.4215153687033215"><ele>9.000000000000002</ele><time>2026-03-27T16:17:28Z</time></trkpt><trkpt lat="51.04994333386584" lon="2.42147327884047"><ele>9.0</ele><time>2026-03-27T16:17:31Z</time></trkpt><trkpt lat="51.05000304644263" lon="2.421438906844925"><ele>9.0</ele><time>2026-03-27T16:17:34Z</time></trkpt><trkpt lat="51.05007997136597" lon="2.421413681723528"><ele>9.0</ele><time>2026-03-27T16:17:38Z</time></trkpt><trkpt lat="51.050120681782936" lon="2.4215033825931647"><ele>9.0</ele><time>2026-03-27T16:17:42Z</time></trkpt><trkpt lat="51.050151022600524" lon="2.421614294255511"><ele>9.000000000000002</ele><time>2026-03-27T16:17:46Z</time></trkpt><trkpt lat="51.050170980485795" lon="2.4217529435081553"><ele>9.0</ele><time>2026-03-27T16:17:49Z</time></trkpt><trkpt lat="51.05019263426872" lon="2.4218724305963817"><ele>9.0</ele><time>2026-03-27T16:17:52Z</time></trkpt><trkpt lat="51.05023143011934" lon="2.421980776223282"><ele>9.0</ele><time>2026-03-27T16:17:55Z</time></trkpt><trkpt lat="51.05024839781247" lon="2.4220791755837525"><ele>9.0</ele><time>2026-03-27T16:17:58Z</time></trkpt><trkpt lat="51.05030054670375" lon="2.4222014442673965"><ele>9.0</ele><time>2026-03-27T16:18:00.999Z</time></trkpt><trkpt lat="51.05030303470286" lon="2.4223054928554895"><ele>9.0</ele><time>2026-03-27T16:18:03.999Z</time></trkpt><trkpt lat="51.05033130674116" lon="2.4224282513503135"><ele>9.0</ele><time>2026-03-27T16:18:07.999Z</time></trkpt><trkpt lat="51.0503778322404" lon="2.422552403465255"><ele>9.0</ele><time>2026-03-27T16:18:10.999Z</time></trkpt><trkpt lat="51.05040456271326" lon="2.422667159945843"><ele>9.0</ele><time>2026-03-27T16:18:13.999Z</time></trkpt><trkpt lat="51.050426508391205" lon="2.422774302979059"><ele>9.0</ele><time>2026-03-27T16:18:18.999Z</time></trkpt><trkpt lat="51.050471326098254" lon="2.422897787901803"><ele>9.0</ele><time>2026-03-27T16:19:09.998Z</time></trkpt><trkpt lat="51.05055107987259" lon="2.4229554129648876"><ele>9.0</ele><time>2026-03-27T16:19:12.998Z</time></trkpt><trkpt lat="51.05061413105736" lon="2.4228778044491883"><ele>9.0</ele><time>2026-03-27T16:19:15.998Z</time></trkpt><trkpt lat="51.05069192675992" lon="2.4228295618363958"><ele>9.0</ele><time>2026-03-27T16:19:19Z</time></trkpt><trkpt lat="51.05076622905297" lon="2.4227648815232135"><ele>9.0</ele><time>2026-03-27T16:19:22Z</time></trkpt><trkpt lat="51.05082671923462" lon="2.4227039505076973"><ele>9.0</ele><time>2026-03-27T16:19:25Z</time></trkpt><trkpt lat="51.05090927834296" lon="2.422650759695746"><ele>9.0</ele><time>2026-03-27T16:19:28Z</time></trkpt><trkpt lat="51.05097955677436" lon="2.4225634675291343"><ele>9.0</ele><time>2026-03-27T16:19:30Z</time></trkpt><trkpt lat="51.05103333333053" lon="2.4225043971771547"><ele>9.0</ele><time>2026-03-27T16:19:32Z</time></trkpt><trkpt lat="51.05110134265685" lon="2.42245462337495"><ele>9.000000000000002</ele><time>2026-03-27T16:19:35Z</time></trkpt><trkpt lat="51.05116973199865" lon="2.42238760108172"><ele>9.0</ele><time>2026-03-27T16:19:39Z</time></trkpt><trkpt lat="51.051234057397075" lon="2.4223364374161136"><ele>9.0</ele><time>2026-03-27T16:19:42Z</time></trkpt><trkpt lat="51.05130320787666" lon="2.4223177082702883"><ele>9.0</ele><time>2026-03-27T16:19:45Z</time></trkpt><trkpt lat="51.051361489246595" lon="2.4222557981789596"><ele>9.0</ele><time>2026-03-27T16:19:48Z</time></trkpt><trkpt lat="51.05143621125399" lon="2.4222005837202594"><ele>9.000000000000002</ele><time>2026-03-27T16:19:52Z</time></trkpt><trkpt lat="51.051499309650566" lon="2.4221939627589464"><ele>9.0</ele><time>2026-03-27T16:19:54Z</time></trkpt><trkpt lat="51.051583292431566" lon="2.422237011597779"><ele>9.0</ele><time>2026-03-27T16:19:57Z</time></trkpt><trkpt lat="51.05164768922158" lon="2.4222705405379426"><ele>9.0</ele><time>2026-03-27T16:19:59Z</time></trkpt><trkpt lat="51.05173068912188" lon="2.4222751539242484"><ele>9.0</ele><time>2026-03-27T16:20:01Z</time></trkpt><trkpt lat="51.05182225606348" lon="2.422279709510376"><ele>9.0</ele><time>2026-03-27T16:20:03Z</time></trkpt><trkpt lat="51.05190322812009" lon="2.422296230650954"><ele>9.0</ele><time>2026-03-27T16:20:05.999Z</time></trkpt><trkpt lat="51.05196609358827" lon="2.4222149491400082"><ele>9.0</ele><time>2026-03-27T16:20:08.999Z</time></trkpt><trkpt lat="51.05203147902184" lon="2.42211946303783"><ele>9.0</ele><time>2026-03-27T16:20:11.999Z</time></trkpt><trkpt lat="51.05204133994752" lon="2.4219806289055916"><ele>9.0</ele><time>2026-03-27T16:20:14.999Z</time></trkpt><trkpt lat="51.05201051425431" lon="2.421835993393344"><ele>9.0</ele><time>2026-03-27T16:20:17.999Z</time></trkpt><trkpt lat="51.05198227833987" lon="2.421718030833714"><ele>9.0</ele><time>2026-03-27T16:20:20.999Z</time></trkpt><trkpt lat="51.05195253501296" lon="2.421602953030797"><ele>9.0</ele><time>2026-03-27T16:20:23.999Z</time></trkpt><trkpt lat="51.05190928344691" lon="2.421472248170267"><ele>9.0</ele><time>2026-03-27T16:20:26.999Z</time></trkpt><trkpt lat="51.05188808942548" lon="2.4213543831926256"><ele>9.000000000000002</ele><time>2026-03-27T16:20:29.999Z</time></trkpt><trkpt lat="51.051842784811356" lon="2.4212261160117086"><ele>9.0</ele><time>2026-03-27T16:20:32.999Z</time></trkpt><trkpt lat="51.051818209285564" lon="2.421124158608297"><ele>9.0</ele><time>2026-03-27T16:20:34.999Z</time></trkpt><trkpt lat="51.05180706814485" lon="2.421010334834192"><ele>9.0</ele><time>2026-03-27T16:20:36.999Z</time></trkpt><trkpt lat="51.051791228492" lon="2.420891803390363"><ele>9.0</ele><time>2026-03-27T16:20:38.999Z</time></trkpt><trkpt lat="51.05175294419021" lon="2.4207908267842906"><ele>9.000000000000002</ele><time>2026-03-27T16:20:40.999Z</time></trkpt><trkpt lat="51.051714535428" lon="2.4207063509258773"><ele>9.0</ele><time>2026-03-27T16:20:42.999Z</time></trkpt><trkpt lat="51.0516964227684" lon="2.4205915299933825"><ele>9.0</ele><time>2026-03-27T16:20:44.999Z</time></trkpt><trkpt lat="51.05169356638472" lon="2.4204512932564923"><ele>9.0</ele><time>2026-03-27T16:20:47.999Z</time></trkpt><trkpt lat="51.05165959817713" lon="2.4203606774874484"><ele>9.0</ele><time>2026-03-27T16:20:49.999Z</time></trkpt><trkpt lat="51.05163567211433" lon="2.420248893476535"><ele>9.0</ele><time>2026-03-27T16:20:53.999Z</time></trkpt><trkpt lat="51.0516099527506" lon="2.4201405216858753"><ele>9.0</ele><time>2026-03-27T16:20:57.999Z</time></trkpt><trkpt lat="51.051584747094566" lon="2.4200065427444715"><ele>9.0</ele><time>2026-03-27T16:21:01.999Z</time></trkpt><trkpt lat="51.05156348954096" lon="2.419894416074451"><ele>9.166666666666666</ele><time>2026-03-27T16:21:04.999Z</time></trkpt><trkpt lat="51.051526394654864" lon="2.4197912560303267"><ele>9.333333333333334</ele><time>2026-03-27T16:21:07.999Z</time></trkpt><trkpt lat="51.05150018040242" lon="2.4196726629352496"><ele>9.5</ele><time>2026-03-27T16:21:10.999Z</time></trkpt><trkpt lat="51.051474482267544" lon="2.419542568672506"><ele>9.666666666666668</ele><time>2026-03-27T16:21:13.998Z</time></trkpt><trkpt lat="51.051439872202444" lon="2.419437346848127"><ele>9.833333333333334</ele><time>2026-03-27T16:21:16.998Z</time></trkpt><trkpt lat="51.05141087817926" lon="2.419344125363819"><ele>10.0</ele><time>2026-03-27T16:21:19.998Z</time></trkpt><trkpt lat="51.05137519580037" lon="2.4192350456490472"><ele>10.142857142857142</ele><time>2026-03-27T16:21:23Z</time></trkpt><trkpt lat="51.0513444285808" lon="2.4191248933512366"><ele>10.285714285714286</ele><time>2026-03-27T16:21:26Z</time></trkpt><trkpt lat="51.05133190884335" lon="2.4189918148637437"><ele>10.428571428571429</ele><time>2026-03-27T16:21:29Z</time></trkpt><trkpt lat="51.05130712012005" lon="2.418894690209157"><ele>10.571428571428571</ele><time>2026-03-27T16:21:31Z</time></trkpt><trkpt lat="51.0512673687789" lon="2.4188114429148624"><ele>10.714285714285714</ele><time>2026-03-27T16:21:34Z</time></trkpt><trkpt lat="51.051247269053626" lon="2.418686048203922"><ele>10.857142857142858</ele><time>2026-03-27T16:21:37Z</time></trkpt><trkpt lat="51.051218047991334" lon="2.418584074137665"><ele>11.0</ele><time>2026-03-27T16:21:39Z</time></trkpt><trkpt lat="51.05118769947808" lon="2.4184540910843677"><ele>11.0</ele><time>2026-03-27T16:21:41Z</time></trkpt><trkpt lat="51.05115595772793" lon="2.4183084053919726"><ele>11.0</ele><time>2026-03-27T16:21:43Z</time></trkpt><trkpt lat="51.051107535002195" lon="2.4181526280734364"><ele>11.0</ele><time>2026-03-27T16:21:45Z</time></trkpt><trkpt lat="51.05107743594644" lon="2.4179953144018214"><ele>11.0</ele><time>2026-03-27T16:21:47Z</time></trkpt><trkpt lat="51.05102793630677" lon="2.417876396335535"><ele>11.0</ele><time>2026-03-27T16:21:49Z</time></trkpt><trkpt lat="51.05100730111644" lon="2.417759393074823"><ele>10.714285714285715</ele><time>2026-03-27T16:21:51Z</time></trkpt><trkpt lat="51.05098200895433" lon="2.4176580557224177"><ele>10.428571428571429</ele><time>2026-03-27T16:21:53Z</time></trkpt><trkpt lat="51.05095028974862" lon="2.4175551181396027"><ele>10.142857142857142</ele><time>2026-03-27T16:21:55Z</time></trkpt><trkpt lat="51.05090538184225" lon="2.4174725946932996"><ele>9.857142857142858</ele><time>2026-03-27T16:21:57Z</time></trkpt><trkpt lat="51.05088463188564" lon="2.4173350215448597"><ele>9.571428571428571</ele><time>2026-03-27T16:22:00Z</time></trkpt><trkpt lat="51.05083822817766" lon="2.4172538520832663"><ele>9.285714285714286</ele><time>2026-03-27T16:22:02Z</time></trkpt><trkpt lat="51.05082116034403" lon="2.417154367147374"><ele>9.0</ele><time>2026-03-27T16:22:05Z</time></trkpt><trkpt lat="51.05079432847621" lon="2.417038781591132"><ele>9.000000000000002</ele><time>2026-03-27T16:22:08Z</time></trkpt><trkpt lat="51.050774156013766" lon="2.41692822787469"><ele>9.0</ele><time>2026-03-27T16:22:10.999Z</time></trkpt><trkpt lat="51.050724472647914" lon="2.4168583539415653"><ele>9.0</ele><time>2026-03-27T16:22:13.999Z</time></trkpt><trkpt lat="51.05070827391253" lon="2.416730790201354"><ele>9.0</ele><time>2026-03-27T16:22:17.999Z</time></trkpt><trkpt lat="51.05068813616424" lon="2.416633206339577"><ele>9.0</ele><time>2026-03-27T16:22:20.999Z</time></trkpt><trkpt lat="51.05065720782875" lon="2.4165272515727385"><ele>9.000000000000002</ele><time>2026-03-27T16:22:23.999Z</time></trkpt><trkpt lat="51.05064668686759" lon="2.416414616732909"><ele>9.0</ele><time>2026-03-27T16:22:26.999Z</time></trkpt><trkpt lat="51.050616350526674" lon="2.4163248410452214"><ele>9.0</ele><time>2026-03-27T16:22:29.999Z</time></trkpt><trkpt lat="51.05060786484705" lon="2.416219007349368"><ele>9.0</ele><time>2026-03-27T16:22:32.999Z</time></trkpt><trkpt lat="51.050578571224925" lon="2.4160986962436537"><ele>9.0</ele><time>2026-03-27T16:22:35.999Z</time></trkpt><trkpt lat="51.050536352462025" lon="2.415967382586461"><ele>9.0</ele><time>2026-03-27T16:22:38.999Z</time></trkpt><trkpt lat="51.050503791285976" lon="2.415847938438295"><ele>9.0</ele><time>2026-03-27T16:22:41.999Z</time></trkpt><trkpt lat="51.050479065613104" lon="2.4157160626997354"><ele>9.0</ele><time>2026-03-27T16:22:45.999Z</time></trkpt><trkpt lat="51.05046218176114" lon="2.4155906139867813"><ele>9.333333333333334</ele><time>2026-03-27T16:22:48.999Z</time></trkpt><trkpt lat="51.05043332384941" lon="2.4154634634592456"><ele>9.666666666666666</ele><time>2026-03-27T16:22:52.999Z</time></trkpt><trkpt lat="51.05041011621821" lon="2.4153590506236506"><ele>10.0</ele><time>2026-03-27T16:22:55.999Z</time></trkpt><trkpt lat="51.050378517587404" lon="2.4152447828901433"><ele>10.333333333333332</ele><time>2026-03-27T16:22:58.999Z</time></trkpt><trkpt lat="51.0503356359155" lon="2.415136206261465"><ele>10.666666666666666</ele><time>2026-03-27T16:23:01.999Z</time></trkpt><trkpt lat="51.05031853572604" lon="2.415017819026345"><ele>11.0</ele><time>2026-03-27T16:23:05.999Z</time></trkpt><trkpt lat="51.05028511753084" lon="2.4149032359925156"><ele>11.0</ele><time>2026-03-27T16:23:08.999Z</time></trkpt><trkpt lat="51.05023427495258" lon="2.414784034469499"><ele>11.0</ele><time>2026-03-27T16:23:11.999Z</time></trkpt><trkpt lat="51.05019846168732" lon="2.4146764498955884"><ele>11.0</ele><time>2026-03-27T16:23:15.999Z</time></trkpt><trkpt lat="51.05020341684267" lon="2.414563395252982"><ele>11.0</ele><time>2026-03-27T16:23:18.998Z</time></trkpt><trkpt lat="51.05015910331313" lon="2.4144632424562715"><ele>11.0</ele><time>2026-03-27T16:23:21.998Z</time></trkpt><trkpt lat="51.05010421652733" lon="2.4143778350342946"><ele>11.0</ele><time>2026-03-27T16:23:24.998Z</time></trkpt><trkpt lat="51.05006986981832" lon="2.414252585199256"><ele>10.833333333333332</ele><time>2026-03-27T16:23:27.998Z</time></trkpt><trkpt lat="51.05005180274035" lon="2.4141564293043962"><ele>10.666666666666666</ele><time>2026-03-27T16:23:30Z</time></trkpt><trkpt lat="51.050011914871384" lon="2.4140544967563886"><ele>10.5</ele><time>2026-03-27T16:23:32Z</time></trkpt><trkpt lat="51.049980271804316" lon="2.413926109755226"><ele>10.333333333333334</ele><time>2026-03-27T16:23:35Z</time></trkpt><trkpt lat="51.04994336594991" lon="2.4138093439418835"><ele>10.166666666666668</ele><time>2026-03-27T16:23:38Z</time></trkpt><trkpt lat="51.0499056768886" lon="2.413671303535318"><ele>10.0</ele><time>2026-03-27T16:23:41Z</time></trkpt><trkpt lat="51.04988531137662" lon="2.4135737209816357"><ele>10.0</ele><time>2026-03-27T16:23:43Z</time></trkpt><trkpt lat="51.04986314478238" lon="2.4134614154822587"><ele>10.0</ele><time>2026-03-27T16:23:45Z</time></trkpt><trkpt lat="51.04987100412773" lon="2.4133416979826947"><ele>10.0</ele><time>2026-03-27T16:23:47Z</time></trkpt><trkpt lat="51.04988398041843" lon="2.41322817441369"><ele>10.0</ele><time>2026-03-27T16:23:49Z</time></trkpt><trkpt lat="51.049911117314615" lon="2.413127489583285"><ele>10.0</ele><time>2026-03-27T16:23:51Z</time></trkpt><trkpt lat="51.049872179504035" lon="2.4130350090585093"><ele>10.0</ele><time>2026-03-27T16:23:53Z</time></trkpt><trkpt lat="51.04981886955702" lon="2.4129476430723633"><ele>10.0</ele><time>2026-03-27T16:23:56Z</time></trkpt><trkpt lat="51.04981723809058" lon="2.4128385782249517"><ele>10.0</ele><time>2026-03-27T16:23:59Z</time></trkpt><trkpt lat="51.04980636167022" lon="2.412710262221875"><ele>10.0</ele><time>2026-03-27T16:24:02Z</time></trkpt><trkpt lat="51.04980123534536" lon="2.4125813408123156"><ele>10.0</ele><time>2026-03-27T16:24:05Z</time></trkpt><trkpt lat="51.049808757510405" lon="2.4124702754488117"><ele>10.0</ele><time>2026-03-27T16:24:08Z</time></trkpt><trkpt lat="51.04980922905963" lon="2.4123353633315947"><ele>10.0</ele><time>2026-03-27T16:24:12Z</time></trkpt><trkpt lat="51.04980151605254" lon="2.412234690321884"><ele>10.0</ele><time>2026-03-27T16:24:15Z</time></trkpt><trkpt lat="51.049821698364724" lon="2.4121216555999387"><ele>10.0</ele><time>2026-03-27T16:24:17.999Z</time></trkpt><trkpt lat="51.04982458438118" lon="2.4120208364644946"><ele>10.0</ele><time>2026-03-27T16:24:19.999Z</time></trkpt><trkpt lat="51.04981724849437" lon="2.4118818297471623"><ele>10.0</ele><time>2026-03-27T16:24:22.999Z</time></trkpt><trkpt lat="51.04981711096399" lon="2.411734651824591"><ele>10.0</ele><time>2026-03-27T16:24:25.999Z</time></trkpt><trkpt lat="51.04982246905271" lon="2.411631852189389"><ele>10.0</ele><time>2026-03-27T16:24:27.999Z</time></trkpt><trkpt lat="51.04985146132531" lon="2.4114908928437813"><ele>10.0</ele><time>2026-03-27T16:24:32.999Z</time></trkpt><trkpt lat="51.04988844335623" lon="2.411376556978013"><ele>10.0</ele><time>2026-03-27T16:24:36.999Z</time></trkpt><trkpt lat="51.049896294268926" lon="2.4112753912724374"><ele>10.0</ele><time>2026-03-27T16:24:38.999Z</time></trkpt><trkpt lat="51.04992998656388" lon="2.41117860104428"><ele>10.0</ele><time>2026-03-27T16:24:40.999Z</time></trkpt><trkpt lat="51.049950487352056" lon="2.411050518039236"><ele>10.0</ele><time>2026-03-27T16:24:43.999Z</time></trkpt><trkpt lat="51.04997726302758" lon="2.4109202371989396"><ele>10.0</ele><time>2026-03-27T16:24:46.999Z</time></trkpt><trkpt lat="51.05000336259453" lon="2.4108164688832825"><ele>10.0</ele><time>2026-03-27T16:24:49.999Z</time></trkpt><trkpt lat="51.050023115383546" lon="2.4106779310587902"><ele>10.0</ele><time>2026-03-27T16:24:52.999Z</time></trkpt><trkpt lat="51.050054590890326" lon="2.4105769829792414"><ele>10.0</ele><time>2026-03-27T16:24:54.999Z</time></trkpt><trkpt lat="51.05007711789578" lon="2.4104436649885113"><ele>10.0</ele><time>2026-03-27T16:24:57.999Z</time></trkpt><trkpt lat="51.05008589428632" lon="2.4103321142291074"><ele>10.0</ele><time>2026-03-27T16:25:00.999Z</time></trkpt><trkpt lat="51.050089530975015" lon="2.410196106140048"><ele>10.0</ele><time>2026-03-27T16:25:03.999Z</time></trkpt><trkpt lat="51.050092664657235" lon="2.410086965656204"><ele>10.0</ele><time>2026-03-27T16:25:05.999Z</time></trkpt><trkpt lat="51.05010804050189" lon="2.4099532913453414"><ele>10.0</ele><time>2026-03-27T16:25:08.999Z</time></trkpt><trkpt lat="51.050103236759945" lon="2.4098350180740273"><ele>10.0</ele><time>2026-03-27T16:25:11.999Z</time></trkpt><trkpt lat="51.05012131205987" lon="2.409696097124273"><ele>10.0</ele><time>2026-03-27T16:25:14.999Z</time></trkpt><trkpt lat="51.05016571372596" lon="2.4095759064941147"><ele>10.0</ele><time>2026-03-27T16:25:17.999Z</time></trkpt><trkpt lat="51.050188596630015" lon="2.409480929902039"><ele>10.0</ele><time>2026-03-27T16:25:19.999Z</time></trkpt><trkpt lat="51.05017535776702" lon="2.4093387654744776"><ele>10.0</ele><time>2026-03-27T16:25:23.998Z</time></trkpt><trkpt lat="51.050188263475384" lon="2.409223263971088"><ele>10.142857142857142</ele><time>2026-03-27T16:25:26.998Z</time></trkpt><trkpt lat="51.05020746910554" lon="2.409119160422428"><ele>10.285714285714286</ele><time>2026-03-27T16:25:29.998Z</time></trkpt><trkpt lat="51.05023618872473" lon="2.4090021981358367"><ele>10.428571428571429</ele><time>2026-03-27T16:25:33.998Z</time></trkpt><trkpt lat="51.05030940156819" lon="2.409052943460406"><ele>10.571428571428571</ele><time>2026-03-27T16:25:38Z</time></trkpt><trkpt lat="51.05037155200796" lon="2.409004608023693"><ele>10.714285714285714</ele><time>2026-03-27T16:25:41Z</time></trkpt><trkpt lat="51.05040826600733" lon="2.4088996618619647"><ele>10.857142857142858</ele><time>2026-03-27T16:25:45Z</time></trkpt><trkpt lat="51.05043084130988" lon="2.4087909959898"><ele>11.0</ele><time>2026-03-27T16:25:49Z</time></trkpt><trkpt lat="51.05043609698193" lon="2.408654191369583"><ele>11.0</ele><time>2026-03-27T16:25:53Z</time></trkpt><trkpt lat="51.050441985860296" lon="2.408531427138525"><ele>11.0</ele><time>2026-03-27T16:25:55Z</time></trkpt><trkpt lat="51.05045809991595" lon="2.4084199632755876"><ele>11.0</ele><time>2026-03-27T16:25:57Z</time></trkpt><trkpt lat="51.05039496038929" lon="2.408374452930202"><ele>11.0</ele><time>2026-03-27T16:26:00Z</time></trkpt><trkpt lat="51.05035954699603" lon="2.408274013244001"><ele>11.0</ele><time>2026-03-27T16:26:05Z</time></trkpt><trkpt lat="51.05033799725668" lon="2.4081619591602506"><ele>11.0</ele><time>2026-03-27T16:26:08Z</time></trkpt><trkpt lat="51.050331861028745" lon="2.4080356805854044"><ele>11.0</ele><time>2026-03-27T16:26:11Z</time></trkpt><trkpt lat="51.05032489765242" lon="2.407908144587451"><ele>11.0</ele><time>2026-03-27T16:26:15Z</time></trkpt><trkpt lat="51.05031207877529" lon="2.4077754502433355"><ele>11.0</ele><time>2026-03-27T16:26:19Z</time></trkpt><trkpt lat="51.050312337161685" lon="2.4076406087013633"><ele>11.0</ele><time>2026-03-27T16:26:22Z</time></trkpt><trkpt lat="51.05030489009498" lon="2.4075367399999172"><ele>11.0</ele><time>2026-03-27T16:26:23.999Z</time></trkpt><trkpt lat="51.050299885919436" lon="2.4074144786378695"><ele>11.0</ele><time>2026-03-27T16:26:26.999Z</time></trkpt><trkpt lat="51.05028877119971" lon="2.4073151147678433"><ele>11.0</ele><time>2026-03-27T16:26:29.999Z</time></trkpt><trkpt lat="51.05027930903903" lon="2.4072035518160586"><ele>11.0</ele><time>2026-03-27T16:26:32.999Z</time></trkpt><trkpt lat="51.05029898471092" lon="2.40707340120405"><ele>11.166666666666666</ele><time>2026-03-27T16:26:35.999Z</time></trkpt><trkpt lat="51.05029699449555" lon="2.406947140935245"><ele>11.333333333333332</ele><time>2026-03-27T16:26:39.999Z</time></trkpt><trkpt lat="51.05034339962732" lon="2.4068481962645962"><ele>11.5</ele><time>2026-03-27T16:26:44.999Z</time></trkpt><trkpt lat="51.05033698446827" lon="2.406732946035934"><ele>11.666666666666666</ele><time>2026-03-27T16:26:47.999Z</time></trkpt><trkpt lat="51.050312237655895" lon="2.4066090648348863"><ele>11.833333333333334</ele><time>2026-03-27T16:26:49.999Z</time></trkpt><trkpt lat="51.050276987801276" lon="2.406500099760639"><ele>12.0</ele><time>2026-03-27T16:26:51.999Z</time></trkpt><trkpt lat="51.05025043059931" lon="2.406400381150366"><ele>11.714285714285714</ele><time>2026-03-27T16:26:53.999Z</time></trkpt><trkpt lat="51.05022367383223" lon="2.4062964909583213"><ele>11.428571428571429</ele><time>2026-03-27T16:26:55.999Z</time></trkpt><trkpt lat="51.05022212937674" lon="2.4061818022402415"><ele>11.142857142857142</ele><time>2026-03-27T16:26:57.999Z</time></trkpt><trkpt lat="51.050205242116334" lon="2.4060823180965887"><ele>10.857142857142858</ele><time>2026-03-27T16:26:59.999Z</time></trkpt><trkpt lat="51.05017659665223" lon="2.405967144599564"><ele>10.571428571428571</ele><time>2026-03-27T16:27:01.999Z</time></trkpt><trkpt lat="51.050160206544184" lon="2.4058429125205114"><ele>10.285714285714285</ele><time>2026-03-27T16:27:03.999Z</time></trkpt><trkpt lat="51.05014221074459" lon="2.4057186338277883"><ele>10.0</ele><time>2026-03-27T16:27:05.999Z</time></trkpt><trkpt lat="51.050112639500995" lon="2.4055838570320907"><ele>10.0</ele><time>2026-03-27T16:27:07.999Z</time></trkpt><trkpt lat="51.05008512781061" lon="2.4054703335022265"><ele>10.0</ele><time>2026-03-27T16:27:09.999Z</time></trkpt><trkpt lat="51.050068157178394" lon="2.4053587801451717"><ele>10.0</ele><time>2026-03-27T16:27:11.999Z</time></trkpt><trkpt lat="51.05005230229437" lon="2.4052568051970615"><ele>10.0</ele><time>2026-03-27T16:27:13.999Z</time></trkpt><trkpt lat="51.050032655308165" lon="2.4051240233886335"><ele>10.0</ele><time>2026-03-27T16:27:16.999Z</time></trkpt><trkpt lat="51.0499971826791" lon="2.4049911950451013"><ele>10.0</ele><time>2026-03-27T16:27:19.999Z</time></trkpt><trkpt lat="51.04997686206118" lon="2.404856272066012"><ele>10.0</ele><time>2026-03-27T16:27:21.999Z</time></trkpt><trkpt lat="51.04994085925913" lon="2.4047101801662207"><ele>10.0</ele><time>2026-03-27T16:27:23.999Z</time></trkpt><trkpt lat="51.04992246807632" lon="2.4045757711486213"><ele>10.0</ele><time>2026-03-27T16:27:25.999Z</time></trkpt><trkpt lat="51.04990848877527" lon="2.4044548895614817"><ele>10.0</ele><time>2026-03-27T16:27:27.999Z</time></trkpt><trkpt lat="51.04987892409321" lon="2.4043662414331246"><ele>10.0</ele><time>2026-03-27T16:27:29.998Z</time></trkpt><trkpt lat="51.049862612152936" lon="2.4042599886614875"><ele>10.0</ele><time>2026-03-27T16:27:31.998Z</time></trkpt><trkpt lat="51.049835606099684" lon="2.4041337339104274"><ele>10.0</ele><time>2026-03-27T16:27:34.998Z</time></trkpt><trkpt lat="51.04982294604899" lon="2.4040330148095874"><ele>10.0</ele><time>2026-03-27T16:27:37.998Z</time></trkpt><trkpt lat="51.04980089353721" lon="2.403910774850804"><ele>10.0</ele><time>2026-03-27T16:27:41Z</time></trkpt><trkpt lat="51.04977492943748" lon="2.40380750995138"><ele>10.0</ele><time>2026-03-27T16:27:44Z</time></trkpt><trkpt lat="51.04975484061435" lon="2.403680892029483"><ele>10.0</ele><time>2026-03-27T16:27:48Z</time></trkpt><trkpt lat="51.04973318623256" lon="2.403563284067035"><ele>10.0</ele><time>2026-03-27T16:27:51Z</time></trkpt><trkpt lat="51.049697209805515" lon="2.403479385390822"><ele>10.0</ele><time>2026-03-27T16:27:53Z</time></trkpt><trkpt lat="51.04968160126157" lon="2.4033532065973313"><ele>10.0</ele><time>2026-03-27T16:27:56Z</time></trkpt><trkpt lat="51.049657292545" lon="2.4032511095142683"><ele>10.0</ele><time>2026-03-27T16:27:58Z</time></trkpt><trkpt lat="51.04963622554781" lon="2.4031328160460137"><ele>10.0</ele><time>2026-03-27T16:28:00Z</time></trkpt><trkpt lat="51.04962009635204" lon="2.403029332625705"><ele>10.0</ele><time>2026-03-27T16:28:02Z</time></trkpt><trkpt lat="51.04959164063289" lon="2.402906319530695"><ele>10.0</ele><time>2026-03-27T16:28:05Z</time></trkpt><trkpt lat="51.0495642639354" lon="2.4027806115626564"><ele>10.0</ele><time>2026-03-27T16:28:08Z</time></trkpt><trkpt lat="51.049559806174" lon="2.402677068951191"><ele>10.0</ele><time>2026-03-27T16:28:10Z</time></trkpt><trkpt lat="51.04954060637355" lon="2.4025784287806404"><ele>10.0</ele><time>2026-03-27T16:28:12Z</time></trkpt><trkpt lat="51.049503159293245" lon="2.4024708217661592"><ele>10.0</ele><time>2026-03-27T16:28:14Z</time></trkpt><trkpt lat="51.04948590120079" lon="2.4023242755121283"><ele>10.0</ele><time>2026-03-27T16:28:16Z</time></trkpt><trkpt lat="51.049480942885786" lon="2.40219586462838"><ele>10.0</ele><time>2026-03-27T16:28:18Z</time></trkpt><trkpt lat="51.04947236556665" lon="2.4020828237568503"><ele>10.0</ele><time>2026-03-27T16:28:20Z</time></trkpt><trkpt lat="51.04943249061651" lon="2.40200375523626"><ele>10.0</ele><time>2026-03-27T16:28:22Z</time></trkpt><trkpt lat="51.049381729407045" lon="2.4019338680142996"><ele>10.0</ele><time>2026-03-27T16:28:24Z</time></trkpt><trkpt lat="51.04936700282652" lon="2.4018348617035006"><ele>10.0</ele><time>2026-03-27T16:28:26Z</time></trkpt><trkpt lat="51.049374462307924" lon="2.401706650435285"><ele>10.0</ele><time>2026-03-27T16:28:35.999Z</time></trkpt><trkpt lat="51.04934669744108" lon="2.401547050067915"><ele>10.0</ele><time>2026-03-27T16:28:38.999Z</time></trkpt><trkpt lat="51.0492911780619" lon="2.4014417526325578"><ele>10.0</ele><time>2026-03-27T16:28:40.999Z</time></trkpt><trkpt lat="51.04926946693347" lon="2.4013305775423897"><ele>10.0</ele><time>2026-03-27T16:28:42.999Z</time></trkpt><trkpt lat="51.049208583214934" lon="2.4012531509137447"><ele>10.166666666666668</ele><time>2026-03-27T16:28:45.999Z</time></trkpt><trkpt lat="51.04918612579759" lon="2.401158862751155"><ele>10.333333333333334</ele><time>2026-03-27T16:28:47.999Z</time></trkpt><trkpt lat="51.04917960770155" lon="2.401019430643853"><ele>10.5</ele><time>2026-03-27T16:28:49.999Z</time></trkpt><trkpt lat="51.049138588174856" lon="2.400898334854387"><ele>10.666666666666666</ele><time>2026-03-27T16:28:52.999Z</time></trkpt><trkpt lat="51.0491150763134" lon="2.4007416849111127"><ele>10.833333333333332</ele><time>2026-03-27T16:28:54.999Z</time></trkpt><trkpt lat="51.049065393010316" lon="2.4006094688646646"><ele>11.0</ele><time>2026-03-27T16:28:56.999Z</time></trkpt><trkpt lat="51.04904679951763" lon="2.4004787405437855"><ele>11.0</ele><time>2026-03-27T16:28:58.999Z</time></trkpt><trkpt lat="51.04903418307413" lon="2.400371059426122"><ele>11.0</ele><time>2026-03-27T16:29:00.999Z</time></trkpt><trkpt lat="51.0489541294153" lon="2.4003723101111056"><ele>11.0</ele><time>2026-03-27T16:29:03.999Z</time></trkpt><trkpt lat="51.04894006079924" lon="2.400215115275723"><ele>11.0</ele><time>2026-03-27T16:29:05.999Z</time></trkpt><trkpt lat="51.04896818369835" lon="2.400117955008348"><ele>11.0</ele><time>2026-03-27T16:29:06.999Z</time></trkpt><trkpt lat="51.04888176333571" lon="2.4000293226806515"><ele>11.0</ele><time>2026-03-27T16:29:09.999Z</time></trkpt><trkpt lat="51.048871617858715" lon="2.399909423025197"><ele>11.0</ele><time>2026-03-27T16:29:11.999Z</time></trkpt><trkpt lat="51.04882525651369" lon="2.3997827845580146"><ele>11.0</ele><time>2026-03-27T16:29:39.998Z</time></trkpt><trkpt lat="51.04879175673717" lon="2.399689734026145"><ele>11.0</ele><time>2026-03-27T16:29:41.998Z</time></trkpt><trkpt lat="51.048783559892556" lon="2.399554985207783"><ele>11.0</ele><time>2026-03-27T16:29:43.998Z</time></trkpt><trkpt lat="51.04874512031228" lon="2.3994735097540336"><ele>11.0</ele><time>2026-03-27T16:29:45.998Z</time></trkpt><trkpt lat="51.04871273152739" lon="2.399352016019548"><ele>11.0</ele><time>2026-03-27T16:29:49Z</time></trkpt><trkpt lat="51.04870568425469" lon="2.399251113943658"><ele>10.666666666666666</ele><time>2026-03-27T16:29:51Z</time></trkpt><trkpt lat="51.04870551329033" lon="2.399124451320096"><ele>10.333333333333332</ele><time>2026-03-27T16:29:54Z</time></trkpt><trkpt lat="51.04868746033066" lon="2.3990190693427116"><ele>10.0</ele><time>2026-03-27T16:29:57Z</time></trkpt><trkpt lat="51.0486288654438" lon="2.3989091212465885"><ele>9.666666666666666</ele><time>2026-03-27T16:30:00Z</time></trkpt><trkpt lat="51.04858403147646" lon="2.398752262661859"><ele>9.333333333333334</ele><time>2026-03-27T16:30:03Z</time></trkpt><trkpt lat="51.04854315800393" lon="2.3986496837622755"><ele>9.0</ele><time>2026-03-27T16:30:05Z</time></trkpt><trkpt lat="51.048557179282895" lon="2.3985304378108623"><ele>9.0</ele><time>2026-03-27T16:30:07Z</time></trkpt><trkpt lat="51.04852649437623" lon="2.3984194079316543"><ele>9.0</ele><time>2026-03-27T16:30:10Z</time></trkpt><trkpt lat="51.04848794114089" lon="2.3982673385950735"><ele>9.0</ele><time>2026-03-27T16:30:13Z</time></trkpt><trkpt lat="51.048451813732036" lon="2.3981593310765783"><ele>9.0</ele><time>2026-03-27T16:30:15Z</time></trkpt><trkpt lat="51.04843479087315" lon="2.398034378152177"><ele>9.0</ele><time>2026-03-27T16:30:17Z</time></trkpt><trkpt lat="51.04840466303292" lon="2.3979200097851874"><ele>9.0</ele><time>2026-03-27T16:30:19Z</time></trkpt><trkpt lat="51.048374353652335" lon="2.397830593764839"><ele>9.0</ele><time>2026-03-27T16:30:21Z</time></trkpt><trkpt lat="51.04832877696026" lon="2.3977301924060894"><ele>9.0</ele><time>2026-03-27T16:30:24Z</time></trkpt><trkpt lat="51.04831321923856" lon="2.39758403255675"><ele>9.0</ele><time>2026-03-27T16:30:26Z</time></trkpt><trkpt lat="51.04828390023755" lon="2.397461837185984"><ele>9.0</ele><time>2026-03-27T16:30:28Z</time></trkpt><trkpt lat="51.048252682492176" lon="2.3973513729064573"><ele>9.0</ele><time>2026-03-27T16:30:30Z</time></trkpt><trkpt lat="51.048221516661826" lon="2.3972323891664433"><ele>9.0</ele><time>2026-03-27T16:30:32Z</time></trkpt><trkpt lat="51.04822183048008" lon="2.397119443292746"><ele>9.0</ele><time>2026-03-27T16:30:34Z</time></trkpt><trkpt lat="51.04818498381594" lon="2.397001514811297"><ele>9.0</ele><time>2026-03-27T16:30:36.999Z</time></trkpt><trkpt lat="51.048157370402514" lon="2.396909034259758"><ele>9.0</ele><time>2026-03-27T16:30:38.999Z</time></trkpt><trkpt lat="51.04813560371279" lon="2.396768578335167"><ele>9.0</ele><time>2026-03-27T16:30:40.999Z</time></trkpt><trkpt lat="51.04809157063446" lon="2.396640769797342"><ele>9.0</ele><time>2026-03-27T16:30:43.999Z</time></trkpt><trkpt lat="51.04807036826667" lon="2.396539701528886"><ele>9.0</ele><time>2026-03-27T16:30:45.999Z</time></trkpt><trkpt lat="51.048047952499466" lon="2.3964129324122716"><ele>9.0</ele><time>2026-03-27T16:30:47.999Z</time></trkpt><trkpt lat="51.04805587696042" lon="2.396311639261399"><ele>9.0</ele><time>2026-03-27T16:30:49.999Z</time></trkpt><trkpt lat="51.04798127427936" lon="2.3961396027075645"><ele>9.0</ele><time>2026-03-27T16:30:53.999Z</time></trkpt><trkpt lat="51.04795929505268" lon="2.3960407824200387"><ele>9.0</ele><time>2026-03-27T16:30:54.999Z</time></trkpt><trkpt lat="51.047910244006374" lon="2.3958941803352745"><ele>9.0</ele><time>2026-03-27T16:30:56.999Z</time></trkpt><trkpt lat="51.04788150435121" lon="2.395771951357782"><ele>9.0</ele><time>2026-03-27T16:30:58.999Z</time></trkpt><trkpt lat="51.04786029895628" lon="2.395675847042233"><ele>9.0</ele><time>2026-03-27T16:31:00.999Z</time></trkpt><trkpt lat="51.04782493844983" lon="2.395544862959009"><ele>9.0</ele><time>2026-03-27T16:31:03.999Z</time></trkpt><trkpt lat="51.047821673131025" lon="2.3954275029347687"><ele>9.0</ele><time>2026-03-27T16:31:07.999Z</time></trkpt><trkpt lat="51.04789880342034" lon="2.3954014265934016"><ele>9.0</ele><time>2026-03-27T16:31:10.999Z</time></trkpt><trkpt lat="51.04798587841473" lon="2.3953653905223184"><ele>9.0</ele><time>2026-03-27T16:31:13.999Z</time></trkpt><trkpt lat="51.048039327290894" lon="2.3953060721637986"><ele>9.0</ele><time>2026-03-27T16:31:15.999Z</time></trkpt><trkpt lat="51.048051670432905" lon="2.3951718314526924"><ele>9.0</ele><time>2026-03-27T16:31:18.999Z</time></trkpt><trkpt lat="51.04802395748385" lon="2.3950772037991523"><ele>9.0</ele><time>2026-03-27T16:31:19.999Z</time></trkpt><trkpt lat="51.04798237870764" lon="2.394913050012271"><ele>9.0</ele><time>2026-03-27T16:31:21.999Z</time></trkpt><trkpt lat="51.04791809022644" lon="2.3948019747524065"><ele>9.0</ele><time>2026-03-27T16:31:23.999Z</time></trkpt><trkpt lat="51.04789153012979" lon="2.3946977383936736"><ele>9.0</ele><time>2026-03-27T16:31:25.999Z</time></trkpt><trkpt lat="51.04781501404486" lon="2.3946948056492494"><ele>9.0</ele><time>2026-03-27T16:31:27.999Z</time></trkpt><trkpt lat="51.04774238307347" lon="2.3947421339643182"><ele>9.0</ele><time>2026-03-27T16:31:30.999Z</time></trkpt><trkpt lat="51.04767861994517" lon="2.3947651448296376"><ele>9.0</ele><time>2026-03-27T16:31:33.999Z</time></trkpt><trkpt lat="51.04758576836419" lon="2.3947000443608246"><ele>9.0</ele><time>2026-03-27T16:31:36.999Z</time></trkpt><trkpt lat="51.04750246117761" lon="2.3947331249188193"><ele>9.0</ele><time>2026-03-27T16:31:38.999Z</time></trkpt><trkpt lat="51.047440492562" lon="2.3948098987110162"><ele>9.0</ele><time>2026-03-27T16:31:40.999Z</time></trkpt><trkpt lat="51.04737833834144" lon="2.3948914655497284"><ele>9.0</ele><time>2026-03-27T16:31:42.998Z</time></trkpt><trkpt lat="51.04731965062273" lon="2.3949559419287043"><ele>9.000000000000002</ele><time>2026-03-27T16:31:44.998Z</time></trkpt><trkpt lat="51.04725286057035" lon="2.3949276485152833"><ele>9.0</ele><time>2026-03-27T16:31:49.998Z</time></trkpt><trkpt lat="51.04718977887753" lon="2.3948884896069873"><ele>9.0</ele><time>2026-03-27T16:32:09Z</time></trkpt><trkpt lat="51.04711623691672" lon="2.3949413946414904"><ele>9.0</ele><time>2026-03-27T16:32:12Z</time></trkpt><trkpt lat="51.047057774273945" lon="2.3950201071379063"><ele>9.0</ele><time>2026-03-27T16:32:14Z</time></trkpt><trkpt lat="51.04698974659596" lon="2.395057497584302"><ele>9.000000000000002</ele><time>2026-03-27T16:32:16Z</time></trkpt><trkpt lat="51.046915581642565" lon="2.395091246212243"><ele>9.0</ele><time>2026-03-27T16:32:18Z</time></trkpt><trkpt lat="51.04684002855589" lon="2.3951229725828025"><ele>9.0</ele><time>2026-03-27T16:32:20Z</time></trkpt><trkpt lat="51.04674093586804" lon="2.395165922264211"><ele>9.0</ele><time>2026-03-27T16:32:22Z</time></trkpt><trkpt lat="51.0466795434054" lon="2.3952609335473816"><ele>9.0</ele><time>2026-03-27T16:32:24Z</time></trkpt><trkpt lat="51.04661406399509" lon="2.3953048744308494"><ele>9.0</ele><time>2026-03-27T16:32:26Z</time></trkpt><trkpt lat="51.046554631340236" lon="2.3953654507990403"><ele>9.0</ele><time>2026-03-27T16:32:28Z</time></trkpt><trkpt lat="51.04646927220705" lon="2.3954260344614258"><ele>9.0</ele><time>2026-03-27T16:32:30Z</time></trkpt><trkpt lat="51.04639684564643" lon="2.3954589384054565"><ele>9.0</ele><time>2026-03-27T16:32:32Z</time></trkpt><trkpt lat="51.04630681276533" lon="2.395497759446489"><ele>9.0</ele><time>2026-03-27T16:32:34Z</time></trkpt><trkpt lat="51.04624233410882" lon="2.395542746605826"><ele>9.0</ele><time>2026-03-27T16:32:36Z</time></trkpt><trkpt lat="51.046170420276546" lon="2.395615886590695"><ele>9.0</ele><time>2026-03-27T16:32:39Z</time></trkpt><trkpt lat="51.04610103557034" lon="2.3956752152552894"><ele>9.0</ele><time>2026-03-27T16:32:41.999Z</time></trkpt><trkpt lat="51.046031607455205" lon="2.395721155536219"><ele>9.0</ele><time>2026-03-27T16:32:44.999Z</time></trkpt><trkpt lat="51.04597656423077" lon="2.395806306984894"><ele>9.0</ele><time>2026-03-27T16:32:47.999Z</time></trkpt><trkpt lat="51.04591061644161" lon="2.395834472809164"><ele>9.0</ele><time>2026-03-27T16:32:49.999Z</time></trkpt><trkpt lat="51.04584303747025" lon="2.3959136610771865"><ele>9.0</ele><time>2026-03-27T16:32:52.999Z</time></trkpt><trkpt lat="51.04577923230209" lon="2.3959522895560994"><ele>9.0</ele><time>2026-03-27T16:32:54.999Z</time></trkpt><trkpt lat="51.045695689608415" lon="2.395992111007167"><ele>9.0</ele><time>2026-03-27T16:32:57.999Z</time></trkpt><trkpt lat="51.04560850086686" lon="2.396040203931707"><ele>9.0</ele><time>2026-03-27T16:32:59.999Z</time></trkpt><trkpt lat="51.045546879280344" lon="2.396064749997027"><ele>8.75</ele><time>2026-03-27T16:33:01.999Z</time></trkpt><trkpt lat="51.04546134620665" lon="2.3960925639991695"><ele>8.5</ele><time>2026-03-27T16:33:04.999Z</time></trkpt><trkpt lat="51.045394613388524" lon="2.3961120177150277"><ele>8.25</ele><time>2026-03-27T16:33:06.999Z</time></trkpt><trkpt lat="51.04530402887555" lon="2.3961671248382794"><ele>8.0</ele><time>2026-03-27T16:33:09.999Z</time></trkpt><trkpt lat="51.04509988572771" lon="2.396400014013774"><ele>7.999999999999999</ele><time>2026-03-27T16:33:10.999Z</time></trkpt><trkpt lat="51.04500803182993" lon="2.396443443077594"><ele>8.0</ele><time>2026-03-27T16:33:12.999Z</time></trkpt><trkpt lat="51.044927819444155" lon="2.3964905345761505"><ele>8.0</ele><time>2026-03-27T16:33:14.999Z</time></trkpt><trkpt lat="51.04486224294142" lon="2.3965450592518613"><ele>8.0</ele><time>2026-03-27T16:33:16.999Z</time></trkpt><trkpt lat="51.04480444302222" lon="2.3965957540805327"><ele>7.999999999999999</ele><time>2026-03-27T16:33:18.999Z</time></trkpt><trkpt lat="51.044701348511474" lon="2.3965928380441883"><ele>8.0</ele><time>2026-03-27T16:33:27.999Z</time></trkpt><trkpt lat="51.04464005801482" lon="2.3965355517523417"><ele>8.0</ele><time>2026-03-27T16:33:29.999Z</time></trkpt><trkpt lat="51.044549598284355" lon="2.396585371502504"><ele>8.0</ele><time>2026-03-27T16:33:31.999Z</time></trkpt><trkpt lat="51.044464303215264" lon="2.3966126336028832"><ele>8.0</ele><time>2026-03-27T16:33:33.999Z</time></trkpt><trkpt lat="51.04436716906668" lon="2.396692340926985"><ele>8.0</ele><time>2026-03-27T16:33:35.999Z</time></trkpt><trkpt lat="51.04427810096431" lon="2.3967609465351076"><ele>8.0</ele><time>2026-03-27T16:33:37.999Z</time></trkpt><trkpt lat="51.04417011020044" lon="2.3968416363342895"><ele>8.166666666666666</ele><time>2026-03-27T16:33:39.999Z</time></trkpt><trkpt lat="51.04406111788732" lon="2.39690298641357"><ele>8.333333333333332</ele><time>2026-03-27T16:33:41.999Z</time></trkpt><trkpt lat="51.04399056031178" lon="2.396968006955854"><ele>8.5</ele><time>2026-03-27T16:33:43.999Z</time></trkpt><trkpt lat="51.04394040418426" lon="2.397039901478555"><ele>8.666666666666666</ele><time>2026-03-27T16:33:45.999Z</time></trkpt><trkpt lat="51.04384222960975" lon="2.3970655539163417"><ele>8.833333333333334</ele><time>2026-03-27T16:33:47.999Z</time></trkpt><trkpt lat="51.04376572436674" lon="2.3970961816435823"><ele>9.0</ele><time>2026-03-27T16:33:49.998Z</time></trkpt><trkpt lat="51.04370321373685" lon="2.3971654278620496"><ele>8.833333333333334</ele><time>2026-03-27T16:33:51.998Z</time></trkpt><trkpt lat="51.04360010372587" lon="2.3972076120816586"><ele>8.666666666666666</ele><time>2026-03-27T16:33:54.998Z</time></trkpt><trkpt lat="51.043523326321264" lon="2.3972426686965207"><ele>8.5</ele><time>2026-03-27T16:33:59Z</time></trkpt><trkpt lat="51.04345847684931" lon="2.3972825980886308"><ele>8.333333333333332</ele><time>2026-03-27T16:34:01Z</time></trkpt><trkpt lat="51.043387712837976" lon="2.397352724178614"><ele>8.166666666666666</ele><time>2026-03-27T16:34:04Z</time></trkpt><trkpt lat="51.04332313205347" lon="2.397410467171528"><ele>8.0</ele><time>2026-03-27T16:34:07Z</time></trkpt><trkpt lat="51.043253670852586" lon="2.397360263653888"><ele>7.999999999999999</ele><time>2026-03-27T16:34:11Z</time></trkpt><trkpt lat="51.04324891052944" lon="2.3972537980630904"><ele>8.0</ele><time>2026-03-27T16:34:14Z</time></trkpt><trkpt lat="51.04321887027208" lon="2.3971118222466203"><ele>8.0</ele><time>2026-03-27T16:34:17Z</time></trkpt><trkpt lat="51.04318222044797" lon="2.3969634814249163"><ele>8.0</ele><time>2026-03-27T16:34:20Z</time></trkpt><trkpt lat="51.043128659101555" lon="2.3968685765567304"><ele>7.999999999999999</ele><time>2026-03-27T16:34:22Z</time></trkpt><trkpt lat="51.04310479926298" lon="2.3967266100667852"><ele>8.0</ele><time>2026-03-27T16:34:24Z</time></trkpt><trkpt lat="51.04304556135922" lon="2.396635594627353"><ele>7.833333333333333</ele><time>2026-03-27T16:34:26Z</time></trkpt><trkpt lat="51.04302262391865" lon="2.396498506806425"><ele>7.666666666666666</ele><time>2026-03-27T16:34:28Z</time></trkpt><trkpt lat="51.04302636660725" lon="2.3963833460040833"><ele>7.5</ele><time>2026-03-27T16:34:30Z</time></trkpt><trkpt lat="51.04300476251077" lon="2.396247635815639"><ele>7.333333333333334</ele><time>2026-03-27T16:34:32Z</time></trkpt><trkpt lat="51.042950966641236" lon="2.396144282794561"><ele>7.166666666666667</ele><time>2026-03-27T16:34:35Z</time></trkpt><trkpt lat="51.04294140977138" lon="2.3960380323549635"><ele>7.0</ele><time>2026-03-27T16:34:37Z</time></trkpt><trkpt lat="51.04288239172172" lon="2.3959194570949633"><ele>7.0</ele><time>2026-03-27T16:34:40Z</time></trkpt><trkpt lat="51.042838185819484" lon="2.3958247414728766"><ele>7.0</ele><time>2026-03-27T16:34:42Z</time></trkpt><trkpt lat="51.04281385888646" lon="2.395700509984478"><ele>7.0</ele><time>2026-03-27T16:34:44Z</time></trkpt><trkpt lat="51.04277754738117" lon="2.395607186747301"><ele>7.0</ele><time>2026-03-27T16:34:45.999Z</time></trkpt><trkpt lat="51.04275853836244" lon="2.3955098907335746"><ele>7.0</ele><time>2026-03-27T16:34:48.999Z</time></trkpt><trkpt lat="51.042746421478356" lon="2.39539826905689"><ele>7.0</ele><time>2026-03-27T16:34:51.999Z</time></trkpt><trkpt lat="51.04271508263453" lon="2.395300757835807"><ele>7.0</ele><time>2026-03-27T16:34:53.999Z</time></trkpt><trkpt lat="51.04270148646682" lon="2.395150231396028"><ele>7.166666666666667</ele><time>2026-03-27T16:34:55.999Z</time></trkpt><trkpt lat="51.04267554212586" lon="2.3950341072764716"><ele>7.333333333333334</ele><time>2026-03-27T16:34:57.999Z</time></trkpt><trkpt lat="51.042667561195344" lon="2.394878778612943"><ele>7.5</ele><time>2026-03-27T16:34:59.999Z</time></trkpt><trkpt lat="51.04263928018738" lon="2.3947465330397812"><ele>7.666666666666666</ele><time>2026-03-27T16:35:01.999Z</time></trkpt><trkpt lat="51.04261683592457" lon="2.3946512125634083"><ele>7.833333333333333</ele><time>2026-03-27T16:35:03.999Z</time></trkpt><trkpt lat="51.04256703574425" lon="2.3945765415603946"><ele>8.0</ele><time>2026-03-27T16:35:07.999Z</time></trkpt><trkpt lat="51.04253817021508" lon="2.3944717127183406"><ele>8.0</ele><time>2026-03-27T16:35:10.999Z</time></trkpt><trkpt lat="51.042500629858786" lon="2.3943590266059993"><ele>7.999999999999999</ele><time>2026-03-27T16:35:13.999Z</time></trkpt><trkpt lat="51.04246386805459" lon="2.39427692886301"><ele>8.0</ele><time>2026-03-27T16:35:15.999Z</time></trkpt><trkpt lat="51.04244017543328" lon="2.3941603560133458"><ele>8.0</ele><time>2026-03-27T16:35:18.999Z</time></trkpt><trkpt lat="51.04242641288561" lon="2.394045116171215"><ele>7.999999999999999</ele><time>2026-03-27T16:35:20.999Z</time></trkpt><trkpt lat="51.04239539080816" lon="2.3939418716075944"><ele>8.0</ele><time>2026-03-27T16:35:22.999Z</time></trkpt><trkpt lat="51.0423557940054" lon="2.393832864761504"><ele>8.0</ele><time>2026-03-27T16:35:25.999Z</time></trkpt><trkpt lat="51.042335682313656" lon="2.3936916362047653"><ele>7.999999999999999</ele><time>2026-03-27T16:35:28.999Z</time></trkpt><trkpt lat="51.042340722467046" lon="2.393574410235346"><ele>8.0</ele><time>2026-03-27T16:35:30.999Z</time></trkpt><trkpt lat="51.04237109820636" lon="2.3934763886696846"><ele>8.0</ele><time>2026-03-27T16:35:32.999Z</time></trkpt><trkpt lat="51.042355712507195" lon="2.3933738627233754"><ele>8.0</ele><time>2026-03-27T16:35:34.999Z</time></trkpt><trkpt lat="51.04232727843414" lon="2.3932707962367763"><ele>7.999999999999999</ele><time>2026-03-27T16:35:37.999Z</time></trkpt><trkpt lat="51.04225939971286" lon="2.393180402267306"><ele>8.0</ele><time>2026-03-27T16:35:40.999Z</time></trkpt><trkpt lat="51.04218457384816" lon="2.3931250934100676"><ele>8.0</ele><time>2026-03-27T16:35:42.999Z</time></trkpt><trkpt lat="51.042201974027854" lon="2.3930072314335904"><ele>8.0</ele><time>2026-03-27T16:35:44.999Z</time></trkpt><trkpt lat="51.042168426435964" lon="2.392914450675336"><ele>8.0</ele><time>2026-03-27T16:35:45.999Z</time></trkpt><trkpt lat="51.04213779535775" lon="2.3928024380847894"><ele>8.0</ele><time>2026-03-27T16:35:47.999Z</time></trkpt><trkpt lat="51.04193662289242" lon="2.392168114397856"><ele>7.999999999999999</ele><time>2026-03-27T16:35:48.999Z</time></trkpt><trkpt lat="51.04191063764802" lon="2.3920750438618783"><ele>8.0</ele><time>2026-03-27T16:35:50.999Z</time></trkpt><trkpt lat="51.04187954998607" lon="2.391976751990326"><ele>8.0</ele><time>2026-03-27T16:35:52.999Z</time></trkpt><trkpt lat="51.041845456703214" lon="2.3918515351441805"><ele>8.0</ele><time>2026-03-27T16:35:54.998Z</time></trkpt><trkpt lat="51.04181048579806" lon="2.3917370880372686"><ele>7.999999999999999</ele><time>2026-03-27T16:35:56.998Z</time></trkpt><trkpt lat="51.04176200109012" lon="2.3915966474849877"><ele>8.0</ele><time>2026-03-27T16:35:58.998Z</time></trkpt><trkpt lat="51.04173377866211" lon="2.39147186061817"><ele>7.999999999999999</ele><time>2026-03-27T16:36:00.998Z</time></trkpt><trkpt lat="51.04170134425562" lon="2.3913765752921208"><ele>8.0</ele><time>2026-03-27T16:36:02.998Z</time></trkpt><trkpt lat="51.04167540741004" lon="2.3912502016209087"><ele>8.0</ele><time>2026-03-27T16:36:06Z</time></trkpt><trkpt lat="51.04166163251209" lon="2.3911025521273466"><ele>8.0</ele><time>2026-03-27T16:36:09Z</time></trkpt><trkpt lat="51.041640429928016" lon="2.390996053391873"><ele>7.999999999999999</ele><time>2026-03-27T16:36:11Z</time></trkpt><trkpt lat="51.04162303236812" lon="2.390898631567196"><ele>8.0</ele><time>2026-03-27T16:36:14Z</time></trkpt><trkpt lat="51.04159194358952" lon="2.39079826660209"><ele>7.999999999999999</ele><time>2026-03-27T16:36:16Z</time></trkpt><trkpt lat="51.04156441461666" lon="2.390690984313912"><ele>8.0</ele><time>2026-03-27T16:36:18Z</time></trkpt><trkpt lat="51.04155344498344" lon="2.390542873492928"><ele>8.0</ele><time>2026-03-27T16:36:21Z</time></trkpt><trkpt lat="51.041525804245566" lon="2.3904376832634693"><ele>8.0</ele><time>2026-03-27T16:36:23Z</time></trkpt><trkpt lat="51.04150289127265" lon="2.3903286068128975"><ele>7.999999999999999</ele><time>2026-03-27T16:36:25Z</time></trkpt><trkpt lat="51.041507263581536" lon="2.390210784142027"><ele>8.0</ele><time>2026-03-27T16:36:27Z</time></trkpt><trkpt lat="51.04147137388547" lon="2.390090562881469"><ele>7.999999999999999</ele><time>2026-03-27T16:36:29Z</time></trkpt><trkpt lat="51.04145507468785" lon="2.3899766886957328"><ele>8.0</ele><time>2026-03-27T16:36:31Z</time></trkpt><trkpt lat="51.04143594481022" lon="2.3898750398232105"><ele>8.0</ele><time>2026-03-27T16:36:33Z</time></trkpt><trkpt lat="51.041433674852634" lon="2.389729662047353"><ele>8.0</ele><time>2026-03-27T16:36:36Z</time></trkpt><trkpt lat="51.041430276019504" lon="2.389589781832033"><ele>7.999999999999999</ele><time>2026-03-27T16:36:39Z</time></trkpt><trkpt lat="51.04142666425291" lon="2.3894802528705017"><ele>8.0</ele><time>2026-03-27T16:36:41Z</time></trkpt><trkpt lat="51.041404726345554" lon="2.3893793971565733"><ele>8.0</ele><time>2026-03-27T16:36:46Z</time></trkpt><trkpt lat="51.041390776259924" lon="2.3892798185073034"><ele>8.0</ele><time>2026-03-27T16:36:59.999Z</time></trkpt><trkpt lat="51.04153516108048" lon="2.389283986987894"><ele>8.0</ele><time>2026-03-27T16:38:12Z</time></trkpt><trkpt lat="51.041661553413974" lon="2.3892782151323977"><ele>8.0</ele><time>2026-03-27T16:38:20Z</time></trkpt><trkpt lat="51.041743831338934" lon="2.3892684784775047"><ele>8.0</ele><time>2026-03-27T16:38:23Z</time></trkpt><trkpt lat="51.04183623044636" lon="2.3892776534810074"><ele>7.999999999999999</ele><time>2026-03-27T16:38:26Z</time></trkpt><trkpt lat="51.04190581128871" lon="2.389281084471691"><ele>8.0</ele><time>2026-03-27T16:38:28Z</time></trkpt><trkpt lat="51.04196888648341" lon="2.389235905363969"><ele>8.0</ele><time>2026-03-27T16:38:30Z</time></trkpt><trkpt lat="51.04203806219334" lon="2.3892148932031634"><ele>8.0</ele><time>2026-03-27T16:38:33Z</time></trkpt><trkpt lat="51.04213334221583" lon="2.3891468483768863"><ele>7.999999999999999</ele><time>2026-03-27T16:38:37Z</time></trkpt><trkpt lat="51.0422044217747" lon="2.3891041561321145"><ele>8.0</ele><time>2026-03-27T16:38:42Z</time></trkpt><trkpt lat="51.042272400015506" lon="2.389092856935807"><ele>7.999999999999999</ele><time>2026-03-27T16:38:45Z</time></trkpt><trkpt lat="51.04238847808848" lon="2.3890776554699116"><ele>8.0</ele><time>2026-03-27T16:38:49Z</time></trkpt><trkpt lat="51.04245560108067" lon="2.3890722242480034"><ele>8.0</ele><time>2026-03-27T16:38:51Z</time></trkpt><trkpt lat="51.04254982785718" lon="2.3890513111306517"><ele>8.0</ele><time>2026-03-27T16:38:55Z</time></trkpt><trkpt lat="51.042623109299235" lon="2.3890362084172803"><ele>7.999999999999999</ele><time>2026-03-27T16:38:57.999Z</time></trkpt><trkpt lat="51.04269393657118" lon="2.3889982946170916"><ele>8.0</ele><time>2026-03-27T16:39:01.999Z</time></trkpt><trkpt lat="51.04276841355063" lon="2.3890002884909114"><ele>8.0</ele><time>2026-03-27T16:39:04.999Z</time></trkpt><trkpt lat="51.042854806223886" lon="2.389012652541439"><ele>8.0</ele><time>2026-03-27T16:39:07.999Z</time></trkpt><trkpt lat="51.04293035175512" lon="2.389015058278004"><ele>8.0</ele><time>2026-03-27T16:39:09.999Z</time></trkpt><trkpt lat="51.04299727215661" lon="2.389008812078191"><ele>8.0</ele><time>2026-03-27T16:39:11.999Z</time></trkpt><trkpt lat="51.043074928292654" lon="2.3890191417727404"><ele>8.0</ele><time>2026-03-27T16:39:14.999Z</time></trkpt><trkpt lat="51.0432618044042" lon="2.3890376525762864"><ele>7.833333333333333</ele><time>2026-03-27T16:39:23.999Z</time></trkpt><trkpt lat="51.043325273028" lon="2.3891134421231373"><ele>7.666666666666666</ele><time>2026-03-27T16:39:25.999Z</time></trkpt><trkpt lat="51.043387598539304" lon="2.389143935891753"><ele>7.5</ele><time>2026-03-27T16:39:27.999Z</time></trkpt><trkpt lat="51.04346357282891" lon="2.3890426326750385"><ele>7.333333333333334</ele><time>2026-03-27T16:39:29.999Z</time></trkpt><trkpt lat="51.04355134193708" lon="2.3889891712160862"><ele>7.166666666666667</ele><time>2026-03-27T16:39:32.999Z</time></trkpt><trkpt lat="51.04364198146862" lon="2.388954596560585"><ele>7.0</ele><time>2026-03-27T16:39:35.999Z</time></trkpt><trkpt lat="51.04372603623187" lon="2.3889392690559825"><ele>7.000000000000001</ele><time>2026-03-27T16:39:38.999Z</time></trkpt><trkpt lat="51.04379352363635" lon="2.3889342551322135"><ele>7.0</ele><time>2026-03-27T16:39:40.999Z</time></trkpt><trkpt lat="51.04388283542361" lon="2.388937786885166"><ele>7.0</ele><time>2026-03-27T16:39:43.999Z</time></trkpt><trkpt lat="51.04395000556503" lon="2.3889091383725534"><ele>7.0</ele><time>2026-03-27T16:39:45.999Z</time></trkpt><trkpt lat="51.04402058472018" lon="2.3889088425950553"><ele>7.000000000000001</ele><time>2026-03-27T16:39:47.999Z</time></trkpt><trkpt lat="51.04409764563496" lon="2.3889049919725354"><ele>7.0</ele><time>2026-03-27T16:39:49.999Z</time></trkpt><trkpt lat="51.04421061023438" lon="2.388895944735378"><ele>7.199999999999999</ele><time>2026-03-27T16:39:53.999Z</time></trkpt><trkpt lat="51.04427811496291" lon="2.388895264872994"><ele>7.3999999999999995</ele><time>2026-03-27T16:39:56.999Z</time></trkpt><trkpt lat="51.04434356934886" lon="2.3888826778765773"><ele>7.6000000000000005</ele><time>2026-03-27T16:39:58.999Z</time></trkpt><trkpt lat="51.044595026662385" lon="2.3888721224336176"><ele>7.800000000000001</ele><time>2026-03-27T16:40:05.998Z</time></trkpt><trkpt lat="51.04465789890518" lon="2.388852092027493"><ele>8.0</ele><time>2026-03-27T16:40:07.998Z</time></trkpt><trkpt lat="51.04473483685989" lon="2.3888278591562315"><ele>7.999999999999999</ele><time>2026-03-27T16:40:09.998Z</time></trkpt><trkpt lat="51.04480344923347" lon="2.3887875541929526"><ele>8.0</ele><time>2026-03-27T16:40:12.998Z</time></trkpt><trkpt lat="51.04486706152119" lon="2.388786821108386"><ele>8.0</ele><time>2026-03-27T16:40:14.998Z</time></trkpt><trkpt lat="51.04494518178152" lon="2.3887743285998173"><ele>8.0</ele><time>2026-03-27T16:40:17Z</time></trkpt><trkpt lat="51.04503556732348" lon="2.3887708792267417"><ele>7.999999999999999</ele><time>2026-03-27T16:40:19Z</time></trkpt><trkpt lat="51.04512203947286" lon="2.388721232755349"><ele>8.0</ele><time>2026-03-27T16:40:21Z</time></trkpt><trkpt lat="51.045190343539055" lon="2.388670779872823"><ele>8.166666666666666</ele><time>2026-03-27T16:40:23Z</time></trkpt><trkpt lat="51.04525131765488" lon="2.388612550595381"><ele>8.333333333333332</ele><time>2026-03-27T16:40:25Z</time></trkpt><trkpt lat="51.045314911247026" lon="2.388565809871279"><ele>8.5</ele><time>2026-03-27T16:40:27Z</time></trkpt><trkpt lat="51.045387765652286" lon="2.3885418069891466"><ele>8.666666666666666</ele><time>2026-03-27T16:40:29Z</time></trkpt><trkpt lat="51.0454630348469" lon="2.3884983863479325"><ele>8.833333333333334</ele><time>2026-03-27T16:40:32Z</time></trkpt><trkpt lat="51.04554428257818" lon="2.388459002271141"><ele>9.0</ele><time>2026-03-27T16:40:36Z</time></trkpt><trkpt lat="51.04562896468655" lon="2.388441554441275"><ele>9.0</ele><time>2026-03-27T16:40:39Z</time></trkpt><trkpt lat="51.04578452536257" lon="2.388368395350397"><ele>9.0</ele><time>2026-03-27T16:40:45Z</time></trkpt><trkpt lat="51.045854075872676" lon="2.3883141307216906"><ele>9.0</ele><time>2026-03-27T16:40:48Z</time></trkpt><trkpt lat="51.04593682319156" lon="2.388246138402119"><ele>9.0</ele><time>2026-03-27T16:40:51Z</time></trkpt><trkpt lat="51.04600067053686" lon="2.3882143614011504"><ele>9.0</ele><time>2026-03-27T16:40:53Z</time></trkpt><trkpt lat="51.04607548258362" lon="2.3881722029996646"><ele>9.0</ele><time>2026-03-27T16:40:55Z</time></trkpt><trkpt lat="51.04615558210973" lon="2.3881336945308336"><ele>9.0</ele><time>2026-03-27T16:40:57Z</time></trkpt><trkpt lat="51.04622245720694" lon="2.3880963473728265"><ele>9.0</ele><time>2026-03-27T16:40:59Z</time></trkpt><trkpt lat="51.04630926692469" lon="2.388060806554879"><ele>9.0</ele><time>2026-03-27T16:41:02Z</time></trkpt><trkpt lat="51.04639933913966" lon="2.3880289072069516"><ele>9.0</ele><time>2026-03-27T16:41:04.999Z</time></trkpt><trkpt lat="51.04647619238175" lon="2.387980854852166"><ele>9.0</ele><time>2026-03-27T16:41:06.999Z</time></trkpt><trkpt lat="51.04654149123932" lon="2.3879507124504786"><ele>9.0</ele><time>2026-03-27T16:41:08.999Z</time></trkpt><trkpt lat="51.046608994122344" lon="2.3878807711266004"><ele>9.0</ele><time>2026-03-27T16:41:11.999Z</time></trkpt><trkpt lat="51.046684484304315" lon="2.3878392083703006"><ele>9.0</ele><time>2026-03-27T16:41:14.999Z</time></trkpt><trkpt lat="51.046767288589145" lon="2.387812570716103"><ele>9.0</ele><time>2026-03-27T16:41:16.999Z</time></trkpt><trkpt lat="51.046834645094144" lon="2.38778516436022"><ele>9.0</ele><time>2026-03-27T16:41:18.999Z</time></trkpt><trkpt lat="51.04689987469314" lon="2.3877496590682443"><ele>9.0</ele><time>2026-03-27T16:41:20.999Z</time></trkpt><trkpt lat="51.04697664419278" lon="2.3877148078165105"><ele>9.0</ele><time>2026-03-27T16:41:23.999Z</time></trkpt><trkpt lat="51.0470461340455" lon="2.387685089438587"><ele>9.0</ele><time>2026-03-27T16:41:27.999Z</time></trkpt><trkpt lat="51.047115545983544" lon="2.3876612315599552"><ele>9.0</ele><time>2026-03-27T16:41:30.999Z</time></trkpt><trkpt lat="51.047178940496245" lon="2.3876001715497637"><ele>9.0</ele><time>2026-03-27T16:41:34.999Z</time></trkpt><trkpt lat="51.04726778110611" lon="2.3875755026110226"><ele>9.0</ele><time>2026-03-27T16:41:39.999Z</time></trkpt><trkpt lat="51.04734198681031" lon="2.387531230868482"><ele>9.0</ele><time>2026-03-27T16:41:43.999Z</time></trkpt><trkpt lat="51.04744109028418" lon="2.387501481500055"><ele>9.0</ele><time>2026-03-27T16:41:46.999Z</time></trkpt><trkpt lat="51.04752024939115" lon="2.387469202335175"><ele>9.0</ele><time>2026-03-27T16:41:48.999Z</time></trkpt><trkpt lat="51.047587071636876" lon="2.3874358971542855"><ele>9.0</ele><time>2026-03-27T16:41:50.999Z</time></trkpt><trkpt lat="51.0476507542979" lon="2.387414648468098"><ele>9.0</ele><time>2026-03-27T16:41:52.999Z</time></trkpt><trkpt lat="51.04771579523393" lon="2.387349865408732"><ele>9.0</ele><time>2026-03-27T16:41:55.999Z</time></trkpt><trkpt lat="51.047787733112365" lon="2.387281113576095"><ele>9.0</ele><time>2026-03-27T16:41:58.999Z</time></trkpt><trkpt lat="51.047866026838136" lon="2.3872323997151863"><ele>9.0</ele><time>2026-03-27T16:42:01.999Z</time></trkpt><trkpt lat="51.04794777666916" lon="2.387195661021563"><ele>9.0</ele><time>2026-03-27T16:42:04.999Z</time></trkpt><trkpt lat="51.048025910697156" lon="2.3871496585270573"><ele>9.0</ele><time>2026-03-27T16:42:07.999Z</time></trkpt><trkpt lat="51.04813081794299" lon="2.3871329020740135"><ele>9.0</ele><time>2026-03-27T16:42:10.999Z</time></trkpt><trkpt lat="51.04820250920037" lon="2.3870923677776212"><ele>9.0</ele><time>2026-03-27T16:42:12.998Z</time></trkpt><trkpt lat="51.0482883980962" lon="2.3870265485199473"><ele>9.0</ele><time>2026-03-27T16:42:15.998Z</time></trkpt><trkpt lat="51.04831783944168" lon="2.3869167092098245"><ele>9.0</ele><time>2026-03-27T16:42:16.998Z</time></trkpt><trkpt lat="51.04833030397914" lon="2.3867401942179645"><ele>9.0</ele><time>2026-03-27T16:42:18.998Z</time></trkpt><trkpt lat="51.04833048202063" lon="2.386598441761604"><ele>9.0</ele><time>2026-03-27T16:42:20.998Z</time></trkpt><trkpt lat="51.048311107913214" lon="2.386464426452133"><ele>9.0</ele><time>2026-03-27T16:42:23Z</time></trkpt><trkpt lat="51.04828758067756" lon="2.38634316111098"><ele>9.0</ele><time>2026-03-27T16:42:25Z</time></trkpt><trkpt lat="51.048281157462" lon="2.386233363526243"><ele>9.0</ele><time>2026-03-27T16:42:27Z</time></trkpt><trkpt lat="51.04827530365773" lon="2.3860941047272872"><ele>9.0</ele><time>2026-03-27T16:42:30Z</time></trkpt><trkpt lat="51.048274010094914" lon="2.3859820334889044"><ele>9.0</ele><time>2026-03-27T16:42:33Z</time></trkpt><trkpt lat="51.04823547285413" lon="2.3858677986172836"><ele>9.0</ele><time>2026-03-27T16:42:37Z</time></trkpt><trkpt lat="51.04823425305773" lon="2.3857437581917886"><ele>9.0</ele><time>2026-03-27T16:42:39Z</time></trkpt><trkpt lat="51.04820720015729" lon="2.385623974188854"><ele>9.0</ele><time>2026-03-27T16:42:41Z</time></trkpt><trkpt lat="51.04816629260964" lon="2.385527501464293"><ele>9.0</ele><time>2026-03-27T16:42:43Z</time></trkpt><trkpt lat="51.04814971583006" lon="2.3854171809263383"><ele>9.0</ele><time>2026-03-27T16:42:45Z</time></trkpt><trkpt lat="51.04812652024894" lon="2.3853008156316267"><ele>9.0</ele><time>2026-03-27T16:42:47Z</time></trkpt><trkpt lat="51.04809935536957" lon="2.385188653201467"><ele>9.0</ele><time>2026-03-27T16:42:49Z</time></trkpt><trkpt lat="51.048069034588586" lon="2.385077648241789"><ele>9.0</ele><time>2026-03-27T16:42:51Z</time></trkpt><trkpt lat="51.048052849824344" lon="2.384953225306582"><ele>9.0</ele><time>2026-03-27T16:42:53Z</time></trkpt><trkpt lat="51.048025669228466" lon="2.384841664245384"><ele>9.0</ele><time>2026-03-27T16:42:55Z</time></trkpt><trkpt lat="51.04799102776646" lon="2.3847274103905636"><ele>8.714285714285715</ele><time>2026-03-27T16:42:57Z</time></trkpt><trkpt lat="51.047961401547845" lon="2.38462748484881"><ele>8.428571428571429</ele><time>2026-03-27T16:42:59Z</time></trkpt><trkpt lat="51.047952832847926" lon="2.3844947421937595"><ele>8.142857142857142</ele><time>2026-03-27T16:43:01Z</time></trkpt><trkpt lat="51.04792256361063" lon="2.384392002059376"><ele>7.857142857142858</ele><time>2026-03-27T16:43:03Z</time></trkpt><trkpt lat="51.047909647895295" lon="2.3842722083422085"><ele>7.571428571428571</ele><time>2026-03-27T16:43:05Z</time></trkpt><trkpt lat="51.0478925545203" lon="2.384162420182497"><ele>7.285714285714286</ele><time>2026-03-27T16:43:07Z</time></trkpt><trkpt lat="51.047865852435976" lon="2.3840492742326016"><ele>7.0</ele><time>2026-03-27T16:43:09Z</time></trkpt><trkpt lat="51.04783531841627" lon="2.3839403642409573"><ele>6.833333333333334</ele><time>2026-03-27T16:43:10.999Z</time></trkpt><trkpt lat="51.04781185698171" lon="2.3838270246410724"><ele>6.666666666666667</ele><time>2026-03-27T16:43:12.999Z</time></trkpt><trkpt lat="51.04777448489879" lon="2.383696828734991"><ele>6.5</ele><time>2026-03-27T16:43:14.999Z</time></trkpt><trkpt lat="51.04775568235978" lon="2.3835910901386352"><ele>6.333333333333334</ele><time>2026-03-27T16:43:16.999Z</time></trkpt><trkpt lat="51.04773933424323" lon="2.3834711029977265"><ele>6.166666666666667</ele><time>2026-03-27T16:43:19.999Z</time></trkpt><trkpt lat="51.047710069248346" lon="2.3833515636740055"><ele>6.0</ele><time>2026-03-27T16:43:22.999Z</time></trkpt><trkpt lat="51.047686383446674" lon="2.3832337926734595"><ele>6.0</ele><time>2026-03-27T16:43:25.999Z</time></trkpt><trkpt lat="51.047670640418005" lon="2.3831064689106802"><ele>6.0</ele><time>2026-03-27T16:43:28.999Z</time></trkpt><trkpt lat="51.04765224899908" lon="2.382982426742778"><ele>6.0</ele><time>2026-03-27T16:43:31.999Z</time></trkpt><trkpt lat="51.04762826368797" lon="2.3828299867028657"><ele>6.0</ele><time>2026-03-27T16:43:34.999Z</time></trkpt><trkpt lat="51.04756766878752" lon="2.382867760406876"><ele>6.0</ele><time>2026-03-27T16:43:36.999Z</time></trkpt><trkpt lat="51.04749723397636" lon="2.382855987079246"><ele>6.0</ele><time>2026-03-27T16:43:38.999Z</time></trkpt><trkpt lat="51.047427354760195" lon="2.382779874401177"><ele>5.666666666666667</ele><time>2026-03-27T16:43:40.999Z</time></trkpt><trkpt lat="51.047346294994306" lon="2.3827240403881698"><ele>5.333333333333333</ele><time>2026-03-27T16:43:42.999Z</time></trkpt><trkpt lat="51.04728015694248" lon="2.3826572425773023"><ele>5.0</ele><time>2026-03-27T16:43:44.999Z</time></trkpt><trkpt lat="51.047207978621714" lon="2.382585951873506"><ele>4.666666666666666</ele><time>2026-03-27T16:43:46.999Z</time></trkpt><trkpt lat="51.047137734507366" lon="2.3825169272427007"><ele>4.333333333333333</ele><time>2026-03-27T16:43:48.999Z</time></trkpt><trkpt lat="51.047057302813286" lon="2.38244174700187"><ele>4.0</ele><time>2026-03-27T16:43:50.999Z</time></trkpt><trkpt lat="51.046975809048554" lon="2.382372388430335"><ele>3.9999999999999996</ele><time>2026-03-27T16:43:52.999Z</time></trkpt><trkpt lat="51.04689970082533" lon="2.3822894224836553"><ele>4.0</ele><time>2026-03-27T16:43:54.999Z</time></trkpt><trkpt lat="51.04683632431273" lon="2.38222272797726"><ele>4.0</ele><time>2026-03-27T16:43:56.999Z</time></trkpt><trkpt lat="51.046816353197485" lon="2.38211519208901"><ele>4.0</ele><time>2026-03-27T16:43:58.999Z</time></trkpt><trkpt lat="51.046866191070634" lon="2.3820100142774927"><ele>3.9999999999999996</ele><time>2026-03-27T16:44:00.999Z</time></trkpt><trkpt lat="51.046915895114935" lon="2.381888239270605"><ele>4.0</ele><time>2026-03-27T16:44:02.999Z</time></trkpt><trkpt lat="51.04696690027819" lon="2.3817478821298885"><ele>4.2</ele><time>2026-03-27T16:44:04.999Z</time></trkpt><trkpt lat="51.04701680502198" lon="2.381596837353671"><ele>4.4</ele><time>2026-03-27T16:44:06.999Z</time></trkpt><trkpt lat="51.04706147557457" lon="2.3814530400318707"><ele>4.6</ele><time>2026-03-27T16:44:08.999Z</time></trkpt><trkpt lat="51.047103753492756" lon="2.3812990359481887"><ele>4.8</ele><time>2026-03-27T16:44:10.999Z</time></trkpt><trkpt lat="51.04712987220635" lon="2.3811567729765812"><ele>5.0</ele><time>2026-03-27T16:44:12.999Z</time></trkpt><trkpt lat="51.047127463139496" lon="2.380998590690704"><ele>5.0</ele><time>2026-03-27T16:44:14.999Z</time></trkpt><trkpt lat="51.04711578589327" lon="2.380878419232438"><ele>5.0</ele><time>2026-03-27T16:44:16.999Z</time></trkpt><trkpt lat="51.047084673408605" lon="2.3807743892658153"><ele>5.0</ele><time>2026-03-27T16:44:18.998Z</time></trkpt><trkpt lat="51.04705208432114" lon="2.380667367653203"><ele>5.0</ele><time>2026-03-27T16:44:20.998Z</time></trkpt><trkpt lat="51.04703904239236" lon="2.3805518786516227"><ele>5.0</ele><time>2026-03-27T16:44:22.998Z</time></trkpt><trkpt lat="51.04701190483976" lon="2.380433113284766"><ele>5.0</ele><time>2026-03-27T16:44:24.998Z</time></trkpt><trkpt lat="51.04697023868638" lon="2.380301717708226"><ele>5.2</ele><time>2026-03-27T16:44:26.998Z</time></trkpt><trkpt lat="51.046857803220256" lon="2.3802219150411106"><ele>5.4</ele><time>2026-03-27T16:44:29Z</time></trkpt><trkpt lat="51.046748813755926" lon="2.380244214704103"><ele>5.6</ele><time>2026-03-27T16:44:31Z</time></trkpt><trkpt lat="51.04670289070167" lon="2.3803235016381206"><ele>5.8</ele><time>2026-03-27T16:44:32Z</time></trkpt><trkpt lat="51.04661743538644" lon="2.3804115883988772"><ele>6.0</ele><time>2026-03-27T16:44:34Z</time></trkpt><trkpt lat="51.04654618705672" lon="2.3804912252114128"><ele>6.166666666666667</ele><time>2026-03-27T16:44:36Z</time></trkpt><trkpt lat="51.04648452292622" lon="2.380550916635486"><ele>6.333333333333334</ele><time>2026-03-27T16:44:38Z</time></trkpt><trkpt lat="51.04642494611909" lon="2.3806244555705436"><ele>6.5</ele><time>2026-03-27T16:44:41Z</time></trkpt><trkpt lat="51.046350521391986" lon="2.380668403868722"><ele>6.666666666666667</ele><time>2026-03-27T16:44:43Z</time></trkpt><trkpt lat="51.04626914569883" lon="2.3807205325114786"><ele>6.833333333333334</ele><time>2026-03-27T16:44:45Z</time></trkpt><trkpt lat="51.04620389917431" lon="2.380761063474991"><ele>7.0</ele><time>2026-03-27T16:44:47Z</time></trkpt><trkpt lat="51.04615014848271" lon="2.380828809861317"><ele>7.0</ele><time>2026-03-27T16:44:49Z</time></trkpt><trkpt lat="51.046087772790244" lon="2.3808667613171393"><ele>7.0</ele><time>2026-03-27T16:44:51Z</time></trkpt><trkpt lat="51.04601887067865" lon="2.3809041241207822"><ele>7.0</ele><time>2026-03-27T16:44:53Z</time></trkpt><trkpt lat="51.04595161530734" lon="2.380950696489515"><ele>7.0</ele><time>2026-03-27T16:44:55Z</time></trkpt><trkpt lat="51.045875401059995" lon="2.380993358509286"><ele>7.0</ele><time>2026-03-27T16:44:57Z</time></trkpt><trkpt lat="51.04580787545753" lon="2.38101088849018"><ele>7.0</ele><time>2026-03-27T16:44:59Z</time></trkpt><trkpt lat="51.04573668370239" lon="2.3810421466769673"><ele>7.0</ele><time>2026-03-27T16:45:02Z</time></trkpt><trkpt lat="51.04567063974383" lon="2.381067882360453"><ele>7.000000000000001</ele><time>2026-03-27T16:45:05Z</time></trkpt><trkpt lat="51.04559542761519" lon="2.3810735003955084"><ele>7.0</ele><time>2026-03-27T16:45:07Z</time></trkpt><trkpt lat="51.04551682071571" lon="2.381102995166834"><ele>7.0</ele><time>2026-03-27T16:45:09Z</time></trkpt><trkpt lat="51.045432148057024" lon="2.3811155558487522"><ele>7.0</ele><time>2026-03-27T16:45:11Z</time></trkpt><trkpt lat="51.045363959056964" lon="2.3811274620018144"><ele>7.000000000000001</ele><time>2026-03-27T16:45:13Z</time></trkpt><trkpt lat="51.04528758868551" lon="2.3811330691086576"><ele>7.0</ele><time>2026-03-27T16:45:15Z</time></trkpt><trkpt lat="51.04522061536496" lon="2.3811723129017137"><ele>7.0</ele><time>2026-03-27T16:45:16.999Z</time></trkpt><trkpt lat="51.04515098968646" lon="2.38118538550082"><ele>7.0</ele><time>2026-03-27T16:45:18.999Z</time></trkpt><trkpt lat="51.04506929255911" lon="2.3812098324121616"><ele>7.0</ele><time>2026-03-27T16:45:20.999Z</time></trkpt><trkpt lat="51.0449992167388" lon="2.381230529725355"><ele>7.0</ele><time>2026-03-27T16:45:22.999Z</time></trkpt><trkpt lat="51.044941717512444" lon="2.3812921178054425"><ele>7.0</ele><time>2026-03-27T16:45:24.999Z</time></trkpt><trkpt lat="51.04488464168226" lon="2.3813391370928705"><ele>7.0</ele><time>2026-03-27T16:45:26.999Z</time></trkpt><trkpt lat="51.04481974997395" lon="2.381344476380473"><ele>7.0</ele><time>2026-03-27T16:45:28.999Z</time></trkpt><trkpt lat="51.04473515495564" lon="2.3813917063972663"><ele>6.714285714285714</ele><time>2026-03-27T16:45:31.999Z</time></trkpt><trkpt lat="51.04466136934954" lon="2.381388974901173"><ele>6.428571428571429</ele><time>2026-03-27T16:45:33.999Z</time></trkpt><trkpt lat="51.04460216018075" lon="2.3814436384826356"><ele>6.142857142857142</ele><time>2026-03-27T16:45:35.999Z</time></trkpt><trkpt lat="51.04453321575181" lon="2.381484070660168"><ele>5.857142857142858</ele><time>2026-03-27T16:45:37.999Z</time></trkpt><trkpt lat="51.044460540738534" lon="2.3815216665015506"><ele>5.571428571428571</ele><time>2026-03-27T16:45:39.999Z</time></trkpt><trkpt lat="51.044393695249056" lon="2.3815741328403073"><ele>5.285714285714286</ele><time>2026-03-27T16:45:41.999Z</time></trkpt><trkpt lat="51.04432377541396" lon="2.381622401594681"><ele>5.0</ele><time>2026-03-27T16:45:43.999Z</time></trkpt><trkpt lat="51.04425524015402" lon="2.3816476283159416"><ele>5.0</ele><time>2026-03-27T16:45:45.999Z</time></trkpt><trkpt lat="51.04417706858714" lon="2.3816092455466022"><ele>5.0</ele><time>2026-03-27T16:45:48.999Z</time></trkpt><trkpt lat="51.04411816214821" lon="2.3815693158013076"><ele>5.0</ele><time>2026-03-27T16:45:53.999Z</time></trkpt><trkpt lat="51.04406226998883" lon="2.381640735864716"><ele>5.0</ele><time>2026-03-27T16:46:15.999Z</time></trkpt><trkpt lat="51.04397890883689" lon="2.3816692627018607"><ele>5.0</ele><time>2026-03-27T16:46:19.999Z</time></trkpt><trkpt lat="51.04392917963981" lon="2.381600346004852"><ele>5.0</ele><time>2026-03-27T16:46:23.999Z</time></trkpt><trkpt lat="51.043898144431935" lon="2.3815108643743"><ele>5.0</ele><time>2026-03-27T16:46:26.998Z</time></trkpt><trkpt lat="51.04384957176324" lon="2.3814179377860194"><ele>5.142857142857142</ele><time>2026-03-27T16:46:31.998Z</time></trkpt><trkpt lat="51.0438045784655" lon="2.3813314591744508"><ele>5.285714285714286</ele><time>2026-03-27T16:46:38Z</time></trkpt><trkpt lat="51.043761647380116" lon="2.381242976228848"><ele>5.428571428571429</ele><time>2026-03-27T16:46:42Z</time></trkpt><trkpt lat="51.04370175766083" lon="2.3811502530092374"><ele>5.571428571428571</ele><time>2026-03-27T16:46:47Z</time></trkpt><trkpt lat="51.04367381942481" lon="2.3810558334528635"><ele>5.714285714285714</ele><time>2026-03-27T16:46:51Z</time></trkpt><trkpt lat="51.04363263467841" lon="2.3809720968569907"><ele>5.857142857142857</ele><time>2026-03-27T16:46:54Z</time></trkpt><trkpt lat="51.043580498140564" lon="2.380879260593782"><ele>6.0</ele><time>2026-03-27T16:46:59Z</time></trkpt><trkpt lat="51.043539273418844" lon="2.3807702632756347"><ele>5.999999999999999</ele><time>2026-03-27T16:47:03Z</time></trkpt><trkpt lat="51.04348528511901" lon="2.380689984029802"><ele>6.0</ele><time>2026-03-27T16:47:07Z</time></trkpt><trkpt lat="51.04344063095406" lon="2.380584920784488"><ele>6.0</ele><time>2026-03-27T16:47:10Z</time></trkpt><trkpt lat="51.04339688101303" lon="2.3805057225914834"><ele>6.0</ele><time>2026-03-27T16:47:12Z</time></trkpt><trkpt lat="51.04336359813278" lon="2.380386723500119"><ele>6.0</ele><time>2026-03-27T16:47:15Z</time></trkpt><trkpt lat="51.04331225334278" lon="2.380310925218207"><ele>5.999999999999999</ele><time>2026-03-27T16:47:18Z</time></trkpt><trkpt lat="51.04329114488104" lon="2.380208394296832"><ele>6.0</ele><time>2026-03-27T16:47:20Z</time></trkpt><trkpt lat="51.0432738995176" lon="2.3801008562791144"><ele>6.142857142857142</ele><time>2026-03-27T16:47:22Z</time></trkpt><trkpt lat="51.04325524615322" lon="2.3800042088026054"><ele>6.285714285714286</ele><time>2026-03-27T16:47:23.999Z</time></trkpt><trkpt lat="51.043216812640026" lon="2.3799186672101382"><ele>6.428571428571429</ele><time>2026-03-27T16:47:25.999Z</time></trkpt><trkpt lat="51.0431789100864" lon="2.3798285122829634"><ele>6.571428571428571</ele><time>2026-03-27T16:47:27.999Z</time></trkpt><trkpt lat="51.043101394329554" lon="2.3797913496881833"><ele>6.714285714285714</ele><time>2026-03-27T16:47:29.999Z</time></trkpt><trkpt lat="51.04305608316256" lon="2.379715185734508"><ele>6.857142857142857</ele><time>2026-03-27T16:47:31.999Z</time></trkpt><trkpt lat="51.04300966388164" lon="2.379640527717217"><ele>7.0</ele><time>2026-03-27T16:47:33.999Z</time></trkpt><trkpt lat="51.04295726265194" lon="2.3795801810061894"><ele>7.166666666666667</ele><time>2026-03-27T16:47:35.999Z</time></trkpt><trkpt lat="51.04289971989925" lon="2.3795019881655413"><ele>7.333333333333334</ele><time>2026-03-27T16:47:37.999Z</time></trkpt><trkpt lat="51.04285546588201" lon="2.379419242197266"><ele>7.5</ele><time>2026-03-27T16:47:39.999Z</time></trkpt><trkpt lat="51.04283261546887" lon="2.3792607128881045"><ele>7.666666666666666</ele><time>2026-03-27T16:47:43.999Z</time></trkpt><trkpt lat="51.04280362288244" lon="2.3791214022653704"><ele>7.833333333333333</ele><time>2026-03-27T16:47:46.999Z</time></trkpt><trkpt lat="51.04275917545994" lon="2.378990368112034"><ele>8.0</ele><time>2026-03-27T16:47:49.999Z</time></trkpt><trkpt lat="51.042713014556064" lon="2.3788712112002193"><ele>7.666666666666666</ele><time>2026-03-27T16:47:52.999Z</time></trkpt><trkpt lat="51.042660286860645" lon="2.3787521125868887"><ele>7.333333333333333</ele><time>2026-03-27T16:47:55.999Z</time></trkpt><trkpt lat="51.04261267225605" lon="2.3786721316618036"><ele>7.0</ele><time>2026-03-27T16:47:57.999Z</time></trkpt><trkpt lat="51.04256229066574" lon="2.3785733953418298"><ele>6.666666666666666</ele><time>2026-03-27T16:48:01.999Z</time></trkpt><trkpt lat="51.04247773470028" lon="2.378618944330155"><ele>6.333333333333333</ele><time>2026-03-27T16:48:04.999Z</time></trkpt><trkpt lat="51.04240831285456" lon="2.378653798252322"><ele>6.0</ele><time>2026-03-27T16:48:07.999Z</time></trkpt><trkpt lat="51.042330081334235" lon="2.378625078184938"><ele>5.0</ele><time>2026-03-27T16:48:10.999Z</time></trkpt><trkpt lat="51.042269389728084" lon="2.378584054603647"><ele>5.0</ele><time>2026-03-27T16:48:12.999Z</time></trkpt></trkseg></trk></gpx>